Darstellungsparameter: Aktuell verwendete Einstellungen:
Skalierung der Graphiken ... ?
xyx+y,   Skalierungsfaktor:      Skalierung: Modus: x, Faktor: 1
Darstellungszeitraum ... ?
Vom - - bis: - -   Zeitraum: 30.10.2007 - 29.11.2007
Min/Max/Avg-Anzeige ... ?
Zeige MMA aktuell
Zeige MMA Monat
Zeige MMA alles
Zeige --A aktuell
Zeige --A Monat
Zeige --A alles
Keine MMA-Anzeige
MMA:
Average (ber die Originaldaten)
MMA-Basis: 30.10.2007 - 29.11.2007
Quicknavigation für Darstellung... ?
Tage:      1T, 2T, 3T, 5T -1T -2T -3T -5T +1T +2T +3T +5T
Wochen: 1W, 2W, 3W -1W -2W -3W +1W +2W +3W
Monate: 1M, 3M, 6M -1M -3M -6M +1M +3M +6M
Jahre:    1J, 3J, 5J, 10J -1J -3J -5J -10J +1J +3J +5J +10J
Nutze für die Darstellung ... ?
Originaldaten oder Mittelwerte auf ...
Stundenbasis Tagesbasis Wochenbasis
Monatsbasis Jahresbasis      Datenbasis: Original-Daten
Darstellen als:
Statistik (Auto) Statistik J:M      Darstellung:
Zur Graphik,    zurück zur Übersicht aller Sensoren.
 
Tabellarische Datenbersicht: ?
 
Sensor: Nr:Datum:Temp:Abs-Feuchte:Windchill:Wind:
Aussen-T/F 1 30-10-2007 00:09:01 8.6 C 8.16 g/m*3 8.6 C 0 km/h
2 30-10-2007 00:21:02 8.6 C 8.16 g/m*3 8.6 C 0 km/h
3 30-10-2007 00:33:02 8.6 C 8.16 g/m*3 8.6 C 0 km/h
4 30-10-2007 00:45:02 8.6 C 8.16 g/m*3 8.6 C 0 km/h
5 30-10-2007 00:57:02 8.6 C 8.16 g/m*3 8.6 C 0 km/h
6 30-10-2007 01:09:01 8.6 C 8.16 g/m*3 8.6 C 0 km/h
7 30-10-2007 01:21:02 8.6 C 8.16 g/m*3 8.6 C 0 km/h
8 30-10-2007 01:33:01 8.6 C 8.16 g/m*3 8.6 C 0 km/h
9 30-10-2007 01:45:01 8.6 C 8.16 g/m*3 8.6 C 0 km/h
10 30-10-2007 01:57:01 8.6 C 8.16 g/m*3 8.6 C 0 km/h
11 30-10-2007 02:09:02 8.6 C 8.16 g/m*3 8.6 C 0 km/h
12 30-10-2007 02:21:01 8.6 C 8.16 g/m*3 8.6 C 0 km/h
13 30-10-2007 02:33:02 8.6 C 8.16 g/m*3 8.6 C 0 km/h
14 30-10-2007 02:46:04 8.6 C 8.16 g/m*3 8.6 C 0 km/h
15 30-10-2007 02:58:04 8.6 C 8.16 g/m*3 8.6 C 0 km/h
16 30-10-2007 03:10:04 8.6 C 8.16 g/m*3 8.6 C 0 km/h
17 30-10-2007 03:22:04 8.6 C 8.16 g/m*3 8.6 C 0 km/h
18 30-10-2007 03:34:02 8.7 C 8.22 g/m*3 8.7 C 0 km/h
19 30-10-2007 03:46:02 8.5 C 8.11 g/m*3 8.5 C 0 km/h
20 30-10-2007 03:58:02 8.3 C 8.01 g/m*3 8.3 C 0 km/h
21 30-10-2007 04:10:02 8 C 7.85 g/m*3 8 C 0 km/h
22 30-10-2007 04:22:02 7.9 C 7.8 g/m*3 7.9 C 0 km/h
23 30-10-2007 04:34:02 7.9 C 7.8 g/m*3 7.9 C 0 km/h
24 30-10-2007 04:46:01 7.8 C 7.75 g/m*3 7.8 C 0 km/h
25 30-10-2007 04:58:01 7.8 C 7.75 g/m*3 7.8 C 0 km/h
Sensor: Nr:Datum:Temp:Abs-Feuchte:Windchill:Wind:
Aussen-T/F 26 30-10-2007 05:10:02 7.7 C 7.7 g/m*3 7.7 C 0 km/h
27 30-10-2007 05:22:02 7.8 C 7.75 g/m*3 7.8 C 0 km/h
28 30-10-2007 05:34:02 7.8 C 7.75 g/m*3 7.8 C 0 km/h
29 30-10-2007 05:46:03 7.7 C 7.7 g/m*3 7.7 C 0 km/h
30 30-10-2007 05:58:03 7.7 C 7.7 g/m*3 7.7 C 0 km/h
31 30-10-2007 06:10:02 7.8 C 7.75 g/m*3 7.8 C 0 km/h
32 30-10-2007 06:22:03 7.8 C 7.75 g/m*3 7.8 C 0 km/h
33 30-10-2007 06:34:02 7.7 C 7.7 g/m*3 7.7 C 0 km/h
34 30-10-2007 06:46:01 7.7 C 7.7 g/m*3 7.7 C 0 km/h
35 30-10-2007 06:58:01 7.7 C 7.7 g/m*3 7.7 C 0 km/h
36 30-10-2007 07:10:02 7.7 C 7.7 g/m*3 7.7 C 0 km/h
37 30-10-2007 07:22:01 7.7 C 7.7 g/m*3 7.7 C 0 km/h
38 30-10-2007 07:34:02 7.7 C 7.7 g/m*3 7.7 C 0 km/h
39 30-10-2007 07:46:02 7.6 C 7.65 g/m*3 7.6 C 0 km/h
40 30-10-2007 07:58:02 7.8 C 7.75 g/m*3 7.8 C 0 km/h
41 30-10-2007 08:10:03 7.9 C 7.8 g/m*3 7.9 C 0 km/h
42 30-10-2007 08:22:02 8.1 C 7.9 g/m*3 8.1 C 0 km/h
43 30-10-2007 08:34:03 8.2 C 7.96 g/m*3 8.2 C 0 km/h
44 30-10-2007 08:46:02 8.2 C 7.96 g/m*3 8.2 C 0 km/h
45 30-10-2007 08:58:02 8.4 C 7.97 g/m*3 8.4 C 0 km/h
46 30-10-2007 09:10:02 8.6 C 8.08 g/m*3 8.6 C 0 km/h
47 30-10-2007 09:22:02 8.6 C 7.91 g/m*3 8.6 C 0 km/h
48 30-10-2007 09:34:02 8.8 C 7.92 g/m*3 8.8 C 0 km/h
49 30-10-2007 09:46:02 9.1 C 7.9 g/m*3 9.1 C 0 km/h
50 30-10-2007 09:58:02 9.5 C 8.1 g/m*3 9.5 C 0 km/h
Sensor: Nr:Datum:Temp:Abs-Feuchte:Windchill:Wind:
Aussen-T/F 51 30-10-2007 10:10:02 9.5 C 8.01 g/m*3 9.5 C 0 km/h
52 30-10-2007 10:22:02 9.6 C 7.51 g/m*3 9.6 C 0 km/h
53 30-10-2007 10:34:02 9.7 C 7.19 g/m*3 9.7 C 0 km/h
54 30-10-2007 10:46:02 10.2 C 7.04 g/m*3 10.2 C 0 km/h
55 30-10-2007 10:58:03 10.1 C 6.81 g/m*3 10.1 C 0 km/h
56 30-10-2007 11:10:01 10 C 6.48 g/m*3 10 C 0 km/h
57 30-10-2007 11:22:02 10.2 C 6.76 g/m*3 10.2 C 0 km/h
58 30-10-2007 11:34:02 10.2 C 6.85 g/m*3 10.2 C 0 km/h
59 30-10-2007 11:46:02 10.3 C 6.8 g/m*3 10.3 C 0 km/h
60 30-10-2007 11:58:02 11.1 C 6.55 g/m*3 11.1 C 0 km/h
61 30-10-2007 12:10:02 11.1 C 5.74 g/m*3 11.1 C 0 km/h
62 30-10-2007 12:22:02 10.9 C 6.07 g/m*3 10.9 C 0 km/h
63 30-10-2007 12:34:02 10.8 C 6.33 g/m*3 10.8 C 0 km/h
64 30-10-2007 12:46:02 10.7 C 6.19 g/m*3 10.7 C 0 km/h
65 30-10-2007 12:58:02 11.1 C 6.14 g/m*3 11.1 C 0 km/h
66 30-10-2007 13:10:02 11.5 C 5.89 g/m*3 11.5 C 0 km/h
67 30-10-2007 13:22:01 11.4 C 5.54 g/m*3 11.4 C 0 km/h
68 30-10-2007 13:34:02 11.4 C 5.65 g/m*3 11.4 C 0 km/h
69 30-10-2007 13:46:02 11.5 C 5.58 g/m*3 11.5 C 0 km/h
70 30-10-2007 13:58:02 11.7 C 5.54 g/m*3 11.7 C 0 km/h
71 30-10-2007 14:10:02 11.6 C 5.92 g/m*3 11.6 C 0 km/h
72 30-10-2007 14:22:02 11.4 C 5.85 g/m*3 11.4 C 0 km/h
73 30-10-2007 14:34:01 11 C 5.71 g/m*3 11 C 0 km/h
74 30-10-2007 14:46:02 10.8 C 5.93 g/m*3 10.8 C 0 km/h
75 30-10-2007 14:58:02 10.7 C 5.99 g/m*3 10.7 C 0 km/h
Sensor: Nr:Datum:Temp:Abs-Feuchte:Windchill:Wind:
Aussen-T/F 76 30-10-2007 15:10:02 10.7 C 5.89 g/m*3 10.7 C 0 km/h
77 30-10-2007 15:22:02 10.8 C 6.03 g/m*3 10.8 C 0 km/h
78 30-10-2007 15:34:01 10.7 C 6.09 g/m*3 10.7 C 0 km/h
79 30-10-2007 15:46:02 10.3 C 6.03 g/m*3 10.3 C 0 km/h
80 30-10-2007 15:58:02 9.9 C 6.16 g/m*3 9.9 C 0 km/h
81 30-10-2007 16:10:02 9.6 C 6.41 g/m*3 9.6 C 0 km/h
82 30-10-2007 16:22:02 9.1 C 6.48 g/m*3 9.1 C 0 km/h
83 30-10-2007 16:34:02 8.8 C 6.53 g/m*3 8.8 C 0 km/h
84 30-10-2007 16:46:02 8.6 C 6.53 g/m*3 8.6 C 0 km/h
85 30-10-2007 16:58:02 8.2 C 6.45 g/m*3 8.2 C 0 km/h
86 30-10-2007 17:10:02 8.1 C 6.57 g/m*3 8.1 C 0 km/h
87 30-10-2007 17:22:02 8.3 C 6.74 g/m*3 8.3 C 0 km/h
88 30-10-2007 17:34:02 8.4 C 6.79 g/m*3 8.4 C 0 km/h
89 30-10-2007 17:46:02 8.4 C 6.87 g/m*3 8.4 C 0 km/h
90 30-10-2007 17:58:02 8.1 C 6.82 g/m*3 8.1 C 0 km/h
91 30-10-2007 18:10:03 7.9 C 6.82 g/m*3 7.9 C 0 km/h
92 30-10-2007 18:22:02 7.8 C 6.86 g/m*3 7.8 C 0 km/h
93 30-10-2007 18:34:02 7.4 C 6.68 g/m*3 7.4 C 0 km/h
94 30-10-2007 18:46:02 7.4 C 6.84 g/m*3 7.4 C 0 km/h
95 30-10-2007 18:58:02 7.6 C 7.01 g/m*3 7.6 C 0 km/h
96 30-10-2007 19:10:01 7.8 C 7.1 g/m*3 7.8 C 0 km/h
97 30-10-2007 19:22:02 7.9 C 7.06 g/m*3 7.9 C 0 km/h
98 30-10-2007 19:34:01 8 C 7.03 g/m*3 8 C 0 km/h
99 30-10-2007 19:46:01 8 C 6.94 g/m*3 8 C 0 km/h
100 30-10-2007 19:58:01 7.8 C 7.02 g/m*3 7.8 C 0 km/h
Sensor: Nr:Datum:Temp:Abs-Feuchte:Windchill:Wind:
Aussen-T/F 101 30-10-2007 20:10:02 7.7 C 7.14 g/m*3 7.7 C 0 km/h
102 30-10-2007 20:22:01 7.6 C 7.17 g/m*3 7.6 C 0 km/h
103 30-10-2007 20:34:02 7.8 C 7.26 g/m*3 7.8 C 0 km/h
104 30-10-2007 20:46:02 7.8 C 7.35 g/m*3 7.8 C 0 km/h
105 30-10-2007 20:58:02 7.9 C 7.47 g/m*3 7.9 C 0 km/h
106 30-10-2007 21:10:01 7.8 C 7.51 g/m*3 7.8 C 0 km/h
107 30-10-2007 21:22:02 7.9 C 7.56 g/m*3 7.9 C 0 km/h
108 30-10-2007 21:34:02 7.8 C 7.51 g/m*3 7.8 C 0 km/h
109 30-10-2007 21:46:02 7.8 C 7.59 g/m*3 7.8 C 0 km/h
110 30-10-2007 21:58:02 7.9 C 7.64 g/m*3 7.9 C 0 km/h
111 30-10-2007 22:10:02 7.7 C 7.54 g/m*3 7.7 C 0 km/h
112 30-10-2007 22:22:02 7.5 C 7.44 g/m*3 7.5 C 0 km/h
113 30-10-2007 22:34:02 7.3 C 7.35 g/m*3 7.3 C 0 km/h
114 30-10-2007 22:46:01 7.3 C 7.35 g/m*3 7.3 C 0 km/h
115 30-10-2007 22:58:01 7.1 C 7.25 g/m*3 7.1 C 0 km/h
116 30-10-2007 23:10:02 7.1 C 7.33 g/m*3 7.1 C 0 km/h
117 30-10-2007 23:22:01 6.8 C 7.19 g/m*3 6.8 C 0 km/h
118 30-10-2007 23:34:02 6.7 C 7.14 g/m*3 6.7 C 0 km/h
119 30-10-2007 23:46:02 6.3 C 6.96 g/m*3 6.3 C 0 km/h
120 30-10-2007 23:58:02 6.1 C 6.87 g/m*3 6.1 C 0 km/h
121 31-10-2007 00:10:02 5.9 C 6.85 g/m*3 5.9 C 0 km/h
122 31-10-2007 00:22:03 6 C 6.9 g/m*3 6 C 0 km/h
123 31-10-2007 00:34:02 5.9 C 6.85 g/m*3 5.9 C 0 km/h
124 31-10-2007 00:46:02 5.7 C 6.76 g/m*3 5.7 C 0 km/h
125 31-10-2007 00:58:02 5.3 C 6.58 g/m*3 5.3 C 0 km/h
Sensor: Nr:Datum:Temp:Abs-Feuchte:Windchill:Wind:
Aussen-T/F 126 31-10-2007 01:10:02 5.2 C 6.54 g/m*3 5.2 C 0 km/h
127 31-10-2007 01:22:02 5.1 C 6.5 g/m*3 5.1 C 0 km/h
128 31-10-2007 01:34:02 5.4 C 6.63 g/m*3 5.4 C 0 km/h
129 31-10-2007 01:46:02 5.1 C 6.5 g/m*3 5.1 C 0 km/h
130 31-10-2007 01:58:02 5.1 C 6.5 g/m*3 5.1 C 0 km/h
131 31-10-2007 02:10:01 4.9 C 6.41 g/m*3 4.9 C 0 km/h
132 31-10-2007 02:22:02 4.7 C 6.33 g/m*3 4.7 C 0 km/h
133 31-10-2007 02:34:01 4.5 C 6.24 g/m*3 4.5 C 0 km/h
134 31-10-2007 02:46:01 4.8 C 6.37 g/m*3 4.8 C 0 km/h
135 31-10-2007 02:58:01 5.2 C 6.54 g/m*3 5.2 C 0 km/h
136 31-10-2007 03:10:02 5.3 C 6.58 g/m*3 5.3 C 0 km/h
137 31-10-2007 03:22:02 5.3 C 6.58 g/m*3 5.3 C 0 km/h
138 31-10-2007 03:34:02 5.2 C 6.54 g/m*3 5.2 C 0 km/h
139 31-10-2007 03:46:02 5.2 C 6.54 g/m*3 5.2 C 0 km/h
140 31-10-2007 03:58:02 5.2 C 6.54 g/m*3 5.2 C 0 km/h
141 31-10-2007 04:10:01 5.3 C 6.58 g/m*3 5.3 C 0 km/h
142 31-10-2007 04:22:02 5.3 C 6.58 g/m*3 5.3 C 0 km/h
143 31-10-2007 04:34:01 5.3 C 6.58 g/m*3 5.3 C 0 km/h
144 31-10-2007 04:46:02 5.3 C 6.58 g/m*3 5.3 C 0 km/h
145 31-10-2007 04:58:02 5.4 C 6.63 g/m*3 5.4 C 0 km/h
146 31-10-2007 05:10:01 5.6 C 6.72 g/m*3 5.6 C 0 km/h
147 31-10-2007 05:22:01 5.6 C 6.72 g/m*3 5.6 C 0 km/h
148 31-10-2007 05:34:01 5.6 C 6.72 g/m*3 5.6 C 0 km/h
149 31-10-2007 05:46:01 5.6 C 6.72 g/m*3 5.6 C 0 km/h
150 31-10-2007 05:58:01 5.8 C 6.81 g/m*3 5.8 C 0 km/h
Sensor: Nr:Datum:Temp:Abs-Feuchte:Windchill:Wind:
Aussen-T/F 151 31-10-2007 06:10:01 5.8 C 6.81 g/m*3 5.8 C 0 km/h
152 31-10-2007 06:22:02 5.8 C 6.81 g/m*3 5.8 C 0 km/h
153 31-10-2007 06:34:01 5.8 C 6.81 g/m*3 5.8 C 0 km/h
154 31-10-2007 06:46:01 5.9 C 6.85 g/m*3 5.9 C 0 km/h
155 31-10-2007 06:58:01 5.9 C 6.85 g/m*3 5.9 C 0 km/h
156 31-10-2007 07:10:02 6 C 6.9 g/m*3 6 C 0 km/h
157 31-10-2007 07:22:01 6 C 6.9 g/m*3 6 C 0 km/h
158 31-10-2007 07:34:01 6.1 C 6.94 g/m*3 6.1 C 0 km/h
159 31-10-2007 07:46:01 6.2 C 6.99 g/m*3 6.2 C 0 km/h
160 31-10-2007 07:58:01 6.3 C 7.03 g/m*3 6.3 C 0 km/h
161 31-10-2007 08:10:02 6.3 C 7.03 g/m*3 6.3 C 0 km/h
162 31-10-2007 08:22:02 6.3 C 7.03 g/m*3 6.3 C 0 km/h
163 31-10-2007 08:34:01 6.3 C 7.03 g/m*3 6.3 C 0 km/h
164 31-10-2007 08:46:01 6.5 C 7.12 g/m*3 6.5 C 0 km/h
165 31-10-2007 08:58:01 6.5 C 7.12 g/m*3 6.5 C 0 km/h
166 31-10-2007 09:10:02 6.5 C 7.05 g/m*3 6.5 C 0 km/h
167 31-10-2007 09:22:01 6.7 C 6.99 g/m*3 6.7 C 0 km/h
168 31-10-2007 09:34:02 7 C 7.05 g/m*3 7 C 0 km/h
169 31-10-2007 09:46:02 6.9 C 6.85 g/m*3 6.9 C 0 km/h
170 31-10-2007 09:58:02 6.9 C 6.7 g/m*3 6.9 C 0 km/h
171 31-10-2007 10:10:01 7.1 C 6.63 g/m*3 7.1 C 0 km/h
172 31-10-2007 10:22:01 7.1 C 6.47 g/m*3 7.1 C 0 km/h
173 31-10-2007 10:34:01 7.3 C 6.56 g/m*3 7.3 C 0 km/h
174 31-10-2007 10:46:01 7.4 C 6.52 g/m*3 7.4 C 0 km/h
175 31-10-2007 10:58:01 7.6 C 6.53 g/m*3 7.6 C 0 km/h
Sensor: Nr:Datum:Temp:Abs-Feuchte:Windchill:Wind:
Aussen-T/F 176 31-10-2007 11:10:02 7.9 C 6.57 g/m*3 7.9 C 0 km/h
177 31-10-2007 11:22:01 7.6 C 6.36 g/m*3 7.6 C 0 km/h
178 31-10-2007 11:34:01 7.9 C 6.49 g/m*3 7.9 C 0 km/h
179 31-10-2007 11:46:02 8.3 C 6.49 g/m*3 8.3 C 0 km/h
180 31-10-2007 11:58:02 8.4 C 6.28 g/m*3 8.4 C 0 km/h
181 31-10-2007 12:10:01 8.8 C 6.44 g/m*3 8.8 C 0 km/h
182 31-10-2007 12:22:02 8.6 C 6.19 g/m*3 8.6 C 0 km/h
183 31-10-2007 12:34:01 8.9 C 6.39 g/m*3 8.9 C 0 km/h
184 31-10-2007 12:46:01 9.1 C 6.48 g/m*3 9.1 C 0 km/h
185 31-10-2007 12:58:01 9.1 C 6.48 g/m*3 9.1 C 0 km/h
186 31-10-2007 13:10:02 9.2 C 6.43 g/m*3 9.2 C 0 km/h
187 31-10-2007 13:22:01 9.4 C 6.42 g/m*3 9.4 C 0 km/h
188 31-10-2007 13:34:02 9.7 C 6.36 g/m*3 9.7 C 0 km/h
189 31-10-2007 13:46:02 9.9 C 6.44 g/m*3 9.9 C 0 km/h
190 31-10-2007 13:58:02 10 C 6.3 g/m*3 10 C 0 km/h
191 31-10-2007 14:10:01 10 C 6.3 g/m*3 10 C 0 km/h
192 31-10-2007 14:22:02 9.9 C 6.26 g/m*3 9.9 C 0 km/h
193 31-10-2007 14:34:01 9.8 C 6.22 g/m*3 9.8 C 0 km/h
194 31-10-2007 14:46:01 9.8 C 6.31 g/m*3 9.8 C 0 km/h
195 31-10-2007 14:58:01 10.3 C 6.22 g/m*3 10.3 C 0 km/h
196 31-10-2007 15:10:01 10.5 C 6.21 g/m*3 10.5 C 0 km/h
197 31-10-2007 15:22:01 10.6 C 6.34 g/m*3 10.6 C 0 km/h
198 31-10-2007 15:34:02 10.8 C 6.33 g/m*3 10.8 C 0 km/h
199 31-10-2007 15:46:01 11 C 6.21 g/m*3 11 C 0 km/h
200 31-10-2007 15:58:01 10.9 C 6.27 g/m*3 10.9 C 0 km/h
Sensor: Nr:Datum:Temp:Abs-Feuchte:Windchill:Wind:
Aussen-T/F 201 31-10-2007 16:10:01 10.5 C 6.11 g/m*3 10.5 C 0 km/h
202 31-10-2007 16:22:02 10.2 C 6.19 g/m*3 10.2 C 0 km/h
203 31-10-2007 16:34:02 9.7 C 6.18 g/m*3 9.7 C 0 km/h
204 31-10-2007 16:46:01 8.8 C 6.09 g/m*3 8.8 C 0 km/h
205 31-10-2007 16:58:01 8.1 C 6.07 g/m*3 8.1 C 0 km/h
206 31-10-2007 17:10:01 7.5 C 6.08 g/m*3 7.5 C 0 km/h
207 31-10-2007 17:22:01 6.9 C 6.16 g/m*3 6.9 C 0 km/h
208 31-10-2007 17:34:01 6.5 C 6.15 g/m*3 6.5 C 0 km/h
209 31-10-2007 17:46:02 6.2 C 6.1 g/m*3 6.2 C 0 km/h
210 31-10-2007 17:58:02 6 C 6.1 g/m*3 6 C 0 km/h
211 31-10-2007 18:10:01 5.9 C 6.13 g/m*3 5.9 C 0 km/h
212 31-10-2007 18:22:01 5.8 C 6.16 g/m*3 5.8 C 0 km/h
213 31-10-2007 18:34:01 5.7 C 6.12 g/m*3 5.7 C 0 km/h
214 31-10-2007 18:46:01 5.4 C 6 g/m*3 5.4 C 0 km/h
215 31-10-2007 18:58:01 5.2 C 5.99 g/m*3 5.2 C 0 km/h
216 31-10-2007 19:10:02 5.2 C 5.99 g/m*3 5.2 C 0 km/h
217 31-10-2007 19:22:01 5.1 C 6.02 g/m*3 5.1 C 0 km/h
218 31-10-2007 19:34:01 4.9 C 6.01 g/m*3 4.9 C 0 km/h
219 31-10-2007 19:46:02 4.9 C 6.01 g/m*3 4.9 C 0 km/h
220 31-10-2007 19:58:02 4.9 C 6.01 g/m*3 4.9 C 0 km/h
221 31-10-2007 20:10:01 4.7 C 5.93 g/m*3 4.7 C 0 km/h
222 31-10-2007 20:22:01 4.4 C 5.81 g/m*3 4.4 C 0 km/h
223 31-10-2007 20:34:01 4.4 C 5.81 g/m*3 4.4 C 0 km/h
224 31-10-2007 20:46:01 4.4 C 5.88 g/m*3 4.4 C 0 km/h
225 31-10-2007 20:58:01 4.1 C 5.76 g/m*3 4.1 C 0 km/h
Sensor: Nr:Datum:Temp:Abs-Feuchte:Windchill:Wind:
Aussen-T/F 226 31-10-2007 21:10:02 4 C 5.72 g/m*3 4 C 0 km/h
227 31-10-2007 21:22:01 3.9 C 5.75 g/m*3 3.9 C 0 km/h
228 31-10-2007 21:34:01 3.8 C 5.77 g/m*3 3.8 C 0 km/h
229 31-10-2007 21:46:02 3.7 C 5.67 g/m*3 3.7 C 0 km/h
230 31-10-2007 21:58:02 3.8 C 5.77 g/m*3 3.8 C 0 km/h
231 31-10-2007 22:10:01 3.7 C 5.73 g/m*3 3.7 C 0 km/h
232 31-10-2007 22:22:02 3.6 C 5.69 g/m*3 3.6 C 0 km/h
233 31-10-2007 22:34:01 3.7 C 5.8 g/m*3 3.7 C 0 km/h
234 31-10-2007 22:46:01 3.8 C 5.83 g/m*3 3.8 C 0 km/h
235 31-10-2007 22:58:01 3.9 C 5.87 g/m*3 3.9 C 0 km/h
236 31-10-2007 23:10:02 3.9 C 5.94 g/m*3 3.9 C 0 km/h
237 31-10-2007 23:22:01 4 C 5.98 g/m*3 4 C 0 km/h
238 31-10-2007 23:34:02 4.1 C 6.02 g/m*3 4.1 C 0 km/h
239 31-10-2007 23:46:02 4.1 C 6.02 g/m*3 4.1 C 0 km/h
240 31-10-2007 23:58:02 4.2 C 6.06 g/m*3 4.2 C 0 km/h
241 01-11-2007 00:10:01 4 C 5.98 g/m*3 4 C 0 km/h
242 01-11-2007 00:22:02 4.1 C 6.02 g/m*3 4.1 C 0 km/h
243 01-11-2007 00:34:01 4 C 5.98 g/m*3 4 C 0 km/h
244 01-11-2007 00:46:01 4.1 C 6.02 g/m*3 4.1 C 0 km/h
245 01-11-2007 00:58:01 4.1 C 6.02 g/m*3 4.1 C 0 km/h
246 01-11-2007 01:10:02 3.8 C 5.9 g/m*3 3.8 C 0 km/h
247 01-11-2007 01:22:01 3.5 C 5.78 g/m*3 3.5 C 0 km/h
248 01-11-2007 01:34:02 3.6 C 5.82 g/m*3 3.6 C 0 km/h
249 01-11-2007 01:46:01 3.6 C 5.82 g/m*3 3.6 C 0 km/h
250 01-11-2007 01:58:02 3.6 C 5.82 g/m*3 3.6 C 0 km/h
Sensor: Nr:Datum:Temp:Abs-Feuchte:Windchill:Wind:
Aussen-T/F 251 01-11-2007 02:10:01 3.6 C 5.82 g/m*3 3.6 C 0 km/h
252 01-11-2007 02:22:02 3.4 C 5.74 g/m*3 3.4 C 0 km/h
253 01-11-2007 02:34:01 3.4 C 5.68 g/m*3 3.4 C 0 km/h
254 01-11-2007 02:47:04 3.4 C 5.68 g/m*3 3.4 C 0 km/h
255 01-11-2007 02:59:04 3.4 C 5.68 g/m*3 3.4 C 0 km/h
256 01-11-2007 03:11:04 3.5 C 5.66 g/m*3 3.5 C 0 km/h
257 01-11-2007 03:23:04 3.4 C 5.62 g/m*3 3.4 C 0 km/h
258 01-11-2007 03:35:02 3.3 C 5.58 g/m*3 3.3 C 0 km/h
259 01-11-2007 03:47:02 3.1 C 5.57 g/m*3 3.1 C 0 km/h
260 01-11-2007 03:59:02 2.9 C 5.55 g/m*3 2.9 C 0 km/h
261 01-11-2007 04:11:02 3 C 5.59 g/m*3 3 C 0 km/h
262 01-11-2007 04:23:02 2.7 C 5.48 g/m*3 2.7 C 0 km/h
263 01-11-2007 04:35:02 2.4 C 5.37 g/m*3 2.4 C 0 km/h
264 01-11-2007 04:47:02 2.4 C 5.37 g/m*3 2.4 C 0 km/h
265 01-11-2007 04:59:02 2.5 C 5.4 g/m*3 2.5 C 0 km/h
266 01-11-2007 05:11:02 2.7 C 5.54 g/m*3 2.7 C 0 km/h
267 01-11-2007 05:23:02 2.7 C 5.54 g/m*3 2.7 C 0 km/h
268 01-11-2007 05:35:02 2.7 C 5.48 g/m*3 2.7 C 0 km/h
269 01-11-2007 05:47:02 2.7 C 5.48 g/m*3 2.7 C 0 km/h
270 01-11-2007 05:59:02 2.7 C 5.48 g/m*3 2.7 C 0 km/h
271 01-11-2007 06:11:02 2.5 C 5.35 g/m*3 2.5 C 0 km/h
272 01-11-2007 06:23:02 2.5 C 5.35 g/m*3 2.5 C 0 km/h
273 01-11-2007 06:35:02 2.4 C 5.31 g/m*3 2.4 C 0 km/h
274 01-11-2007 06:47:02 2.4 C 5.31 g/m*3 2.4 C 0 km/h
275 01-11-2007 06:59:02 2.4 C 5.37 g/m*3 2.4 C 0 km/h
Sensor: Nr:Datum:Temp:Abs-Feuchte:Windchill:Wind:
Aussen-T/F 276 01-11-2007 07:11:02 2.4 C 5.31 g/m*3 2.4 C 0 km/h
277 01-11-2007 07:23:02 2.3 C 5.27 g/m*3 2.3 C 0 km/h
278 01-11-2007 07:35:02 2.2 C 5.24 g/m*3 2.2 C 0 km/h
279 01-11-2007 07:47:01 2.2 C 5.24 g/m*3 2.2 C 0 km/h
280 01-11-2007 07:59:01 2 C 5.17 g/m*3 2 C 0 km/h
281 01-11-2007 08:11:02 1.9 C 5.19 g/m*3 1.9 C 0 km/h
282 01-11-2007 08:23:01 2 C 5.17 g/m*3 2 C 0 km/h
283 01-11-2007 08:35:02 2.1 C 5.2 g/m*3 2.1 C 0 km/h
284 01-11-2007 08:47:02 1.8 C 5.1 g/m*3 1.8 C 0 km/h
285 01-11-2007 08:59:02 2 C 5.11 g/m*3 2 C 0 km/h
286 01-11-2007 09:11:02 2.1 C 5.15 g/m*3 2.1 C 0 km/h
287 01-11-2007 09:23:02 2.4 C 5.2 g/m*3 2.4 C 0 km/h
288 01-11-2007 09:35:02 2.8 C 5.34 g/m*3 2.8 C 0 km/h
289 01-11-2007 09:47:01 3.2 C 5.36 g/m*3 3.2 C 0 km/h
290 01-11-2007 09:59:01 3.3 C 5.34 g/m*3 3.3 C 0 km/h
291 01-11-2007 10:11:02 3.4 C 5.37 g/m*3 3.4 C 0 km/h
292 01-11-2007 10:23:01 3.5 C 5.47 g/m*3 3.5 C 0 km/h
293 01-11-2007 10:35:02 4.1 C 5.63 g/m*3 4.1 C 0 km/h
294 01-11-2007 10:47:02 5 C 5.91 g/m*3 5 C 0 km/h
295 01-11-2007 10:59:02 5.5 C 5.83 g/m*3 5.5 C 0 km/h
296 01-11-2007 11:11:02 5.5 C 5.62 g/m*3 5.5 C 0 km/h
297 01-11-2007 11:23:02 5.7 C 5.84 g/m*3 5.7 C 0 km/h
298 01-11-2007 11:35:02 6.7 C 5.93 g/m*3 6.7 C 0 km/h
299 01-11-2007 11:47:02 7.7 C 5.92 g/m*3 7.7 C 0 km/h
300 01-11-2007 11:59:02 8.6 C 6.02 g/m*3 8.6 C 0 km/h
Sensor: Nr:Datum:Temp:Abs-Feuchte:Windchill:Wind:
Aussen-T/F 301 01-11-2007 12:11:02 8.5 C 5.64 g/m*3 8.5 C 0 km/h
302 01-11-2007 12:23:02 8.9 C 5.87 g/m*3 8.9 C 0 km/h
303 01-11-2007 12:35:02 9 C 5.82 g/m*3 9 C 0 km/h
304 01-11-2007 12:47:02 9 C 5.82 g/m*3 9 C 0 km/h
305 01-11-2007 12:59:03 9 C 5.91 g/m*3 9 C 0 km/h
306 01-11-2007 13:11:01 9 C 5.91 g/m*3 9 C 0 km/h
307 01-11-2007 13:23:01 9 C 5.99 g/m*3 9 C 0 km/h
308 01-11-2007 13:35:02 8.9 C 6.04 g/m*3 8.9 C 0 km/h
309 01-11-2007 13:47:02 8.9 C 6.04 g/m*3 8.9 C 0 km/h
310 01-11-2007 13:59:02 8.9 C 5.96 g/m*3 8.9 C 0 km/h
311 01-11-2007 14:11:02 8.8 C 6.09 g/m*3 8.8 C 0 km/h
312 01-11-2007 14:23:02 8.7 C 6.05 g/m*3 8.7 C 0 km/h
313 01-11-2007 14:35:02 8.5 C 6.06 g/m*3 8.5 C 0 km/h
314 01-11-2007 14:47:02 8.4 C 6.11 g/m*3 8.4 C 0 km/h
315 01-11-2007 14:59:02 8.4 C 6.19 g/m*3 8.4 C 0 km/h
316 01-11-2007 15:11:02 8.3 C 6.24 g/m*3 8.3 C 0 km/h
317 01-11-2007 15:23:02 8.2 C 6.2 g/m*3 8.2 C 0 km/h
318 01-11-2007 15:35:02 8.2 C 6.2 g/m*3 8.2 C 0 km/h
319 01-11-2007 15:47:02 8.2 C 6.2 g/m*3 8.2 C 0 km/h
320 01-11-2007 15:59:02 8.2 C 6.28 g/m*3 8.2 C 0 km/h
321 01-11-2007 16:11:01 8.2 C 6.36 g/m*3 8.2 C 0 km/h
322 01-11-2007 16:23:02 8.1 C 6.41 g/m*3 8.1 C 0 km/h
323 01-11-2007 16:35:02 8 C 6.37 g/m*3 8 C 0 km/h
324 01-11-2007 16:47:02 8 C 6.37 g/m*3 8 C 0 km/h
325 01-11-2007 16:59:02 8 C 6.45 g/m*3 8 C 0 km/h
Sensor: Nr:Datum:Temp:Abs-Feuchte:Windchill:Wind:
Aussen-T/F 326 01-11-2007 17:11:02 7.9 C 6.49 g/m*3 7.9 C 0 km/h
327 01-11-2007 17:23:03 7.9 C 6.49 g/m*3 7.9 C 0 km/h
328 01-11-2007 17:35:02 7.9 C 6.57 g/m*3 7.9 C 0 km/h
329 01-11-2007 17:47:02 7.9 C 6.65 g/m*3 7.9 C 0 km/h
330 01-11-2007 17:59:02 7.9 C 6.65 g/m*3 7.9 C 0 km/h
331 01-11-2007 18:11:02 7.9 C 6.65 g/m*3 7.9 C 0 km/h
332 01-11-2007 18:23:02 7.9 C 6.65 g/m*3 7.9 C 0 km/h
333 01-11-2007 18:35:01 7.8 C 6.61 g/m*3 7.8 C 0 km/h
334 01-11-2007 18:47:01 7.9 C 6.65 g/m*3 7.9 C 0 km/h
335 01-11-2007 18:59:01 7.9 C 6.65 g/m*3 7.9 C 0 km/h
336 01-11-2007 19:11:02 7.8 C 6.69 g/m*3 7.8 C 0 km/h
337 01-11-2007 19:23:02 7.9 C 6.74 g/m*3 7.9 C 0 km/h
338 01-11-2007 19:35:01 7.8 C 6.69 g/m*3 7.8 C 0 km/h
339 01-11-2007 19:47:01 7.8 C 6.69 g/m*3 7.8 C 0 km/h
340 01-11-2007 19:59:01 7.8 C 6.69 g/m*3 7.8 C 0 km/h
341 01-11-2007 20:11:02 7.9 C 6.82 g/m*3 7.9 C 0 km/h
342 01-11-2007 20:23:02 7.9 C 6.82 g/m*3 7.9 C 0 km/h
343 01-11-2007 20:35:01 7.9 C 6.82 g/m*3 7.9 C 0 km/h
344 01-11-2007 20:47:01 8 C 6.78 g/m*3 8 C 0 km/h
345 01-11-2007 20:59:01 8 C 6.78 g/m*3 8 C 0 km/h
346 01-11-2007 21:11:02 8 C 6.78 g/m*3 8 C 0 km/h
347 01-11-2007 21:23:01 8 C 6.78 g/m*3 8 C 0 km/h
348 01-11-2007 21:35:01 8.1 C 6.82 g/m*3 8.1 C 0 km/h
349 01-11-2007 21:47:01 8.1 C 6.82 g/m*3 8.1 C 0 km/h
350 01-11-2007 21:59:01 8.1 C 6.91 g/m*3 8.1 C 0 km/h
Sensor: Nr:Datum:Temp:Abs-Feuchte:Windchill:Wind:
Aussen-T/F 351 01-11-2007 22:11:02 8.1 C 6.91 g/m*3 8.1 C 0 km/h
352 01-11-2007 22:23:01 8.1 C 6.91 g/m*3 8.1 C 0 km/h
353 01-11-2007 22:35:01 8.1 C 6.91 g/m*3 8.1 C 0 km/h
354 01-11-2007 22:47:02 8.2 C 6.95 g/m*3 8.2 C 0 km/h
355 01-11-2007 22:59:02 8.2 C 6.95 g/m*3 8.2 C 0 km/h
356 01-11-2007 23:11:02 8.2 C 6.95 g/m*3 8.2 C 0 km/h
357 01-11-2007 23:23:02 8.2 C 6.95 g/m*3 8.2 C 0 km/h
358 01-11-2007 23:35:02 8.1 C 6.91 g/m*3 8.1 C 0 km/h
359 01-11-2007 23:47:02 8 C 6.94 g/m*3 8 C 0 km/h
360 01-11-2007 23:59:02 8 C 6.94 g/m*3 8 C 0 km/h
361 02-11-2007 00:11:02 8.1 C 6.99 g/m*3 8.1 C 0 km/h
362 02-11-2007 00:23:03 8.1 C 7.07 g/m*3 8.1 C 0 km/h
363 02-11-2007 00:35:02 8.2 C 7.12 g/m*3 8.2 C 0 km/h
364 02-11-2007 00:47:02 8.2 C 7.12 g/m*3 8.2 C 0 km/h
365 02-11-2007 00:59:02 8.2 C 7.12 g/m*3 8.2 C 0 km/h
366 02-11-2007 01:11:02 8.2 C 7.12 g/m*3 8.2 C 0 km/h
367 02-11-2007 01:23:02 8.1 C 7.07 g/m*3 8.1 C 0 km/h
368 02-11-2007 01:35:01 8.1 C 7.16 g/m*3 8.1 C 0 km/h
369 02-11-2007 01:47:01 8.2 C 7.2 g/m*3 8.2 C 0 km/h
370 02-11-2007 01:59:01 8.1 C 7.24 g/m*3 8.1 C 0 km/h
371 02-11-2007 02:11:02 8.2 C 7.29 g/m*3 8.2 C 0 km/h
372 02-11-2007 02:23:02 8.2 C 7.29 g/m*3 8.2 C 0 km/h
373 02-11-2007 02:35:01 8.2 C 7.29 g/m*3 8.2 C 0 km/h
374 02-11-2007 02:47:01 8.3 C 7.33 g/m*3 8.3 C 0 km/h
375 02-11-2007 02:59:01 8.3 C 7.33 g/m*3 8.3 C 0 km/h
Sensor: Nr:Datum:Temp:Abs-Feuchte:Windchill:Wind:
Aussen-T/F 376 02-11-2007 03:11:02 8.4 C 7.38 g/m*3 8.4 C 0 km/h
377 02-11-2007 03:23:02 8.4 C 7.38 g/m*3 8.4 C 0 km/h
378 02-11-2007 03:35:01 8.4 C 7.38 g/m*3 8.4 C 0 km/h
379 02-11-2007 03:47:01 8.3 C 7.33 g/m*3 8.3 C 0 km/h
380 02-11-2007 03:59:01 8.4 C 7.38 g/m*3 8.4 C 0 km/h
381 02-11-2007 04:11:02 8.4 C 7.47 g/m*3 8.4 C 0 km/h
382 02-11-2007 04:23:01 8.5 C 7.51 g/m*3 8.5 C 0 km/h
383 02-11-2007 04:35:01 8.5 C 7.51 g/m*3 8.5 C 0 km/h
384 02-11-2007 04:47:02 8.5 C 7.51 g/m*3 8.5 C 0 km/h
385 02-11-2007 04:59:02 8.5 C 7.51 g/m*3 8.5 C 0 km/h
386 02-11-2007 05:11:01 8.6 C 7.65 g/m*3 8.6 C 0 km/h
387 02-11-2007 05:23:01 8.6 C 7.65 g/m*3 8.6 C 0 km/h
388 02-11-2007 05:35:02 8.6 C 7.65 g/m*3 8.6 C 0 km/h
389 02-11-2007 05:47:02 8.6 C 7.65 g/m*3 8.6 C 0 km/h
390 02-11-2007 05:59:02 8.6 C 7.65 g/m*3 8.6 C 0 km/h
391 02-11-2007 06:11:01 8.5 C 7.6 g/m*3 8.5 C 0 km/h
392 02-11-2007 06:23:01 8.6 C 7.65 g/m*3 8.6 C 0 km/h
393 02-11-2007 06:35:02 8.5 C 7.6 g/m*3 8.5 C 0 km/h
394 02-11-2007 06:47:02 8.5 C 7.6 g/m*3 8.5 C 0 km/h
395 02-11-2007 06:59:02 8.5 C 7.6 g/m*3 8.5 C 0 km/h
396 02-11-2007 07:11:02 8.6 C 7.73 g/m*3 8.6 C 0 km/h
397 02-11-2007 07:23:01 8.7 C 7.78 g/m*3 8.7 C 0 km/h
398 02-11-2007 07:35:02 8.8 C 7.83 g/m*3 8.8 C 0 km/h
399 02-11-2007 07:47:01 8.8 C 7.83 g/m*3 8.8 C 0 km/h
400 02-11-2007 07:59:02 8.8 C 7.83 g/m*3 8.8 C 0 km/h
Sensor: Nr:Datum:Temp:Abs-Feuchte:Windchill:Wind:
Aussen-T/F 401 02-11-2007 08:11:01 8.8 C 7.83 g/m*3 8.8 C 0 km/h
402 02-11-2007 08:23:02 8.9 C 7.88 g/m*3 8.9 C 0 km/h
403 02-11-2007 08:35:01 9 C 7.93 g/m*3 9 C 0 km/h
404 02-11-2007 08:47:01 9.2 C 8.04 g/m*3 9.2 C 0 km/h
405 02-11-2007 08:59:02 9.2 C 8.13 g/m*3 9.2 C 0 km/h
406 02-11-2007 09:11:01 9.3 C 8.27 g/m*3 9.3 C 0 km/h
407 02-11-2007 09:23:01 9.5 C 8.37 g/m*3 9.5 C 0 km/h
408 02-11-2007 09:35:02 9.5 C 8.37 g/m*3 9.5 C 0 km/h
409 02-11-2007 09:47:01 9.7 C 8.48 g/m*3 9.7 C 0 km/h
410 02-11-2007 09:59:02 9.9 C 8.68 g/m*3 9.9 C 0 km/h
411 02-11-2007 10:11:01 10.1 C 8.61 g/m*3 10.1 C 0 km/h
412 02-11-2007 10:23:01 10.1 C 8.61 g/m*3 10.1 C 0 km/h
413 02-11-2007 10:35:02 10.1 C 8.61 g/m*3 10.1 C 0 km/h
414 02-11-2007 10:47:01 10.2 C 8.66 g/m*3 10.2 C 0 km/h
415 02-11-2007 10:59:01 10.4 C 8.77 g/m*3 10.4 C 0 km/h
416 02-11-2007 11:11:02 10.5 C 8.92 g/m*3 10.5 C 0 km/h
417 02-11-2007 11:23:02 10.5 C 8.92 g/m*3 10.5 C 0 km/h
418 02-11-2007 11:35:01 10.6 C 8.98 g/m*3 10.6 C 0 km/h
419 02-11-2007 11:47:01 10.7 C 9.04 g/m*3 10.7 C 0 km/h
420 02-11-2007 11:59:01 10.7 C 9.04 g/m*3 10.7 C 0 km/h
421 02-11-2007 12:11:02 10.9 C 9.05 g/m*3 10.9 C 0 km/h
422 02-11-2007 12:23:02 11 C 9.11 g/m*3 11 C 0 km/h
423 02-11-2007 12:35:01 11.1 C 9.17 g/m*3 11.1 C 0 km/h
424 02-11-2007 12:47:01 11.3 C 9.28 g/m*3 11.3 C 0 km/h
425 02-11-2007 12:59:01 11.4 C 9.24 g/m*3 11.4 C 0 km/h
Sensor: Nr:Datum:Temp:Abs-Feuchte:Windchill:Wind:
Aussen-T/F 426 02-11-2007 13:11:02 11.6 C 9.35 g/m*3 11.6 C 0 km/h
427 02-11-2007 13:23:01 11.6 C 9.35 g/m*3 11.6 C 0 km/h
428 02-11-2007 13:35:02 11.7 C 9.31 g/m*3 11.7 C 0 km/h
429 02-11-2007 13:47:01 11.9 C 9.43 g/m*3 11.9 C 0 km/h
430 02-11-2007 13:59:01 12 C 9.27 g/m*3 12 C 0 km/h
431 02-11-2007 14:11:02 12.1 C 9.33 g/m*3 12.1 C 0 km/h
432 02-11-2007 14:23:01 12.2 C 9.28 g/m*3 12.2 C 0 km/h
433 02-11-2007 14:35:01 12.2 C 9.28 g/m*3 12.2 C 0 km/h
434 02-11-2007 14:47:01 12.3 C 9.34 g/m*3 12.3 C 0 km/h
435 02-11-2007 14:59:02 12.3 C 9.34 g/m*3 12.3 C 0 km/h
436 02-11-2007 15:11:01 12.3 C 9.34 g/m*3 12.3 C 0 km/h
437 02-11-2007 15:23:01 12.2 C 9.39 g/m*3 12.2 C 0 km/h
438 02-11-2007 15:35:02 12.1 C 9.33 g/m*3 12.1 C 0 km/h
439 02-11-2007 15:47:01 11.9 C 9.32 g/m*3 11.9 C 0 km/h
440 02-11-2007 15:59:01 11.8 C 9.26 g/m*3 11.8 C 0 km/h
441 02-11-2007 16:11:01 11.7 C 9.31 g/m*3 11.7 C 0 km/h
442 02-11-2007 16:23:01 11.7 C 9.31 g/m*3 11.7 C 0 km/h
443 02-11-2007 16:35:02 11.6 C 9.25 g/m*3 11.6 C 0 km/h
444 02-11-2007 16:47:02 11.6 C 9.25 g/m*3 11.6 C 0 km/h
445 02-11-2007 16:59:02 11.5 C 9.3 g/m*3 11.5 C 0 km/h
446 02-11-2007 17:11:01 11.5 C 9.3 g/m*3 11.5 C 0 km/h
447 02-11-2007 17:23:01 11.5 C 9.3 g/m*3 11.5 C 0 km/h
448 02-11-2007 17:35:02 11.4 C 9.24 g/m*3 11.4 C 0 km/h
449 02-11-2007 17:47:02 11.4 C 9.24 g/m*3 11.4 C 0 km/h
450 02-11-2007 17:59:02 11.4 C 9.24 g/m*3 11.4 C 0 km/h
Sensor: Nr:Datum:Temp:Abs-Feuchte:Windchill:Wind:
Aussen-T/F 451 02-11-2007 18:11:02 11.4 C 9.24 g/m*3 11.4 C 0 km/h
452 02-11-2007 18:23:01 11.3 C 9.18 g/m*3 11.3 C 0 km/h
453 02-11-2007 18:35:01 11.3 C 9.28 g/m*3 11.3 C 0 km/h
454 02-11-2007 18:47:02 11.3 C 9.28 g/m*3 11.3 C 0 km/h
455 02-11-2007 18:59:02 11.3 C 9.28 g/m*3 11.3 C 0 km/h
456 02-11-2007 19:11:02 11.3 C 9.28 g/m*3 11.3 C 0 km/h
457 02-11-2007 19:23:01 11.3 C 9.28 g/m*3 11.3 C 0 km/h
458 02-11-2007 19:35:01 11.3 C 9.28 g/m*3 11.3 C 0 km/h
459 02-11-2007 19:47:02 11.3 C 9.28 g/m*3 11.3 C 0 km/h
460 02-11-2007 19:59:02 11.3 C 9.28 g/m*3 11.3 C 0 km/h
461 02-11-2007 20:11:02 11.3 C 9.28 g/m*3 11.3 C 0 km/h
462 02-11-2007 20:23:02 11.3 C 9.28 g/m*3 11.3 C 0 km/h
463 02-11-2007 20:35:01 11.3 C 9.38 g/m*3 11.3 C 0 km/h
464 02-11-2007 20:47:01 11.3 C 9.38 g/m*3 11.3 C 0 km/h
465 02-11-2007 20:59:01 11.3 C 9.38 g/m*3 11.3 C 0 km/h
466 02-11-2007 21:11:01 11.3 C 9.38 g/m*3 11.3 C 0 km/h
467 02-11-2007 21:23:01 11.3 C 9.38 g/m*3 11.3 C 0 km/h
468 02-11-2007 21:35:02 11.3 C 9.38 g/m*3 11.3 C 0 km/h
469 02-11-2007 21:47:02 11.3 C 9.38 g/m*3 11.3 C 0 km/h
470 02-11-2007 21:59:02 11.4 C 9.44 g/m*3 11.4 C 0 km/h
471 02-11-2007 22:11:01 11.4 C 9.44 g/m*3 11.4 C 0 km/h
472 02-11-2007 22:23:01 11.3 C 9.49 g/m*3 11.3 C 0 km/h
473 02-11-2007 22:35:02 11.4 C 9.55 g/m*3 11.4 C 0 km/h
474 02-11-2007 22:47:02 11.4 C 9.55 g/m*3 11.4 C 0 km/h
475 02-11-2007 22:59:02 11.4 C 9.55 g/m*3 11.4 C 0 km/h
Sensor: Nr:Datum:Temp:Abs-Feuchte:Windchill:Wind:
Aussen-T/F 476 02-11-2007 23:11:01 11.4 C 9.55 g/m*3 11.4 C 0 km/h
477 02-11-2007 23:23:01 11.4 C 9.55 g/m*3 11.4 C 0 km/h
478 02-11-2007 23:35:01 11.4 C 9.55 g/m*3 11.4 C 0 km/h
479 02-11-2007 23:47:01 11.3 C 9.49 g/m*3 11.3 C 0 km/h
480 02-11-2007 23:59:01 11.4 C 9.55 g/m*3 11.4 C 0 km/h
481 03-11-2007 00:11:01 11.4 C 9.65 g/m*3 11.4 C 0 km/h
482 03-11-2007 00:23:02 11.4 C 9.65 g/m*3 11.4 C 0 km/h
483 03-11-2007 00:35:01 11.4 C 9.65 g/m*3 11.4 C 0 km/h
484 03-11-2007 00:47:02 11.4 C 9.65 g/m*3 11.4 C 0 km/h
485 03-11-2007 00:59:02 11.3 C 9.59 g/m*3 11.3 C 0 km/h
486 03-11-2007 01:11:01 11.3 C 9.59 g/m*3 11.3 C 0 km/h
487 03-11-2007 01:23:01 11.3 C 9.59 g/m*3 11.3 C 0 km/h
488 03-11-2007 01:35:02 11.4 C 9.75 g/m*3 11.4 C 0 km/h
489 03-11-2007 01:47:02 11.4 C 9.75 g/m*3 11.4 C 0 km/h
490 03-11-2007 01:59:02 11.4 C 9.75 g/m*3 11.4 C 0 km/h
491 03-11-2007 02:11:01 11.4 C 9.75 g/m*3 11.4 C 0 km/h
492 03-11-2007 02:23:01 11.4 C 9.75 g/m*3 11.4 C 0 km/h
493 03-11-2007 02:35:01 11.3 C 9.69 g/m*3 11.3 C 0 km/h
494 03-11-2007 02:48:05 11.3 C 9.69 g/m*3 11.3 C 0 km/h
495 03-11-2007 03:00:05 11.3 C 9.69 g/m*3 11.3 C 0 km/h
496 03-11-2007 03:12:05 11.3 C 9.69 g/m*3 11.3 C 0 km/h
497 03-11-2007 03:24:05 11.3 C 9.69 g/m*3 11.3 C 0 km/h
498 03-11-2007 03:36:02 11.4 C 9.75 g/m*3 11.4 C 0 km/h
499 03-11-2007 03:48:03 11.4 C 9.75 g/m*3 11.4 C 0 km/h
500 03-11-2007 04:00:03 11.3 C 9.69 g/m*3 11.3 C 0 km/h
Sensor: Nr:Datum:Temp:Abs-Feuchte:Windchill:Wind:
Aussen-T/F 501 03-11-2007 04:12:02 11.3 C 9.69 g/m*3 11.3 C 0 km/h
502 03-11-2007 04:24:01 11.3 C 9.69 g/m*3 11.3 C 0 km/h
503 03-11-2007 04:36:02 11.3 C 9.69 g/m*3 11.3 C 0 km/h
504 03-11-2007 04:48:02 11.3 C 9.69 g/m*3 11.3 C 0 km/h
505 03-11-2007 05:00:02 11.3 C 9.69 g/m*3 11.3 C 0 km/h
506 03-11-2007 05:12:01 11.3 C 9.69 g/m*3 11.3 C 0 km/h
507 03-11-2007 05:24:01 11.3 C 9.69 g/m*3 11.3 C 0 km/h
508 03-11-2007 05:36:02 11.3 C 9.69 g/m*3 11.3 C 0 km/h
509 03-11-2007 05:48:02 11.3 C 9.69 g/m*3 11.3 C 0 km/h
510 03-11-2007 06:00:02 11.3 C 9.69 g/m*3 11.3 C 0 km/h
511 03-11-2007 06:12:02 11.3 C 9.69 g/m*3 11.3 C 0 km/h
512 03-11-2007 06:24:02 11.3 C 9.69 g/m*3 11.3 C 0 km/h
513 03-11-2007 06:36:02 11.3 C 9.69 g/m*3 11.3 C 0 km/h
514 03-11-2007 06:48:02 11.3 C 9.69 g/m*3 11.3 C 0 km/h
515 03-11-2007 07:00:02 11.3 C 9.69 g/m*3 11.3 C 0 km/h
516 03-11-2007 07:12:02 11.2 C 9.63 g/m*3 11.2 C 0 km/h
517 03-11-2007 07:24:02 11.1 C 9.57 g/m*3 11.1 C 0 km/h
518 03-11-2007 07:36:02 11.3 C 9.69 g/m*3 11.3 C 0 km/h
519 03-11-2007 07:48:02 11.4 C 9.75 g/m*3 11.4 C 0 km/h
520 03-11-2007 08:00:02 11.4 C 9.75 g/m*3 11.4 C 0 km/h
521 03-11-2007 08:12:02 11.4 C 9.75 g/m*3 11.4 C 0 km/h
522 03-11-2007 08:24:02 11.4 C 9.75 g/m*3 11.4 C 0 km/h
523 03-11-2007 08:36:02 11.5 C 9.81 g/m*3 11.5 C 0 km/h
524 03-11-2007 08:48:02 11.5 C 9.81 g/m*3 11.5 C 0 km/h
525 03-11-2007 09:00:02 11.6 C 9.87 g/m*3 11.6 C 0 km/h
Sensor: Nr:Datum:Temp:Abs-Feuchte:Windchill:Wind:
Aussen-T/F 526 03-11-2007 09:12:02 11.6 C 9.87 g/m*3 11.6 C 0 km/h
527 03-11-2007 09:24:02 11.7 C 9.94 g/m*3 11.7 C 0 km/h
528 03-11-2007 09:36:02 11.8 C 10 g/m*3 11.8 C 0 km/h
529 03-11-2007 09:48:02 11.9 C 10.06 g/m*3 11.9 C 0 km/h
530 03-11-2007 10:00:02 12 C 10.12 g/m*3 12 C 0 km/h
531 03-11-2007 10:12:02 12.1 C 10.19 g/m*3 12.1 C 0 km/h
532 03-11-2007 10:24:02 12.2 C 10.25 g/m*3 12.2 C 0 km/h
533 03-11-2007 10:36:02 12.3 C 10.32 g/m*3 12.3 C 0 km/h
534 03-11-2007 10:48:02 12.5 C 10.44 g/m*3 12.5 C 0 km/h
535 03-11-2007 11:00:02 12.6 C 10.51 g/m*3 12.6 C 0 km/h
536 03-11-2007 11:12:02 12.7 C 10.58 g/m*3 12.7 C 0 km/h
537 03-11-2007 11:24:02 12.7 C 10.58 g/m*3 12.7 C 0 km/h
538 03-11-2007 11:36:02 12.7 C 10.58 g/m*3 12.7 C 0 km/h
539 03-11-2007 11:48:02 12.6 C 10.51 g/m*3 12.6 C 0 km/h
540 03-11-2007 12:00:03 13 C 10.77 g/m*3 13 C 0 km/h
541 03-11-2007 12:12:01 13.2 C 10.91 g/m*3 13.2 C 0 km/h
542 03-11-2007 12:24:01 13 C 10.66 g/m*3 13 C 0 km/h
543 03-11-2007 12:36:02 12.6 C 10.4 g/m*3 12.6 C 0 km/h
544 03-11-2007 12:48:03 12.4 C 10.16 g/m*3 12.4 C 0 km/h
545 03-11-2007 13:00:03 12.5 C 10.22 g/m*3 12.5 C 0 km/h
546 03-11-2007 13:12:02 12.8 C 10.42 g/m*3 12.8 C 0 km/h
547 03-11-2007 13:24:03 12.8 C 10.19 g/m*3 12.8 C 0 km/h
548 03-11-2007 13:36:02 13 C 10.09 g/m*3 13 C 0 km/h
549 03-11-2007 13:48:02 12.8 C 9.86 g/m*3 12.8 C 0 km/h
550 03-11-2007 14:00:02 12.8 C 9.86 g/m*3 12.8 C 0 km/h
Sensor: Nr:Datum:Temp:Abs-Feuchte:Windchill:Wind:
Aussen-T/F 551 03-11-2007 14:12:02 12.8 C 9.86 g/m*3 12.8 C 0 km/h
552 03-11-2007 14:24:02 13 C 9.98 g/m*3 13 C 0 km/h
553 03-11-2007 14:36:02 13 C 9.87 g/m*3 13 C 0 km/h
554 03-11-2007 14:48:02 12.9 C 9.81 g/m*3 12.9 C 0 km/h
555 03-11-2007 15:00:02 12.9 C 9.81 g/m*3 12.9 C 0 km/h
556 03-11-2007 15:12:01 12.8 C 9.63 g/m*3 12.8 C 0 km/h
557 03-11-2007 15:24:02 12.7 C 9.46 g/m*3 12.7 C 0 km/h
558 03-11-2007 15:36:02 12.7 C 9.46 g/m*3 12.7 C 0 km/h
559 03-11-2007 15:48:02 12.7 C 9.24 g/m*3 12.7 C 0 km/h
560 03-11-2007 16:00:02 12.5 C 9.24 g/m*3 12.5 C 0 km/h
561 03-11-2007 16:12:03 12.3 C 9.12 g/m*3 12.3 C 0 km/h
562 03-11-2007 16:24:02 12.2 C 9.17 g/m*3 12.2 C 0 km/h
563 03-11-2007 16:36:02 12.1 C 9.12 g/m*3 12.1 C 0 km/h
564 03-11-2007 16:48:01 12 C 9.06 g/m*3 12 C 0 km/h
565 03-11-2007 17:00:01 12 C 8.95 g/m*3 12 C 0 km/h
566 03-11-2007 17:12:01 11.9 C 8.79 g/m*3 11.9 C 0 km/h
567 03-11-2007 17:24:02 11.9 C 8.79 g/m*3 11.9 C 0 km/h
568 03-11-2007 17:36:01 11.9 C 8.9 g/m*3 11.9 C 0 km/h
569 03-11-2007 17:48:02 11.7 C 8.89 g/m*3 11.7 C 0 km/h
570 03-11-2007 18:00:02 11.5 C 8.88 g/m*3 11.5 C 0 km/h
571 03-11-2007 18:12:01 11.5 C 9.09 g/m*3 11.5 C 0 km/h
572 03-11-2007 18:24:02 11.5 C 9.19 g/m*3 11.5 C 0 km/h
573 03-11-2007 18:36:02 11.5 C 9.3 g/m*3 11.5 C 0 km/h
574 03-11-2007 18:48:01 11.5 C 9.3 g/m*3 11.5 C 0 km/h
575 03-11-2007 19:00:01 11.5 C 9.3 g/m*3 11.5 C 0 km/h
Sensor: Nr:Datum:Temp:Abs-Feuchte:Windchill:Wind:
Aussen-T/F 576 03-11-2007 19:12:02 11.6 C 9.35 g/m*3 11.6 C 0 km/h
577 03-11-2007 19:24:02 11.5 C 9.3 g/m*3 11.5 C 0 km/h
578 03-11-2007 19:36:01 11.5 C 9.3 g/m*3 11.5 C 0 km/h
579 03-11-2007 19:48:01 11.5 C 9.3 g/m*3 11.5 C 0 km/h
580 03-11-2007 20:00:01 11.4 C 9.24 g/m*3 11.4 C 0 km/h
581 03-11-2007 20:12:01 11.5 C 9.3 g/m*3 11.5 C 0 km/h
582 03-11-2007 20:24:02 11.5 C 9.19 g/m*3 11.5 C 0 km/h
583 03-11-2007 20:36:02 11.6 C 9.15 g/m*3 11.6 C 0 km/h
584 03-11-2007 20:48:01 11.6 C 9.15 g/m*3 11.6 C 0 km/h
585 03-11-2007 21:00:01 11.6 C 9.15 g/m*3 11.6 C 0 km/h
586 03-11-2007 21:12:02 11.5 C 9.09 g/m*3 11.5 C 0 km/h
587 03-11-2007 21:24:01 11.5 C 9.09 g/m*3 11.5 C 0 km/h
588 03-11-2007 21:36:02 11.4 C 9.14 g/m*3 11.4 C 0 km/h
589 03-11-2007 21:48:03 11.3 C 9.18 g/m*3 11.3 C 0 km/h
590 03-11-2007 22:00:03 11.2 C 9.12 g/m*3 11.2 C 0 km/h
591 03-11-2007 22:12:03 11.3 C 9.18 g/m*3 11.3 C 0 km/h
592 03-11-2007 22:24:02 11.3 C 9.28 g/m*3 11.3 C 0 km/h
593 03-11-2007 22:36:02 11.3 C 9.28 g/m*3 11.3 C 0 km/h
594 03-11-2007 22:48:02 11.4 C 9.34 g/m*3 11.4 C 0 km/h
595 03-11-2007 23:00:02 11.4 C 9.34 g/m*3 11.4 C 0 km/h
596 03-11-2007 23:12:03 11.2 C 9.22 g/m*3 11.2 C 0 km/h
597 03-11-2007 23:24:02 11.1 C 9.17 g/m*3 11.1 C 0 km/h
598 03-11-2007 23:36:02 10.8 C 8.99 g/m*3 10.8 C 0 km/h
599 03-11-2007 23:48:02 10.6 C 8.88 g/m*3 10.6 C 0 km/h
600 04-11-2007 00:00:02 10.5 C 8.92 g/m*3 10.5 C 0 km/h
Sensor: Nr:Datum:Temp:Abs-Feuchte:Windchill:Wind:
Aussen-T/F 601 04-11-2007 00:12:03 10.7 C 9.13 g/m*3 10.7 C 0 km/h
602 04-11-2007 00:24:03 10.9 C 9.25 g/m*3 10.9 C 0 km/h
603 04-11-2007 00:36:03 11 C 9.21 g/m*3 11 C 0 km/h
604 04-11-2007 00:48:02 11 C 9.11 g/m*3 11 C 0 km/h
605 04-11-2007 01:00:02 11 C 9.01 g/m*3 11 C 0 km/h
606 04-11-2007 01:12:02 10.9 C 8.85 g/m*3 10.9 C 0 km/h
607 04-11-2007 01:24:02 10.8 C 8.7 g/m*3 10.8 C 0 km/h
608 04-11-2007 01:36:02 10.8 C 8.5 g/m*3 10.8 C 0 km/h
609 04-11-2007 01:48:02 10.8 C 8.2 g/m*3 10.8 C 0 km/h
610 04-11-2007 02:00:02 10.7 C 8.15 g/m*3 10.7 C 0 km/h
611 04-11-2007 02:12:02 10.6 C 8.2 g/m*3 10.6 C 0 km/h
612 04-11-2007 02:24:02 10.5 C 8.15 g/m*3 10.5 C 0 km/h
613 04-11-2007 02:36:02 10.4 C 8.1 g/m*3 10.4 C 0 km/h
614 04-11-2007 02:49:03 10.4 C 8 g/m*3 10.4 C 0 km/h
615 04-11-2007 03:01:03 10.3 C 7.95 g/m*3 10.3 C 0 km/h
616 04-11-2007 03:13:04 10.3 C 7.85 g/m*3 10.3 C 0 km/h
617 04-11-2007 03:25:04 10.1 C 7.75 g/m*3 10.1 C 0 km/h
618 04-11-2007 03:37:02 10.2 C 7.61 g/m*3 10.2 C 0 km/h
619 04-11-2007 03:49:02 10.2 C 7.52 g/m*3 10.2 C 0 km/h
620 04-11-2007 04:01:02 10.1 C 7.47 g/m*3 10.1 C 0 km/h
621 04-11-2007 04:13:02 10 C 7.42 g/m*3 10 C 0 km/h
622 04-11-2007 04:25:02 10 C 7.52 g/m*3 10 C 0 km/h
623 04-11-2007 04:37:02 9.9 C 7.56 g/m*3 9.9 C 0 km/h
624 04-11-2007 04:49:02 9.9 C 7.56 g/m*3 9.9 C 0 km/h
625 04-11-2007 05:01:02 9.9 C 7.47 g/m*3 9.9 C 0 km/h
Sensor: Nr:Datum:Temp:Abs-Feuchte:Windchill:Wind:
Aussen-T/F 626 04-11-2007 05:13:02 9.8 C 7.52 g/m*3 9.8 C 0 km/h
627 04-11-2007 05:25:01 9.8 C 7.61 g/m*3 9.8 C 0 km/h
628 04-11-2007 05:37:02 9.8 C 7.61 g/m*3 9.8 C 0 km/h
629 04-11-2007 05:49:02 9.7 C 7.65 g/m*3 9.7 C 0 km/h
630 04-11-2007 06:01:01 9.7 C 7.65 g/m*3 9.7 C 0 km/h
631 04-11-2007 06:13:01 9.7 C 7.65 g/m*3 9.7 C 0 km/h
632 04-11-2007 06:25:02 9.7 C 7.65 g/m*3 9.7 C 0 km/h
633 04-11-2007 06:37:02 9.6 C 7.6 g/m*3 9.6 C 0 km/h
634 04-11-2007 06:49:02 9.6 C 7.6 g/m*3 9.6 C 0 km/h
635 04-11-2007 07:01:01 9.6 C 7.6 g/m*3 9.6 C 0 km/h
636 04-11-2007 07:13:01 9.5 C 7.46 g/m*3 9.5 C 0 km/h
637 04-11-2007 07:25:02 9.5 C 7.46 g/m*3 9.5 C 0 km/h
638 04-11-2007 07:37:02 9.4 C 7.42 g/m*3 9.4 C 0 km/h
639 04-11-2007 07:49:02 9.4 C 7.42 g/m*3 9.4 C 0 km/h
640 04-11-2007 08:01:02 9.4 C 7.42 g/m*3 9.4 C 0 km/h
641 04-11-2007 08:13:03 9.5 C 7.46 g/m*3 9.5 C 0 km/h
642 04-11-2007 08:25:02 9.6 C 7.6 g/m*3 9.6 C 0 km/h
643 04-11-2007 08:37:01 9.5 C 7.55 g/m*3 9.5 C 0 km/h
644 04-11-2007 08:49:01 9.4 C 7.6 g/m*3 9.4 C 0 km/h
645 04-11-2007 09:01:02 9.5 C 7.65 g/m*3 9.5 C 0 km/h
646 04-11-2007 09:13:02 9.8 C 7.89 g/m*3 9.8 C 0 km/h
647 04-11-2007 09:25:02 10 C 7.8 g/m*3 10 C 0 km/h
648 04-11-2007 09:37:02 10.2 C 7.61 g/m*3 10.2 C 0 km/h
649 04-11-2007 09:49:02 10.4 C 7.61 g/m*3 10.4 C 0 km/h
650 04-11-2007 10:01:02 10.7 C 7.66 g/m*3 10.7 C 0 km/h
Sensor: Nr:Datum:Temp:Abs-Feuchte:Windchill:Wind:
Aussen-T/F 651 04-11-2007 10:13:02 11 C 7.51 g/m*3 11 C 0 km/h
652 04-11-2007 10:25:02 10.8 C 7.31 g/m*3 10.8 C 0 km/h
653 04-11-2007 10:37:02 11 C 7.31 g/m*3 11 C 0 km/h
654 04-11-2007 10:49:02 11 C 7.21 g/m*3 11 C 0 km/h
655 04-11-2007 11:01:02 11.1 C 7.25 g/m*3 11.1 C 0 km/h
656 04-11-2007 11:13:02 11.5 C 7.44 g/m*3 11.5 C 0 km/h
657 04-11-2007 11:25:02 11.3 C 7.14 g/m*3 11.3 C 0 km/h
658 04-11-2007 11:37:01 11.6 C 7.17 g/m*3 11.6 C 0 km/h
659 04-11-2007 11:49:02 11.7 C 6.9 g/m*3 11.7 C 0 km/h
660 04-11-2007 12:01:02 11.9 C 6.99 g/m*3 11.9 C 0 km/h
661 04-11-2007 12:13:02 11.9 C 6.67 g/m*3 11.9 C 0 km/h
662 04-11-2007 12:25:02 12.4 C 6.12 g/m*3 12.4 C 0 km/h
663 04-11-2007 12:37:02 12.4 C 4.81 g/m*3 12.4 C 0 km/h
664 04-11-2007 12:49:02 12.5 C 4.73 g/m*3 12.5 C 0 km/h
665 04-11-2007 13:01:02 12.4 C 5.03 g/m*3 12.4 C 0 km/h
666 04-11-2007 13:13:02 11.9 C 5.51 g/m*3 11.9 C 0 km/h
667 04-11-2007 13:25:01 11.8 C 5.26 g/m*3 11.8 C 0 km/h
668 04-11-2007 13:37:02 12.4 C 5.57 g/m*3 12.4 C 0 km/h
669 04-11-2007 13:49:02 12.1 C 4.72 g/m*3 12.1 C 0 km/h
670 04-11-2007 14:01:01 11.5 C 5.78 g/m*3 11.5 C 0 km/h
671 04-11-2007 14:13:02 11.4 C 5.75 g/m*3 11.4 C 0 km/h
672 04-11-2007 14:25:01 11.3 C 5.41 g/m*3 11.3 C 0 km/h
673 04-11-2007 14:37:01 11.6 C 5.51 g/m*3 11.6 C 0 km/h
674 04-11-2007 14:49:02 11.9 C 5.51 g/m*3 11.9 C 0 km/h
675 04-11-2007 15:01:02 11.8 C 4.74 g/m*3 11.8 C 0 km/h
Sensor: Nr:Datum:Temp:Abs-Feuchte:Windchill:Wind:
Aussen-T/F 676 04-11-2007 15:13:02 11.7 C 4.92 g/m*3 11.7 C 0 km/h
677 04-11-2007 15:25:02 11.5 C 4.65 g/m*3 11.5 C 0 km/h
678 04-11-2007 15:37:02 11.4 C 4.93 g/m*3 11.4 C 0 km/h
679 04-11-2007 15:49:01 11.3 C 4.9 g/m*3 11.3 C 0 km/h
680 04-11-2007 16:01:01 11.1 C 4.94 g/m*3 11.1 C 0 km/h
681 04-11-2007 16:13:01 11 C 5.1 g/m*3 11 C 0 km/h
682 04-11-2007 16:25:01 10.8 C 5.24 g/m*3 10.8 C 0 km/h
683 04-11-2007 16:37:02 10.7 C 5.3 g/m*3 10.7 C 0 km/h
684 04-11-2007 16:49:02 10.7 C 5.4 g/m*3 10.7 C 0 km/h
685 04-11-2007 17:01:02 10.6 C 5.47 g/m*3 10.6 C 0 km/h
686 04-11-2007 17:13:02 10.5 C 5.63 g/m*3 10.5 C 0 km/h
687 04-11-2007 17:25:02 10.4 C 5.78 g/m*3 10.4 C 0 km/h
688 04-11-2007 17:37:02 10.3 C 5.84 g/m*3 10.3 C 0 km/h
689 04-11-2007 17:49:02 10.2 C 5.9 g/m*3 10.2 C 0 km/h
690 04-11-2007 18:01:02 10.2 C 6.09 g/m*3 10.2 C 0 km/h
691 04-11-2007 18:13:02 10 C 5.92 g/m*3 10 C 0 km/h
692 04-11-2007 18:25:02 10 C 6.01 g/m*3 10 C 0 km/h
693 04-11-2007 18:37:02 10 C 6.11 g/m*3 10 C 0 km/h
694 04-11-2007 18:49:02 10 C 6.01 g/m*3 10 C 0 km/h
695 04-11-2007 19:01:02 9.8 C 6.12 g/m*3 9.8 C 0 km/h
696 04-11-2007 19:13:02 9.8 C 6.12 g/m*3 9.8 C 0 km/h
697 04-11-2007 19:25:02 9.7 C 6.27 g/m*3 9.7 C 0 km/h
698 04-11-2007 19:37:02 9.7 C 6.36 g/m*3 9.7 C 0 km/h
699 04-11-2007 19:49:02 9.7 C 6.36 g/m*3 9.7 C 0 km/h
700 04-11-2007 20:01:02 9.7 C 6.45 g/m*3 9.7 C 0 km/h
Sensor: Nr:Datum:Temp:Abs-Feuchte:Windchill:Wind:
Aussen-T/F 701 04-11-2007 20:13:02 9.7 C 6.45 g/m*3 9.7 C 0 km/h
702 04-11-2007 20:25:01 9.6 C 6.5 g/m*3 9.6 C 0 km/h
703 04-11-2007 20:37:02 9.6 C 6.5 g/m*3 9.6 C 0 km/h
704 04-11-2007 20:49:02 9.5 C 6.46 g/m*3 9.5 C 0 km/h
705 04-11-2007 21:01:02 9.5 C 6.55 g/m*3 9.5 C 0 km/h
706 04-11-2007 21:13:02 9.5 C 6.55 g/m*3 9.5 C 0 km/h
707 04-11-2007 21:25:01 9.4 C 6.51 g/m*3 9.4 C 0 km/h
708 04-11-2007 21:37:01 9.4 C 6.6 g/m*3 9.4 C 0 km/h
709 04-11-2007 21:49:01 9.4 C 6.51 g/m*3 9.4 C 0 km/h
710 04-11-2007 22:01:02 9.1 C 6.3 g/m*3 9.1 C 0 km/h
711 04-11-2007 22:13:02 9 C 6.08 g/m*3 9 C 0 km/h
712 04-11-2007 22:25:01 9 C 5.91 g/m*3 9 C 0 km/h
713 04-11-2007 22:37:01 8.9 C 6.04 g/m*3 8.9 C 0 km/h
714 04-11-2007 22:49:01 8.8 C 5.92 g/m*3 8.8 C 0 km/h
715 04-11-2007 23:01:02 8.9 C 5.96 g/m*3 8.9 C 0 km/h
716 04-11-2007 23:13:02 8.8 C 6.01 g/m*3 8.8 C 0 km/h
717 04-11-2007 23:25:02 8.8 C 6.18 g/m*3 8.8 C 0 km/h
718 04-11-2007 23:37:01 8.7 C 6.23 g/m*3 8.7 C 0 km/h
719 04-11-2007 23:49:02 8.7 C 6.31 g/m*3 8.7 C 0 km/h
720 05-11-2007 00:01:01 8.7 C 6.31 g/m*3 8.7 C 0 km/h
721 05-11-2007 00:13:01 8.7 C 6.23 g/m*3 8.7 C 0 km/h
722 05-11-2007 00:25:02 8.6 C 6.19 g/m*3 8.6 C 0 km/h
723 05-11-2007 00:37:01 8.6 C 6.27 g/m*3 8.6 C 0 km/h
724 05-11-2007 00:49:02 8.5 C 6.32 g/m*3 8.5 C 0 km/h
725 05-11-2007 01:01:02 8.5 C 6.23 g/m*3 8.5 C 0 km/h
Sensor: Nr:Datum:Temp:Abs-Feuchte:Windchill:Wind:
Aussen-T/F 726 05-11-2007 01:13:02 8.5 C 6.23 g/m*3 8.5 C 0 km/h
727 05-11-2007 01:25:02 8.4 C 6.11 g/m*3 8.4 C 0 km/h
728 05-11-2007 01:37:02 8.4 C 6.02 g/m*3 8.4 C 0 km/h
729 05-11-2007 01:49:02 8.4 C 6.02 g/m*3 8.4 C 0 km/h
730 05-11-2007 02:01:01 8.4 C 6.02 g/m*3 8.4 C 0 km/h
731 05-11-2007 02:13:01 8.4 C 6.02 g/m*3 8.4 C 0 km/h
732 05-11-2007 02:25:01 8.3 C 5.9 g/m*3 8.3 C 0 km/h
733 05-11-2007 02:37:02 8.3 C 5.9 g/m*3 8.3 C 0 km/h
734 05-11-2007 02:50:03 8.2 C 6.03 g/m*3 8.2 C 0 km/h
735 05-11-2007 03:02:03 8.3 C 6.07 g/m*3 8.3 C 0 km/h
736 05-11-2007 03:14:04 8.2 C 6.11 g/m*3 8.2 C 0 km/h
737 05-11-2007 03:26:04 8.2 C 6.11 g/m*3 8.2 C 0 km/h
738 05-11-2007 03:38:02 8.1 C 6.16 g/m*3 8.1 C 0 km/h
739 05-11-2007 03:50:02 8 C 6.2 g/m*3 8 C 0 km/h
740 05-11-2007 04:02:01 8 C 6.2 g/m*3 8 C 0 km/h
741 05-11-2007 04:14:01 8 C 6.2 g/m*3 8 C 0 km/h
742 05-11-2007 04:26:02 8 C 6.28 g/m*3 8 C 0 km/h
743 05-11-2007 04:38:02 7.9 C 6.32 g/m*3 7.9 C 0 km/h
744 05-11-2007 04:50:03 7.9 C 6.32 g/m*3 7.9 C 0 km/h
745 05-11-2007 05:02:02 7.9 C 6.32 g/m*3 7.9 C 0 km/h
746 05-11-2007 05:14:02 7.9 C 6.41 g/m*3 7.9 C 0 km/h
747 05-11-2007 05:26:02 7.8 C 6.37 g/m*3 7.8 C 0 km/h
748 05-11-2007 05:38:02 7.8 C 6.37 g/m*3 7.8 C 0 km/h
749 05-11-2007 05:50:02 7.7 C 6.32 g/m*3 7.7 C 0 km/h
750 05-11-2007 06:02:03 7.6 C 6.28 g/m*3 7.6 C 0 km/h
Sensor: Nr:Datum:Temp:Abs-Feuchte:Windchill:Wind:
Aussen-T/F 751 05-11-2007 06:14:03 7.5 C 6.08 g/m*3 7.5 C 0 km/h
752 05-11-2007 06:26:02 7.5 C 6 g/m*3 7.5 C 0 km/h
753 05-11-2007 06:38:02 7.4 C 5.96 g/m*3 7.4 C 0 km/h
754 05-11-2007 06:50:01 7.4 C 5.88 g/m*3 7.4 C 0 km/h
755 05-11-2007 07:02:01 7.4 C 5.88 g/m*3 7.4 C 0 km/h
756 05-11-2007 07:14:01 7.4 C 5.88 g/m*3 7.4 C 0 km/h
757 05-11-2007 07:26:01 7.4 C 5.88 g/m*3 7.4 C 0 km/h
758 05-11-2007 07:38:02 7.4 C 5.96 g/m*3 7.4 C 0 km/h
759 05-11-2007 07:50:02 7.4 C 6.04 g/m*3 7.4 C 0 km/h
760 05-11-2007 08:02:02 7.5 C 6.24 g/m*3 7.5 C 0 km/h
761 05-11-2007 08:14:02 7.5 C 6.24 g/m*3 7.5 C 0 km/h
762 05-11-2007 08:26:02 7.6 C 6.28 g/m*3 7.6 C 0 km/h
763 05-11-2007 08:38:02 7.8 C 6.37 g/m*3 7.8 C 0 km/h
764 05-11-2007 08:50:01 7.9 C 6.41 g/m*3 7.9 C 0 km/h
765 05-11-2007 09:02:02 8.1 C 6.32 g/m*3 8.1 C 0 km/h
766 05-11-2007 09:14:02 8.3 C 6.32 g/m*3 8.3 C 0 km/h
767 05-11-2007 09:26:02 8.4 C 6.28 g/m*3 8.4 C 0 km/h
768 05-11-2007 09:38:02 8.5 C 6.32 g/m*3 8.5 C 0 km/h
769 05-11-2007 09:50:02 8.8 C 6.44 g/m*3 8.8 C 0 km/h
770 05-11-2007 10:02:01 8.9 C 6.31 g/m*3 8.9 C 0 km/h
771 05-11-2007 10:14:01 9.1 C 6.21 g/m*3 9.1 C 0 km/h
772 05-11-2007 10:26:01 9.1 C 6.21 g/m*3 9.1 C 0 km/h
773 05-11-2007 10:38:02 9.2 C 6.25 g/m*3 9.2 C 0 km/h
774 05-11-2007 10:50:02 9.4 C 6.24 g/m*3 9.4 C 0 km/h
775 05-11-2007 11:02:02 9.5 C 6.28 g/m*3 9.5 C 0 km/h
Sensor: Nr:Datum:Temp:Abs-Feuchte:Windchill:Wind:
Aussen-T/F 776 05-11-2007 11:14:02 9.8 C 6.4 g/m*3 9.8 C 0 km/h
777 05-11-2007 11:26:02 9.8 C 6.22 g/m*3 9.8 C 0 km/h
778 05-11-2007 11:38:03 9.9 C 6.16 g/m*3 9.9 C 0 km/h
779 05-11-2007 11:50:02 10 C 5.83 g/m*3 10 C 0 km/h
780 05-11-2007 12:02:02 10.4 C 4.53 g/m*3 10.4 C 0 km/h
781 05-11-2007 12:14:02 10.5 C 5.14 g/m*3 10.5 C 0 km/h
782 05-11-2007 12:26:02 10.4 C 4.82 g/m*3 10.4 C 0 km/h
783 05-11-2007 12:38:02 10.3 C 4.5 g/m*3 10.3 C 0 km/h
784 05-11-2007 12:50:02 10.3 C 4.5 g/m*3 10.3 C 0 km/h
785 05-11-2007 13:02:02 10.5 C 4.56 g/m*3 10.5 C 0 km/h
786 05-11-2007 13:14:02 10.6 C 4.39 g/m*3 10.6 C 0 km/h
787 05-11-2007 13:26:02 10.7 C 4.13 g/m*3 10.7 C 0 km/h
788 05-11-2007 13:38:02 10.7 C 4.22 g/m*3 10.7 C 0 km/h
789 05-11-2007 13:50:02 10.6 C 4.29 g/m*3 10.6 C 0 km/h
790 05-11-2007 14:02:02 10.6 C 4 g/m*3 10.6 C 0 km/h
791 05-11-2007 14:14:02 10.5 C 3.98 g/m*3 10.5 C 0 km/h
792 05-11-2007 14:26:02 10.3 C 3.93 g/m*3 10.3 C 0 km/h
793 05-11-2007 14:38:02 10.4 C 3.95 g/m*3 10.4 C 0 km/h
794 05-11-2007 14:50:02 10.2 C 3.9 g/m*3 10.2 C 0 km/h
795 05-11-2007 15:02:02 10.2 C 4 g/m*3 10.2 C 0 km/h
796 05-11-2007 15:14:02 10.2 C 4.09 g/m*3 10.2 C 0 km/h
797 05-11-2007 15:26:02 10.3 C 4.21 g/m*3 10.3 C 0 km/h
798 05-11-2007 15:38:02 10.2 C 4.19 g/m*3 10.2 C 0 km/h
799 05-11-2007 15:50:02 10.1 C 4.07 g/m*3 10.1 C 0 km/h
800 05-11-2007 16:02:02 10 C 4.13 g/m*3 10 C 0 km/h
Sensor: Nr:Datum:Temp:Abs-Feuchte:Windchill:Wind:
Aussen-T/F 801 05-11-2007 16:14:02 9.9 C 4.29 g/m*3 9.9 C 0 km/h
802 05-11-2007 16:26:01 9.7 C 4.24 g/m*3 9.7 C 0 km/h
803 05-11-2007 16:38:02 9.6 C 4.21 g/m*3 9.6 C 0 km/h
804 05-11-2007 16:50:02 9.1 C 4.08 g/m*3 9.1 C 0 km/h
805 05-11-2007 17:02:02 8.7 C 4.24 g/m*3 8.7 C 0 km/h
806 05-11-2007 17:14:02 8.1 C 4.33 g/m*3 8.1 C 0 km/h
807 05-11-2007 17:26:01 7.8 C 4.41 g/m*3 7.8 C 0 km/h
808 05-11-2007 17:38:03 7.6 C 4.43 g/m*3 7.6 C 0 km/h
809 05-11-2007 17:50:02 7.5 C 4.4 g/m*3 7.5 C 0 km/h
810 05-11-2007 18:02:02 7.5 C 4.4 g/m*3 7.5 C 0 km/h
811 05-11-2007 18:14:02 7.6 C 4.51 g/m*3 7.6 C 0 km/h
812 05-11-2007 18:26:02 7.6 C 4.51 g/m*3 7.6 C 0 km/h
813 05-11-2007 18:38:02 7.7 C 4.62 g/m*3 7.7 C 0 km/h
814 05-11-2007 18:50:02 7.8 C 4.57 g/m*3 7.8 C 0 km/h
815 05-11-2007 19:02:02 7.7 C 4.62 g/m*3 7.7 C 0 km/h
816 05-11-2007 19:14:02 7.7 C 4.7 g/m*3 7.7 C 0 km/h
817 05-11-2007 19:26:02 7.8 C 4.65 g/m*3 7.8 C 0 km/h
818 05-11-2007 19:38:03 7.8 C 4.65 g/m*3 7.8 C 0 km/h
819 05-11-2007 19:50:02 7.8 C 4.65 g/m*3 7.8 C 0 km/h
820 05-11-2007 20:02:02 7.8 C 4.73 g/m*3 7.8 C 0 km/h
821 05-11-2007 20:14:03 7.6 C 4.75 g/m*3 7.6 C 0 km/h
822 05-11-2007 20:26:02 7.6 C 4.75 g/m*3 7.6 C 0 km/h
823 05-11-2007 20:38:02 7.8 C 4.82 g/m*3 7.8 C 0 km/h
824 05-11-2007 20:50:02 7.9 C 4.76 g/m*3 7.9 C 0 km/h
825 05-11-2007 21:02:02 8 C 4.71 g/m*3 8 C 0 km/h
Sensor: Nr:Datum:Temp:Abs-Feuchte:Windchill:Wind:
Aussen-T/F 826 05-11-2007 21:14:02 8 C 4.71 g/m*3 8 C 0 km/h
827 05-11-2007 21:26:02 8.1 C 4.66 g/m*3 8.1 C 0 km/h
828 05-11-2007 21:38:02 8.1 C 4.74 g/m*3 8.1 C 0 km/h
829 05-11-2007 21:50:02 8.1 C 4.66 g/m*3 8.1 C 0 km/h
830 05-11-2007 22:02:02 8.2 C 4.61 g/m*3 8.2 C 0 km/h
831 05-11-2007 22:14:02 8.3 C 4.72 g/m*3 8.3 C 0 km/h
832 05-11-2007 22:26:03 8.5 C 4.7 g/m*3 8.5 C 0 km/h
833 05-11-2007 22:38:02 8.7 C 4.58 g/m*3 8.7 C 0 km/h
834 05-11-2007 22:50:02 8.9 C 4.82 g/m*3 8.9 C 0 km/h
835 05-11-2007 23:02:01 8.9 C 4.82 g/m*3 8.9 C 0 km/h
836 05-11-2007 23:14:01 8.6 C 4.9 g/m*3 8.6 C 0 km/h
837 05-11-2007 23:26:01 8.5 C 5.12 g/m*3 8.5 C 0 km/h
838 05-11-2007 23:38:02 8.6 C 5.24 g/m*3 8.6 C 0 km/h
839 05-11-2007 23:50:02 8.3 C 5.23 g/m*3 8.3 C 0 km/h
840 06-11-2007 00:02:01 8.4 C 5.26 g/m*3 8.4 C 0 km/h
841 06-11-2007 00:14:01 8.5 C 5.21 g/m*3 8.5 C 0 km/h
842 06-11-2007 00:26:01 8.6 C 5.24 g/m*3 8.6 C 0 km/h
843 06-11-2007 00:38:01 8.6 C 5.24 g/m*3 8.6 C 0 km/h
844 06-11-2007 00:50:02 8.4 C 5.43 g/m*3 8.4 C 0 km/h
845 06-11-2007 01:02:02 8 C 5.62 g/m*3 8 C 0 km/h
846 06-11-2007 01:14:02 8 C 5.7 g/m*3 8 C 0 km/h
847 06-11-2007 01:26:02 7.7 C 6.08 g/m*3 7.7 C 0 km/h
848 06-11-2007 01:38:02 7.3 C 6.32 g/m*3 7.3 C 0 km/h
849 06-11-2007 01:50:02 7.1 C 6.47 g/m*3 7.1 C 0 km/h
850 06-11-2007 02:02:02 7 C 6.59 g/m*3 7 C 0 km/h
Sensor: Nr:Datum:Temp:Abs-Feuchte:Windchill:Wind:
Aussen-T/F 851 06-11-2007 02:14:02 7 C 6.74 g/m*3 7 C 0 km/h
852 06-11-2007 02:26:01 7 C 6.9 g/m*3 7 C 0 km/h
853 06-11-2007 02:38:01 7.1 C 6.94 g/m*3 7.1 C 0 km/h
854 06-11-2007 02:51:03 7.1 C 7.02 g/m*3 7.1 C 0 km/h
855 06-11-2007 03:03:03 7.2 C 7.06 g/m*3 7.2 C 0 km/h
856 06-11-2007 03:15:03 7.6 C 7.33 g/m*3 7.6 C 0 km/h
857 06-11-2007 03:27:03 7.7 C 7.38 g/m*3 7.7 C 0 km/h
858 06-11-2007 03:39:02 8 C 7.44 g/m*3 8 C 0 km/h
859 06-11-2007 03:51:02 8.5 C 7.43 g/m*3 8.5 C 0 km/h
860 06-11-2007 04:03:01 8.3 C 7.16 g/m*3 8.3 C 0 km/h
861 06-11-2007 04:15:01 8.5 C 7 g/m*3 8.5 C 0 km/h
862 06-11-2007 04:27:01 7.9 C 6.74 g/m*3 7.9 C 0 km/h
863 06-11-2007 04:39:02 7.9 C 6.74 g/m*3 7.9 C 0 km/h
864 06-11-2007 04:51:02 7.7 C 6.65 g/m*3 7.7 C 0 km/h
865 06-11-2007 05:03:03 7.6 C 6.69 g/m*3 7.6 C 0 km/h
866 06-11-2007 05:15:02 7.6 C 6.61 g/m*3 7.6 C 0 km/h
867 06-11-2007 05:27:02 7.7 C 6.57 g/m*3 7.7 C 0 km/h
868 06-11-2007 05:39:02 7.4 C 6.52 g/m*3 7.4 C 0 km/h
869 06-11-2007 05:51:02 7.3 C 6.56 g/m*3 7.3 C 0 km/h
870 06-11-2007 06:03:01 7.1 C 6.55 g/m*3 7.1 C 0 km/h
871 06-11-2007 06:15:01 7.2 C 6.59 g/m*3 7.2 C 0 km/h
872 06-11-2007 06:27:01 7.5 C 6.56 g/m*3 7.5 C 0 km/h
873 06-11-2007 06:39:02 7.5 C 6.56 g/m*3 7.5 C 0 km/h
874 06-11-2007 06:51:02 7.7 C 6.57 g/m*3 7.7 C 0 km/h
875 06-11-2007 07:03:02 7.6 C 6.44 g/m*3 7.6 C 0 km/h
Sensor: Nr:Datum:Temp:Abs-Feuchte:Windchill:Wind:
Aussen-T/F 876 06-11-2007 07:15:02 7.5 C 6.32 g/m*3 7.5 C 0 km/h
877 06-11-2007 07:27:02 7.6 C 6.28 g/m*3 7.6 C 0 km/h
878 06-11-2007 07:39:02 7.8 C 6.2 g/m*3 7.8 C 0 km/h
879 06-11-2007 07:51:01 7.9 C 6.16 g/m*3 7.9 C 0 km/h
880 06-11-2007 08:03:02 7.8 C 6.12 g/m*3 7.8 C 0 km/h
881 06-11-2007 08:15:02 7.8 C 6.2 g/m*3 7.8 C 0 km/h
882 06-11-2007 08:27:02 7.9 C 6.24 g/m*3 7.9 C 0 km/h
883 06-11-2007 08:39:01 8 C 6.12 g/m*3 8 C 0 km/h
884 06-11-2007 08:51:02 7.8 C 6.28 g/m*3 7.8 C 0 km/h
885 06-11-2007 09:03:02 7.6 C 6.28 g/m*3 7.6 C 0 km/h
886 06-11-2007 09:15:02 7.6 C 6.28 g/m*3 7.6 C 0 km/h
887 06-11-2007 09:27:02 7.9 C 6.32 g/m*3 7.9 C 0 km/h
888 06-11-2007 09:39:02 8.3 C 6.15 g/m*3 8.3 C 0 km/h
889 06-11-2007 09:51:02 8.4 C 6.28 g/m*3 8.4 C 0 km/h
890 06-11-2007 10:03:02 8.8 C 6.18 g/m*3 8.8 C 0 km/h
891 06-11-2007 10:15:02 9 C 6.08 g/m*3 9 C 0 km/h
892 06-11-2007 10:27:02 9.1 C 6.03 g/m*3 9.1 C 0 km/h
893 06-11-2007 10:39:02 9.3 C 5.84 g/m*3 9.3 C 0 km/h
894 06-11-2007 10:51:02 9.4 C 5.79 g/m*3 9.4 C 0 km/h
895 06-11-2007 11:03:02 9.6 C 5.86 g/m*3 9.6 C 0 km/h
896 06-11-2007 11:15:01 9.7 C 5.72 g/m*3 9.7 C 0 km/h
897 06-11-2007 11:27:01 9.9 C 5.51 g/m*3 9.9 C 0 km/h
898 06-11-2007 11:39:01 9.9 C 5.6 g/m*3 9.9 C 0 km/h
899 06-11-2007 11:51:01 9.8 C 5.38 g/m*3 9.8 C 0 km/h
900 06-11-2007 12:03:02 9.7 C 5.44 g/m*3 9.7 C 0 km/h
Sensor: Nr:Datum:Temp:Abs-Feuchte:Windchill:Wind:
Aussen-T/F 901 06-11-2007 12:15:01 9.5 C 5.55 g/m*3 9.5 C 0 km/h
902 06-11-2007 12:27:01 9.5 C 5.55 g/m*3 9.5 C 0 km/h
903 06-11-2007 12:39:01 9.6 C 5.5 g/m*3 9.6 C 0 km/h
904 06-11-2007 12:51:02 9.9 C 5.42 g/m*3 9.9 C 0 km/h
905 06-11-2007 13:03:03 9.8 C 5.29 g/m*3 9.8 C 0 km/h
906 06-11-2007 13:15:02 8.3 C 5.9 g/m*3 8.3 C 0 km/h
907 06-11-2007 13:27:02 8.2 C 6.28 g/m*3 8.2 C 0 km/h
908 06-11-2007 13:39:02 8.6 C 6.19 g/m*3 8.6 C 0 km/h
909 06-11-2007 13:51:02 9 C 5.91 g/m*3 9 C 0 km/h
910 06-11-2007 14:03:02 9.4 C 5.79 g/m*3 9.4 C 0 km/h
911 06-11-2007 14:15:02 9.4 C 5.61 g/m*3 9.4 C 0 km/h
912 06-11-2007 14:27:02 9.8 C 5.75 g/m*3 9.8 C 0 km/h
913 06-11-2007 14:39:02 9.7 C 5.53 g/m*3 9.7 C 0 km/h
914 06-11-2007 14:51:02 10.4 C 5.69 g/m*3 10.4 C 0 km/h
915 06-11-2007 15:03:02 10.3 C 5.46 g/m*3 10.3 C 0 km/h
916 06-11-2007 15:15:02 9.9 C 5.42 g/m*3 9.9 C 0 km/h
917 06-11-2007 15:27:02 9.6 C 5.4 g/m*3 9.6 C 0 km/h
918 06-11-2007 15:39:02 9.6 C 5.5 g/m*3 9.6 C 0 km/h
919 06-11-2007 15:51:02 9.5 C 5.37 g/m*3 9.5 C 0 km/h
920 06-11-2007 16:03:01 9.1 C 5.15 g/m*3 9.1 C 0 km/h
921 06-11-2007 16:15:01 8.8 C 5.14 g/m*3 8.8 C 0 km/h
922 06-11-2007 16:27:01 8.5 C 5.38 g/m*3 8.5 C 0 km/h
923 06-11-2007 16:39:02 8 C 5.62 g/m*3 8 C 0 km/h
924 06-11-2007 16:51:03 7.9 C 6 g/m*3 7.9 C 0 km/h
925 06-11-2007 17:03:02 8 C 5.62 g/m*3 8 C 0 km/h
Sensor: Nr:Datum:Temp:Abs-Feuchte:Windchill:Wind:
Aussen-T/F 926 06-11-2007 17:15:02 8.1 C 5.24 g/m*3 8.1 C 0 km/h
927 06-11-2007 17:27:02 7.8 C 5.14 g/m*3 7.8 C 0 km/h
928 06-11-2007 17:39:02 7.7 C 5.03 g/m*3 7.7 C 0 km/h
929 06-11-2007 17:51:01 7.6 C 4.99 g/m*3 7.6 C 0 km/h
930 06-11-2007 18:03:01 7.3 C 4.9 g/m*3 7.3 C 0 km/h
931 06-11-2007 18:15:02 7.3 C 4.98 g/m*3 7.3 C 0 km/h
932 06-11-2007 18:27:02 7.5 C 4.96 g/m*3 7.5 C 0 km/h
933 06-11-2007 18:39:02 7.3 C 5.06 g/m*3 7.3 C 0 km/h
934 06-11-2007 18:51:02 7.4 C 5.17 g/m*3 7.4 C 0 km/h
935 06-11-2007 19:03:02 7.3 C 5.29 g/m*3 7.3 C 0 km/h
936 06-11-2007 19:15:02 7.2 C 5.34 g/m*3 7.2 C 0 km/h
937 06-11-2007 19:27:02 7.4 C 5.33 g/m*3 7.4 C 0 km/h
938 06-11-2007 19:39:02 7.3 C 5.29 g/m*3 7.3 C 0 km/h
939 06-11-2007 19:51:02 7.6 C 5.4 g/m*3 7.6 C 0 km/h
940 06-11-2007 20:03:03 7.5 C 5.36 g/m*3 7.5 C 0 km/h
941 06-11-2007 20:15:02 7.3 C 5.37 g/m*3 7.3 C 0 km/h
942 06-11-2007 20:27:02 7.2 C 5.42 g/m*3 7.2 C 0 km/h
943 06-11-2007 20:39:02 7.1 C 5.38 g/m*3 7.1 C 0 km/h
944 06-11-2007 20:51:02 7.4 C 5.41 g/m*3 7.4 C 0 km/h
945 06-11-2007 21:03:01 7.4 C 5.41 g/m*3 7.4 C 0 km/h
946 06-11-2007 21:15:01 7.5 C 5.36 g/m*3 7.5 C 0 km/h
947 06-11-2007 21:27:01 7.5 C 5.28 g/m*3 7.5 C 0 km/h
948 06-11-2007 21:39:02 7.5 C 5.28 g/m*3 7.5 C 0 km/h
949 06-11-2007 21:51:02 7.5 C 5.28 g/m*3 7.5 C 0 km/h
950 06-11-2007 22:03:02 7.5 C 5.28 g/m*3 7.5 C 0 km/h
Sensor: Nr:Datum:Temp:Abs-Feuchte:Windchill:Wind:
Aussen-T/F 951 06-11-2007 22:15:02 7.6 C 5.32 g/m*3 7.6 C 0 km/h
952 06-11-2007 22:27:02 7.5 C 5.28 g/m*3 7.5 C 0 km/h
953 06-11-2007 22:39:03 7.4 C 5.33 g/m*3 7.4 C 0 km/h
954 06-11-2007 22:51:02 7.3 C 5.37 g/m*3 7.3 C 0 km/h
955 06-11-2007 23:03:02 7.3 C 5.37 g/m*3 7.3 C 0 km/h
956 06-11-2007 23:15:02 7.4 C 5.41 g/m*3 7.4 C 0 km/h
957 06-11-2007 23:27:02 7.4 C 5.41 g/m*3 7.4 C 0 km/h
958 06-11-2007 23:39:02 7.4 C 5.41 g/m*3 7.4 C 0 km/h
959 06-11-2007 23:51:02 7.5 C 5.44 g/m*3 7.5 C 0 km/h
960 07-11-2007 00:03:02 7.5 C 5.44 g/m*3 7.5 C 0 km/h
961 07-11-2007 00:15:03 7.2 C 5.42 g/m*3 7.2 C 0 km/h
962 07-11-2007 00:27:03 7 C 5.42 g/m*3 7 C 0 km/h
963 07-11-2007 00:39:02 6.8 C 5.58 g/m*3 6.8 C 0 km/h
964 07-11-2007 00:51:02 6.9 C 5.54 g/m*3 6.9 C 0 km/h
965 07-11-2007 01:03:03 7.1 C 5.54 g/m*3 7.1 C 0 km/h
966 07-11-2007 01:15:03 7 C 5.5 g/m*3 7 C 0 km/h
967 07-11-2007 01:27:03 7.1 C 5.54 g/m*3 7.1 C 0 km/h
968 07-11-2007 01:39:02 7.1 C 5.54 g/m*3 7.1 C 0 km/h
969 07-11-2007 01:51:02 7.3 C 5.45 g/m*3 7.3 C 0 km/h
970 07-11-2007 02:03:02 7.4 C 5.49 g/m*3 7.4 C 0 km/h
971 07-11-2007 02:15:01 7.3 C 5.45 g/m*3 7.3 C 0 km/h
972 07-11-2007 02:27:01 7.3 C 5.53 g/m*3 7.3 C 0 km/h
973 07-11-2007 02:39:02 7.3 C 5.61 g/m*3 7.3 C 0 km/h
974 07-11-2007 02:52:03 7.3 C 5.69 g/m*3 7.3 C 0 km/h
975 07-11-2007 03:04:03 7.3 C 5.77 g/m*3 7.3 C 0 km/h
Sensor: Nr:Datum:Temp:Abs-Feuchte:Windchill:Wind:
Aussen-T/F 976 07-11-2007 03:16:02 7.3 C 5.77 g/m*3 7.3 C 0 km/h
977 07-11-2007 03:28:02 7.3 C 5.77 g/m*3 7.3 C 0 km/h
978 07-11-2007 03:40:02 7.4 C 5.73 g/m*3 7.4 C 0 km/h
979 07-11-2007 03:52:02 7.3 C 5.69 g/m*3 7.3 C 0 km/h
980 07-11-2007 04:04:02 7.1 C 5.69 g/m*3 7.1 C 0 km/h
981 07-11-2007 04:16:02 7 C 5.73 g/m*3 7 C 0 km/h
982 07-11-2007 04:28:02 7.1 C 5.85 g/m*3 7.1 C 0 km/h
983 07-11-2007 04:40:02 7.2 C 5.81 g/m*3 7.2 C 0 km/h
984 07-11-2007 04:52:02 7.3 C 5.85 g/m*3 7.3 C 0 km/h
985 07-11-2007 05:04:02 7.4 C 5.88 g/m*3 7.4 C 0 km/h
986 07-11-2007 05:16:02 7.4 C 5.96 g/m*3 7.4 C 0 km/h
987 07-11-2007 05:28:02 7.3 C 6 g/m*3 7.3 C 0 km/h
988 07-11-2007 05:40:02 7.4 C 6.04 g/m*3 7.4 C 0 km/h
989 07-11-2007 05:52:02 7.5 C 6 g/m*3 7.5 C 0 km/h
990 07-11-2007 06:04:02 7.5 C 5.92 g/m*3 7.5 C 0 km/h
991 07-11-2007 06:16:02 7.5 C 5.92 g/m*3 7.5 C 0 km/h
992 07-11-2007 06:28:02 7.5 C 5.92 g/m*3 7.5 C 0 km/h
993 07-11-2007 06:40:01 7.5 C 5.84 g/m*3 7.5 C 0 km/h
994 07-11-2007 06:52:02 7.5 C 5.76 g/m*3 7.5 C 0 km/h
995 07-11-2007 07:04:02 7.5 C 5.68 g/m*3 7.5 C 0 km/h
996 07-11-2007 07:16:02 7.5 C 5.6 g/m*3 7.5 C 0 km/h
997 07-11-2007 07:28:02 7.5 C 5.6 g/m*3 7.5 C 0 km/h
998 07-11-2007 07:40:02 7.5 C 5.44 g/m*3 7.5 C 0 km/h
999 07-11-2007 07:52:01 7.5 C 5.36 g/m*3 7.5 C 0 km/h
1000 07-11-2007 08:04:02 7.6 C 5.32 g/m*3 7.6 C 0 km/h
Sensor: Nr:Datum:Temp:Abs-Feuchte:Windchill:Wind:
Aussen-T/F 1001 07-11-2007 08:16:02 7.6 C 5.24 g/m*3 7.6 C 0 km/h
1002 07-11-2007 08:28:03 7.8 C 5.22 g/m*3 7.8 C 0 km/h
1003 07-11-2007 08:40:02 7.8 C 5.22 g/m*3 7.8 C 0 km/h
1004 07-11-2007 08:52:02 7.9 C 5.26 g/m*3 7.9 C 0 km/h
1005 07-11-2007 09:04:02 8 C 5.21 g/m*3 8 C 0 km/h
1006 07-11-2007 09:16:02 8.1 C 5.24 g/m*3 8.1 C 0 km/h
1007 07-11-2007 09:28:02 8.1 C 5.24 g/m*3 8.1 C 0 km/h
1008 07-11-2007 09:40:02 8.2 C 5.28 g/m*3 8.2 C 0 km/h
1009 07-11-2007 09:52:02 8 C 5.37 g/m*3 8 C 0 km/h
1010 07-11-2007 10:04:02 7.9 C 5.59 g/m*3 7.9 C 0 km/h
1011 07-11-2007 10:16:02 7.7 C 5.68 g/m*3 7.7 C 0 km/h
1012 07-11-2007 10:28:02 7.8 C 5.63 g/m*3 7.8 C 0 km/h
1013 07-11-2007 10:40:02 8 C 5.54 g/m*3 8 C 0 km/h
1014 07-11-2007 10:52:02 8.1 C 5.49 g/m*3 8.1 C 0 km/h
1015 07-11-2007 11:04:02 8.2 C 5.53 g/m*3 8.2 C 0 km/h
1016 07-11-2007 11:16:02 8.2 C 5.53 g/m*3 8.2 C 0 km/h
1017 07-11-2007 11:28:02 8.3 C 5.56 g/m*3 8.3 C 0 km/h
1018 07-11-2007 11:40:02 8.4 C 5.6 g/m*3 8.4 C 0 km/h
1019 07-11-2007 11:52:03 8.4 C 5.68 g/m*3 8.4 C 0 km/h
1020 07-11-2007 12:04:02 8.3 C 5.82 g/m*3 8.3 C 0 km/h
1021 07-11-2007 12:16:02 8.4 C 5.85 g/m*3 8.4 C 0 km/h
1022 07-11-2007 12:28:02 8.4 C 5.85 g/m*3 8.4 C 0 km/h
1023 07-11-2007 12:40:02 8.3 C 5.82 g/m*3 8.3 C 0 km/h
1024 07-11-2007 12:52:02 8.3 C 5.9 g/m*3 8.3 C 0 km/h
1025 07-11-2007 13:04:03 8.6 C 5.93 g/m*3 8.6 C 0 km/h
Sensor: Nr:Datum:Temp:Abs-Feuchte:Windchill:Wind:
Aussen-T/F 1026 07-11-2007 13:16:03 8.9 C 5.87 g/m*3 8.9 C 0 km/h
1027 07-11-2007 13:28:03 9 C 5.82 g/m*3 9 C 0 km/h
1028 07-11-2007 13:40:03 9.4 C 5.88 g/m*3 9.4 C 0 km/h
1029 07-11-2007 13:52:02 9.7 C 5.81 g/m*3 9.7 C 0 km/h
1030 07-11-2007 14:04:02 9.9 C 5.88 g/m*3 9.9 C 0 km/h
1031 07-11-2007 14:16:02 10 C 5.83 g/m*3 10 C 0 km/h
1032 07-11-2007 14:28:02 9.8 C 5.94 g/m*3 9.8 C 0 km/h
1033 07-11-2007 14:40:02 9.8 C 6.03 g/m*3 9.8 C 0 km/h
1034 07-11-2007 14:52:03 9.5 C 6.01 g/m*3 9.5 C 0 km/h
1035 07-11-2007 15:04:02 9.3 C 6.11 g/m*3 9.3 C 0 km/h
1036 07-11-2007 15:16:02 9.1 C 6.12 g/m*3 9.1 C 0 km/h
1037 07-11-2007 15:28:02 9.1 C 6.21 g/m*3 9.1 C 0 km/h
1038 07-11-2007 15:40:02 9.3 C 6.38 g/m*3 9.3 C 0 km/h
1039 07-11-2007 15:52:02 9.2 C 6.43 g/m*3 9.2 C 0 km/h
1040 07-11-2007 16:04:02 9.2 C 6.52 g/m*3 9.2 C 0 km/h
1041 07-11-2007 16:16:02 8.9 C 6.75 g/m*3 8.9 C 0 km/h
1042 07-11-2007 16:28:02 8.9 C 6.83 g/m*3 8.9 C 0 km/h
1043 07-11-2007 16:40:03 8.8 C 6.79 g/m*3 8.8 C 0 km/h
1044 07-11-2007 16:52:02 8.8 C 6.79 g/m*3 8.8 C 0 km/h
1045 07-11-2007 17:04:03 8.8 C 6.79 g/m*3 8.8 C 0 km/h
1046 07-11-2007 17:16:02 8.6 C 6.79 g/m*3 8.6 C 0 km/h
1047 07-11-2007 17:28:02 8.6 C 6.79 g/m*3 8.6 C 0 km/h
1048 07-11-2007 17:40:03 8.7 C 6.83 g/m*3 8.7 C 0 km/h
1049 07-11-2007 17:52:02 8.9 C 6.83 g/m*3 8.9 C 0 km/h
1050 07-11-2007 18:04:02 9.2 C 6.7 g/m*3 9.2 C 0 km/h
Sensor: Nr:Datum:Temp:Abs-Feuchte:Windchill:Wind:
Aussen-T/F 1051 07-11-2007 18:16:03 9.5 C 6.74 g/m*3 9.5 C 0 km/h
1052 07-11-2007 18:28:03 9.7 C 6.73 g/m*3 9.7 C 0 km/h
1053 07-11-2007 18:40:03 9.9 C 6.72 g/m*3 9.9 C 0 km/h
1054 07-11-2007 18:52:02 10 C 6.67 g/m*3 10 C 0 km/h
1055 07-11-2007 19:04:02 10.1 C 6.62 g/m*3 10.1 C 0 km/h
1056 07-11-2007 19:16:02 10.2 C 6.66 g/m*3 10.2 C 0 km/h
1057 07-11-2007 19:28:02 10.3 C 6.7 g/m*3 10.3 C 0 km/h
1058 07-11-2007 19:40:02 10.5 C 6.69 g/m*3 10.5 C 0 km/h
1059 07-11-2007 19:52:02 10.6 C 6.73 g/m*3 10.6 C 0 km/h
1060 07-11-2007 20:04:02 10.5 C 6.79 g/m*3 10.5 C 0 km/h
1061 07-11-2007 20:16:02 10.7 C 6.88 g/m*3 10.7 C 0 km/h
1062 07-11-2007 20:28:02 10.7 C 6.78 g/m*3 10.7 C 0 km/h
1063 07-11-2007 20:40:02 11.1 C 6.75 g/m*3 11.1 C 0 km/h
1064 07-11-2007 20:52:01 11 C 6.71 g/m*3 11 C 0 km/h
1065 07-11-2007 21:04:01 11.2 C 6.69 g/m*3 11.2 C 0 km/h
1066 07-11-2007 21:16:01 10.7 C 6.97 g/m*3 10.7 C 0 km/h
1067 07-11-2007 21:28:01 10.4 C 7.23 g/m*3 10.4 C 0 km/h
1068 07-11-2007 21:40:02 9.9 C 7.38 g/m*3 9.9 C 0 km/h
1069 07-11-2007 21:52:02 9.6 C 7.6 g/m*3 9.6 C 0 km/h
1070 07-11-2007 22:04:02 9.3 C 7.55 g/m*3 9.3 C 0 km/h
1071 07-11-2007 22:16:02 9.3 C 7.73 g/m*3 9.3 C 0 km/h
1072 07-11-2007 22:28:02 9.1 C 7.72 g/m*3 9.1 C 0 km/h
1073 07-11-2007 22:40:02 9 C 7.76 g/m*3 9 C 0 km/h
1074 07-11-2007 22:52:02 8.9 C 7.8 g/m*3 8.9 C 0 km/h
1075 07-11-2007 23:04:02 8.9 C 7.88 g/m*3 8.9 C 0 km/h
Sensor: Nr:Datum:Temp:Abs-Feuchte:Windchill:Wind:
Aussen-T/F 1076 07-11-2007 23:16:02 9 C 7.93 g/m*3 9 C 0 km/h
1077 07-11-2007 23:28:03 9 C 7.93 g/m*3 9 C 0 km/h
1078 07-11-2007 23:40:02 9.2 C 8.04 g/m*3 9.2 C 0 km/h
1079 07-11-2007 23:52:01 9.4 C 7.96 g/m*3 9.4 C 0 km/h
1080 08-11-2007 00:04:01 9.5 C 7.74 g/m*3 9.5 C 0 km/h
1081 08-11-2007 00:16:01 9.6 C 7.69 g/m*3 9.6 C 0 km/h
1082 08-11-2007 00:28:01 9.6 C 7.6 g/m*3 9.6 C 0 km/h
1083 08-11-2007 00:40:01 9.6 C 7.6 g/m*3 9.6 C 0 km/h
1084 08-11-2007 00:52:02 9.5 C 7.55 g/m*3 9.5 C 0 km/h
1085 08-11-2007 01:04:02 9.5 C 7.55 g/m*3 9.5 C 0 km/h
1086 08-11-2007 01:16:01 9.5 C 7.55 g/m*3 9.5 C 0 km/h
1087 08-11-2007 01:28:01 9.4 C 7.51 g/m*3 9.4 C 0 km/h
1088 08-11-2007 01:40:02 9.5 C 7.55 g/m*3 9.5 C 0 km/h
1089 08-11-2007 01:52:02 9.6 C 7.42 g/m*3 9.6 C 0 km/h
1090 08-11-2007 02:04:02 9.6 C 7.24 g/m*3 9.6 C 0 km/h
1091 08-11-2007 02:16:02 9.5 C 7.1 g/m*3 9.5 C 0 km/h
1092 08-11-2007 02:28:02 9.5 C 7.1 g/m*3 9.5 C 0 km/h
1093 08-11-2007 02:40:01 9.5 C 7.1 g/m*3 9.5 C 0 km/h
1094 08-11-2007 02:52:01 9.3 C 7.01 g/m*3 9.3 C 0 km/h
1095 08-11-2007 03:04:01 9.5 C 6.92 g/m*3 9.5 C 0 km/h
1096 08-11-2007 03:16:01 9.6 C 6.78 g/m*3 9.6 C 0 km/h
1097 08-11-2007 03:28:01 9.5 C 6.74 g/m*3 9.5 C 0 km/h
1098 08-11-2007 03:40:02 9.5 C 6.83 g/m*3 9.5 C 0 km/h
1099 08-11-2007 03:52:02 9.4 C 6.78 g/m*3 9.4 C 0 km/h
1100 08-11-2007 04:04:01 9.3 C 6.74 g/m*3 9.3 C 0 km/h
Sensor: Nr:Datum:Temp:Abs-Feuchte:Windchill:Wind:
Aussen-T/F 1101 08-11-2007 04:16:01 9.3 C 6.74 g/m*3 9.3 C 0 km/h
1102 08-11-2007 04:28:01 9.3 C 6.74 g/m*3 9.3 C 0 km/h
1103 08-11-2007 04:40:01 9.4 C 6.78 g/m*3 9.4 C 0 km/h
1104 08-11-2007 04:52:02 9.2 C 6.79 g/m*3 9.2 C 0 km/h
1105 08-11-2007 05:04:01 9 C 6.7 g/m*3 9 C 0 km/h
1106 08-11-2007 05:16:01 8.7 C 6.83 g/m*3 8.7 C 0 km/h
1107 08-11-2007 05:28:01 8.4 C 6.87 g/m*3 8.4 C 0 km/h
1108 08-11-2007 05:40:02 8.7 C 7.09 g/m*3 8.7 C 0 km/h
1109 08-11-2007 05:52:01 8.7 C 7.09 g/m*3 8.7 C 0 km/h
1110 08-11-2007 06:04:02 8.8 C 7.22 g/m*3 8.8 C 0 km/h
1111 08-11-2007 06:16:01 8.9 C 7.27 g/m*3 8.9 C 0 km/h
1112 08-11-2007 06:28:01 8.9 C 7.27 g/m*3 8.9 C 0 km/h
1113 08-11-2007 06:40:01 9 C 7.23 g/m*3 9 C 0 km/h
1114 08-11-2007 06:52:01 9.1 C 7.19 g/m*3 9.1 C 0 km/h
1115 08-11-2007 07:04:01 9.3 C 7.28 g/m*3 9.3 C 0 km/h
1116 08-11-2007 07:16:01 9.2 C 7.14 g/m*3 9.2 C 0 km/h
1117 08-11-2007 07:28:01 9.2 C 7.05 g/m*3 9.2 C 0 km/h
1118 08-11-2007 07:40:02 9.2 C 7.05 g/m*3 9.2 C 0 km/h
1119 08-11-2007 07:52:01 9.3 C 7.01 g/m*3 9.3 C 0 km/h
1120 08-11-2007 08:04:03 9.3 C 7.01 g/m*3 9.3 C 0 km/h
1121 08-11-2007 08:16:02 9.3 C 6.92 g/m*3 9.3 C 0 km/h
1122 08-11-2007 08:28:02 9.3 C 6.92 g/m*3 9.3 C 0 km/h
1123 08-11-2007 08:40:02 9.3 C 7.01 g/m*3 9.3 C 0 km/h
1124 08-11-2007 08:52:02 9.5 C 7.01 g/m*3 9.5 C 0 km/h
1125 08-11-2007 09:04:01 9.7 C 7.1 g/m*3 9.7 C 0 km/h
Sensor: Nr:Datum:Temp:Abs-Feuchte:Windchill:Wind:
Aussen-T/F 1126 08-11-2007 09:16:01 9.8 C 7.14 g/m*3 9.8 C 0 km/h
1127 08-11-2007 09:28:01 9.7 C 7.19 g/m*3 9.7 C 0 km/h
1128 08-11-2007 09:40:01 9.7 C 7.28 g/m*3 9.7 C 0 km/h
1129 08-11-2007 09:52:01 9.6 C 7.33 g/m*3 9.6 C 0 km/h
1130 08-11-2007 10:04:02 10.1 C 7.38 g/m*3 10.1 C 0 km/h
1131 08-11-2007 10:16:02 10.5 C 7.37 g/m*3 10.5 C 0 km/h
1132 08-11-2007 10:28:02 10.6 C 7.32 g/m*3 10.6 C 0 km/h
1133 08-11-2007 10:40:02 10.8 C 7.41 g/m*3 10.8 C 0 km/h
1134 08-11-2007 10:52:02 10.9 C 7.36 g/m*3 10.9 C 0 km/h
1135 08-11-2007 11:04:02 10.9 C 7.36 g/m*3 10.9 C 0 km/h
1136 08-11-2007 11:16:01 10.8 C 7.31 g/m*3 10.8 C 0 km/h
1137 08-11-2007 11:28:01 10.8 C 7.31 g/m*3 10.8 C 0 km/h
1138 08-11-2007 11:40:01 10.8 C 7.31 g/m*3 10.8 C 0 km/h
1139 08-11-2007 11:52:01 11 C 7.21 g/m*3 11 C 0 km/h
1140 08-11-2007 12:04:01 11 C 7.21 g/m*3 11 C 0 km/h
1141 08-11-2007 12:16:02 11 C 7.01 g/m*3 11 C 0 km/h
1142 08-11-2007 12:28:02 11.2 C 6.99 g/m*3 11.2 C 0 km/h
1143 08-11-2007 12:40:01 11.3 C 7.04 g/m*3 11.3 C 0 km/h
1144 08-11-2007 12:52:02 11.4 C 7.08 g/m*3 11.4 C 0 km/h
1145 08-11-2007 13:04:01 11.5 C 7.13 g/m*3 11.5 C 0 km/h
1146 08-11-2007 13:16:02 11.4 C 6.98 g/m*3 11.4 C 0 km/h
1147 08-11-2007 13:28:02 11.3 C 7.04 g/m*3 11.3 C 0 km/h
1148 08-11-2007 13:40:02 11.2 C 6.99 g/m*3 11.2 C 0 km/h
1149 08-11-2007 13:52:02 11 C 6.91 g/m*3 11 C 0 km/h
1150 08-11-2007 14:04:01 11 C 6.91 g/m*3 11 C 0 km/h
Sensor: Nr:Datum:Temp:Abs-Feuchte:Windchill:Wind:
Aussen-T/F 1151 08-11-2007 14:16:01 11.1 C 6.95 g/m*3 11.1 C 0 km/h
1152 08-11-2007 14:28:01 11.2 C 6.99 g/m*3 11.2 C 0 km/h
1153 08-11-2007 14:40:01 11.2 C 6.89 g/m*3 11.2 C 0 km/h
1154 08-11-2007 14:52:01 11.1 C 6.95 g/m*3 11.1 C 0 km/h
1155 08-11-2007 15:04:02 11.1 C 6.95 g/m*3 11.1 C 0 km/h
1156 08-11-2007 15:16:01 11.1 C 6.95 g/m*3 11.1 C 0 km/h
1157 08-11-2007 15:28:02 11 C 6.91 g/m*3 11 C 0 km/h
1158 08-11-2007 15:40:01 11 C 6.81 g/m*3 11 C 0 km/h
1159 08-11-2007 15:52:01 11 C 6.91 g/m*3 11 C 0 km/h
1160 08-11-2007 16:04:01 10.8 C 7.02 g/m*3 10.8 C 0 km/h
1161 08-11-2007 16:16:01 10.7 C 7.17 g/m*3 10.7 C 0 km/h
1162 08-11-2007 16:28:01 10.6 C 7.22 g/m*3 10.6 C 0 km/h
1163 08-11-2007 16:40:02 10.5 C 7.18 g/m*3 10.5 C 0 km/h
1164 08-11-2007 16:52:02 10.4 C 7.23 g/m*3 10.4 C 0 km/h
1165 08-11-2007 17:04:01 10.4 C 7.23 g/m*3 10.4 C 0 km/h
1166 08-11-2007 17:16:01 10.4 C 7.23 g/m*3 10.4 C 0 km/h
1167 08-11-2007 17:28:01 10.4 C 7.13 g/m*3 10.4 C 0 km/h
1168 08-11-2007 17:40:01 10 C 7.33 g/m*3 10 C 0 km/h
1169 08-11-2007 17:52:01 9.5 C 7.65 g/m*3 9.5 C 0 km/h
1170 08-11-2007 18:04:01 9.3 C 7.73 g/m*3 9.3 C 0 km/h
1171 08-11-2007 18:16:01 9.3 C 7.82 g/m*3 9.3 C 0 km/h
1172 08-11-2007 18:28:01 9.3 C 7.82 g/m*3 9.3 C 0 km/h
1173 08-11-2007 18:40:02 9.3 C 7.82 g/m*3 9.3 C 0 km/h
1174 08-11-2007 18:52:02 9.3 C 7.91 g/m*3 9.3 C 0 km/h
1175 08-11-2007 19:04:01 9.3 C 7.91 g/m*3 9.3 C 0 km/h
Sensor: Nr:Datum:Temp:Abs-Feuchte:Windchill:Wind:
Aussen-T/F 1176 08-11-2007 19:16:01 9.2 C 7.86 g/m*3 9.2 C 0 km/h
1177 08-11-2007 19:28:01 9.2 C 7.86 g/m*3 9.2 C 0 km/h
1178 08-11-2007 19:40:01 9.1 C 7.81 g/m*3 9.1 C 0 km/h
1179 08-11-2007 19:52:02 9.1 C 7.81 g/m*3 9.1 C 0 km/h
1180 08-11-2007 20:04:02 9.2 C 7.77 g/m*3 9.2 C 0 km/h
1181 08-11-2007 20:16:02 9.6 C 7.51 g/m*3 9.6 C 0 km/h
1182 08-11-2007 20:28:02 9.7 C 7.28 g/m*3 9.7 C 0 km/h
1183 08-11-2007 20:40:02 9.7 C 7.1 g/m*3 9.7 C 0 km/h
1184 08-11-2007 20:52:01 9.7 C 6.91 g/m*3 9.7 C 0 km/h
1185 08-11-2007 21:04:02 9.7 C 6.91 g/m*3 9.7 C 0 km/h
1186 08-11-2007 21:16:02 9.7 C 6.82 g/m*3 9.7 C 0 km/h
1187 08-11-2007 21:28:02 9.4 C 6.78 g/m*3 9.4 C 0 km/h
1188 08-11-2007 21:40:02 9.4 C 6.78 g/m*3 9.4 C 0 km/h
1189 08-11-2007 21:52:01 9.5 C 6.92 g/m*3 9.5 C 0 km/h
1190 08-11-2007 22:04:02 9.7 C 6.91 g/m*3 9.7 C 0 km/h
1191 08-11-2007 22:16:02 9.6 C 6.96 g/m*3 9.6 C 0 km/h
1192 08-11-2007 22:28:02 9.7 C 7.1 g/m*3 9.7 C 0 km/h
1193 08-11-2007 22:40:02 9.8 C 7.14 g/m*3 9.8 C 0 km/h
1194 08-11-2007 22:52:01 10 C 7.05 g/m*3 10 C 0 km/h
1195 08-11-2007 23:04:02 9.8 C 7.33 g/m*3 9.8 C 0 km/h
1196 08-11-2007 23:16:02 9.6 C 7.42 g/m*3 9.6 C 0 km/h
1197 08-11-2007 23:28:02 9.2 C 7.59 g/m*3 9.2 C 0 km/h
1198 08-11-2007 23:40:02 8.7 C 7.52 g/m*3 8.7 C 0 km/h
1199 08-11-2007 23:52:02 8.4 C 7.21 g/m*3 8.4 C 0 km/h
1200 09-11-2007 00:04:02 7.9 C 6.98 g/m*3 7.9 C 0 km/h
Sensor: Nr:Datum:Temp:Abs-Feuchte:Windchill:Wind:
Aussen-T/F 1201 09-11-2007 00:16:02 7.4 C 6.52 g/m*3 7.4 C 0 km/h
1202 09-11-2007 00:28:02 7.1 C 6.47 g/m*3 7.1 C 0 km/h
1203 09-11-2007 00:40:02 6.8 C 6.5 g/m*3 6.8 C 0 km/h
1204 09-11-2007 00:52:02 6.5 C 6.45 g/m*3 6.5 C 0 km/h
1205 09-11-2007 01:04:02 6.5 C 6.6 g/m*3 6.5 C 0 km/h
1206 09-11-2007 01:16:02 6.5 C 6.67 g/m*3 6.5 C 0 km/h
1207 09-11-2007 01:28:02 6.5 C 6.67 g/m*3 6.5 C 0 km/h
1208 09-11-2007 01:40:02 6.4 C 6.63 g/m*3 6.4 C 0 km/h
1209 09-11-2007 01:52:02 6.4 C 6.63 g/m*3 6.4 C 0 km/h
1210 09-11-2007 02:04:02 6.4 C 6.63 g/m*3 6.4 C 0 km/h
1211 09-11-2007 02:16:02 6.4 C 6.48 g/m*3 6.4 C 0 km/h
1212 09-11-2007 02:28:02 6.3 C 6.44 g/m*3 6.3 C 0 km/h
1213 09-11-2007 02:40:02 6.6 C 6.42 g/m*3 6.6 C 0 km/h
1214 09-11-2007 02:53:05 6.4 C 5.96 g/m*3 6.4 C 0 km/h
1215 09-11-2007 03:05:05 5.9 C 5.84 g/m*3 5.9 C 0 km/h
1216 09-11-2007 03:17:04 5.8 C 5.87 g/m*3 5.8 C 0 km/h
1217 09-11-2007 03:29:04 5.7 C 5.91 g/m*3 5.7 C 0 km/h
1218 09-11-2007 03:41:02 5.8 C 5.8 g/m*3 5.8 C 0 km/h
1219 09-11-2007 03:53:02 5.3 C 5.54 g/m*3 5.3 C 0 km/h
1220 09-11-2007 04:05:02 4.6 C 5.43 g/m*3 4.6 C 0 km/h
1221 09-11-2007 04:17:02 4.3 C 5.38 g/m*3 4.3 C 0 km/h
1222 09-11-2007 04:29:02 4.1 C 5.38 g/m*3 4.1 C 0 km/h
1223 09-11-2007 04:41:02 3.9 C 5.43 g/m*3 3.9 C 0 km/h
1224 09-11-2007 04:53:03 4 C 5.47 g/m*3 4 C 0 km/h
1225 09-11-2007 05:05:03 4 C 5.53 g/m*3 4 C 0 km/h
Sensor: Nr:Datum:Temp:Abs-Feuchte:Windchill:Wind:
Aussen-T/F 1226 09-11-2007 05:17:03 4.1 C 5.57 g/m*3 4.1 C 0 km/h
1227 09-11-2007 05:29:03 4.1 C 5.44 g/m*3 4.1 C 0 km/h
1228 09-11-2007 05:41:03 4 C 5.34 g/m*3 4 C 0 km/h
1229 09-11-2007 05:53:02 4.2 C 5.35 g/m*3 4.2 C 0 km/h
1230 09-11-2007 06:05:02 4.5 C 5.26 g/m*3 4.5 C 0 km/h
1231 09-11-2007 06:17:02 4.2 C 5.22 g/m*3 4.2 C 0 km/h
1232 09-11-2007 06:29:03 4 C 5.15 g/m*3 4 C 0 km/h
1233 09-11-2007 06:41:02 4.1 C 5.06 g/m*3 4.1 C 0 km/h
1234 09-11-2007 06:53:02 4.1 C 4.99 g/m*3 4.1 C 0 km/h
1235 09-11-2007 07:05:03 4 C 4.9 g/m*3 4 C 0 km/h
1236 09-11-2007 07:17:02 3.9 C 4.86 g/m*3 3.9 C 0 km/h
1237 09-11-2007 07:29:02 3.8 C 4.77 g/m*3 3.8 C 0 km/h
1238 09-11-2007 07:41:02 3.9 C 4.67 g/m*3 3.9 C 0 km/h
1239 09-11-2007 07:53:02 3.9 C 4.67 g/m*3 3.9 C 0 km/h
1240 09-11-2007 08:05:02 4.2 C 4.57 g/m*3 4.2 C 0 km/h
1241 09-11-2007 08:17:02 3.8 C 4.52 g/m*3 3.8 C 0 km/h
1242 09-11-2007 08:29:02 4.2 C 4.57 g/m*3 4.2 C 0 km/h
1243 09-11-2007 08:41:02 4.4 C 4.57 g/m*3 4.4 C 0 km/h
1244 09-11-2007 08:53:02 4.4 C 4.57 g/m*3 4.4 C 0 km/h
1245 09-11-2007 09:05:02 4.6 C 4.5 g/m*3 4.6 C 0 km/h
1246 09-11-2007 09:17:02 4.8 C 4.56 g/m*3 4.8 C 0 km/h
1247 09-11-2007 09:29:02 5 C 4.55 g/m*3 5 C 0 km/h
1248 09-11-2007 09:41:03 4.3 C 4.67 g/m*3 4.3 C 0 km/h
1249 09-11-2007 09:53:02 3.8 C 4.77 g/m*3 3.8 C 0 km/h
1250 09-11-2007 10:05:02 3.9 C 4.8 g/m*3 3.9 C 0 km/h
Sensor: Nr:Datum:Temp:Abs-Feuchte:Windchill:Wind:
Aussen-T/F 1251 09-11-2007 10:17:02 4.4 C 4.83 g/m*3 4.4 C 0 km/h
1252 09-11-2007 10:29:02 5 C 4.55 g/m*3 5 C 0 km/h
1253 09-11-2007 10:41:03 5.1 C 4.51 g/m*3 5.1 C 0 km/h
1254 09-11-2007 10:53:02 5 C 4.55 g/m*3 5 C 0 km/h
1255 09-11-2007 11:05:02 4.7 C 4.66 g/m*3 4.7 C 0 km/h
1256 09-11-2007 11:17:02 4.9 C 4.66 g/m*3 4.9 C 0 km/h
1257 09-11-2007 11:29:02 5.7 C 4.55 g/m*3 5.7 C 0 km/h
1258 09-11-2007 11:41:02 5.9 C 4.4 g/m*3 5.9 C 0 km/h
1259 09-11-2007 11:53:02 6.1 C 4.46 g/m*3 6.1 C 0 km/h
1260 09-11-2007 12:05:03 6.2 C 4.34 g/m*3 6.2 C 0 km/h
1261 09-11-2007 12:17:02 6.7 C 4.41 g/m*3 6.7 C 0 km/h
1262 09-11-2007 12:29:02 6.6 C 4.45 g/m*3 6.6 C 0 km/h
1263 09-11-2007 12:41:02 6.4 C 4.47 g/m*3 6.4 C 0 km/h
1264 09-11-2007 12:53:02 6 C 4.5 g/m*3 6 C 0 km/h
1265 09-11-2007 13:05:01 6.2 C 4.63 g/m*3 6.2 C 0 km/h
1266 09-11-2007 13:17:02 6.7 C 4.56 g/m*3 6.7 C 0 km/h
1267 09-11-2007 13:29:02 6.9 C 4.54 g/m*3 6.9 C 0 km/h
1268 09-11-2007 13:41:02 6.6 C 4.45 g/m*3 6.6 C 0 km/h
1269 09-11-2007 13:53:02 6.5 C 4.42 g/m*3 6.5 C 0 km/h
1270 09-11-2007 14:05:02 6.6 C 4.38 g/m*3 6.6 C 0 km/h
1271 09-11-2007 14:17:02 6.5 C 4.42 g/m*3 6.5 C 0 km/h
1272 09-11-2007 14:29:02 6.5 C 4.5 g/m*3 6.5 C 0 km/h
1273 09-11-2007 14:41:03 6.3 C 4.44 g/m*3 6.3 C 0 km/h
1274 09-11-2007 14:53:03 5.9 C 4.54 g/m*3 5.9 C 0 km/h
1275 09-11-2007 15:05:03 5.8 C 4.51 g/m*3 5.8 C 0 km/h
Sensor: Nr:Datum:Temp:Abs-Feuchte:Windchill:Wind:
Aussen-T/F 1276 09-11-2007 15:17:02 5.8 C 4.58 g/m*3 5.8 C 0 km/h
1277 09-11-2007 15:29:02 5.6 C 4.67 g/m*3 5.6 C 0 km/h
1278 09-11-2007 15:41:02 5.1 C 4.72 g/m*3 5.1 C 0 km/h
1279 09-11-2007 15:53:02 5 C 4.76 g/m*3 5 C 0 km/h
1280 09-11-2007 16:05:03 5.4 C 4.67 g/m*3 5.4 C 0 km/h
1281 09-11-2007 16:17:02 6 C 4.65 g/m*3 6 C 0 km/h
1282 09-11-2007 16:29:02 5.9 C 4.61 g/m*3 5.9 C 0 km/h
1283 09-11-2007 16:41:02 5.3 C 4.64 g/m*3 5.3 C 0 km/h
1284 09-11-2007 16:53:02 5 C 4.62 g/m*3 5 C 0 km/h
1285 09-11-2007 17:05:05 5 C 4.62 g/m*3 5 C 0 km/h
1286 09-11-2007 17:17:03 4.7 C 4.86 g/m*3 4.7 C 0 km/h
1287 09-11-2007 17:29:03 4.5 C 5 g/m*3 4.5 C 0 km/h
1288 09-11-2007 17:41:03 4.6 C 5.03 g/m*3 4.6 C 0 km/h
1289 09-11-2007 17:53:02 4.7 C 4.93 g/m*3 4.7 C 0 km/h
1290 09-11-2007 18:05:03 4.7 C 5 g/m*3 4.7 C 0 km/h
1291 09-11-2007 18:17:03 4.5 C 5.06 g/m*3 4.5 C 0 km/h
1292 09-11-2007 18:29:03 4.4 C 5.09 g/m*3 4.4 C 0 km/h
1293 09-11-2007 18:41:03 4.5 C 5.06 g/m*3 4.5 C 0 km/h
1294 09-11-2007 18:53:02 4.4 C 5.03 g/m*3 4.4 C 0 km/h
1295 09-11-2007 19:05:02 4.4 C 5.09 g/m*3 4.4 C 0 km/h
1296 09-11-2007 19:17:02 4.2 C 5.09 g/m*3 4.2 C 0 km/h
1297 09-11-2007 19:29:02 4.2 C 5.15 g/m*3 4.2 C 0 km/h
1298 09-11-2007 19:41:02 4.3 C 5.06 g/m*3 4.3 C 0 km/h
1299 09-11-2007 19:53:02 4.6 C 5.03 g/m*3 4.6 C 0 km/h
1300 09-11-2007 20:05:02 4.7 C 5 g/m*3 4.7 C 0 km/h
Sensor: Nr:Datum:Temp:Abs-Feuchte:Windchill:Wind:
Aussen-T/F 1301 09-11-2007 20:17:02 4.7 C 5 g/m*3 4.7 C 0 km/h
1302 09-11-2007 20:29:02 4.8 C 5.03 g/m*3 4.8 C 0 km/h
1303 09-11-2007 20:41:03 4.9 C 5 g/m*3 4.9 C 0 km/h
1304 09-11-2007 20:53:02 4.8 C 5.03 g/m*3 4.8 C 0 km/h
1305 09-11-2007 21:05:02 4.7 C 5 g/m*3 4.7 C 0 km/h
1306 09-11-2007 21:17:02 4.8 C 5.03 g/m*3 4.8 C 0 km/h
1307 09-11-2007 21:29:02 4.7 C 5.06 g/m*3 4.7 C 0 km/h
1308 09-11-2007 21:41:02 4.9 C 5.06 g/m*3 4.9 C 0 km/h
1309 09-11-2007 21:53:01 4.9 C 5.06 g/m*3 4.9 C 0 km/h
1310 09-11-2007 22:05:01 4.8 C 5.03 g/m*3 4.8 C 0 km/h
1311 09-11-2007 22:17:02 5 C 4.96 g/m*3 5 C 0 km/h
1312 09-11-2007 22:29:02 5 C 4.96 g/m*3 5 C 0 km/h
1313 09-11-2007 22:41:02 4.7 C 5.13 g/m*3 4.7 C 0 km/h
1314 09-11-2007 22:53:02 4.7 C 5.26 g/m*3 4.7 C 0 km/h
1315 09-11-2007 23:05:03 4.8 C 5.23 g/m*3 4.8 C 0 km/h
1316 09-11-2007 23:17:02 4.8 C 5.23 g/m*3 4.8 C 0 km/h
1317 09-11-2007 23:29:02 4.7 C 5.33 g/m*3 4.7 C 0 km/h
1318 09-11-2007 23:41:02 4.6 C 5.43 g/m*3 4.6 C 0 km/h
1319 09-11-2007 23:53:02 4.7 C 5.46 g/m*3 4.7 C 0 km/h
1320 10-11-2007 00:05:02 4.5 C 5.46 g/m*3 4.5 C 0 km/h
1321 10-11-2007 00:17:02 4.5 C 5.59 g/m*3 4.5 C 0 km/h
1322 10-11-2007 00:29:02 4.4 C 5.62 g/m*3 4.4 C 0 km/h
1323 10-11-2007 00:41:02 4.3 C 5.58 g/m*3 4.3 C 0 km/h
1324 10-11-2007 00:53:02 4.2 C 5.61 g/m*3 4.2 C 0 km/h
1325 10-11-2007 01:05:02 4 C 5.53 g/m*3 4 C 0 km/h
Sensor: Nr:Datum:Temp:Abs-Feuchte:Windchill:Wind:
Aussen-T/F 1326 10-11-2007 01:17:02 4.3 C 5.51 g/m*3 4.3 C 0 km/h
1327 10-11-2007 01:29:02 4.3 C 5.45 g/m*3 4.3 C 0 km/h
1328 10-11-2007 01:41:03 4.3 C 5.32 g/m*3 4.3 C 0 km/h
1329 10-11-2007 01:53:02 4.4 C 5.22 g/m*3 4.4 C 0 km/h
1330 10-11-2007 02:05:02 4.5 C 5.26 g/m*3 4.5 C 0 km/h
1331 10-11-2007 02:17:03 4.6 C 5.29 g/m*3 4.6 C 0 km/h
1332 10-11-2007 02:29:03 4.8 C 5.3 g/m*3 4.8 C 0 km/h
1333 10-11-2007 02:41:03 4.9 C 5.27 g/m*3 4.9 C 0 km/h
1334 10-11-2007 02:54:03 4.9 C 5.27 g/m*3 4.9 C 0 km/h
1335 10-11-2007 03:06:03 4.8 C 5.16 g/m*3 4.8 C 0 km/h
1336 10-11-2007 03:18:03 4.9 C 5.13 g/m*3 4.9 C 0 km/h
1337 10-11-2007 03:30:03 4.9 C 5.06 g/m*3 4.9 C 0 km/h
1338 10-11-2007 03:42:02 4.9 C 5 g/m*3 4.9 C 0 km/h
1339 10-11-2007 03:54:02 4.9 C 4.93 g/m*3 4.9 C 0 km/h
1340 10-11-2007 04:06:02 4.8 C 4.9 g/m*3 4.8 C 0 km/h
1341 10-11-2007 04:18:02 4.8 C 4.83 g/m*3 4.8 C 0 km/h
1342 10-11-2007 04:30:02 4.8 C 4.83 g/m*3 4.8 C 0 km/h
1343 10-11-2007 04:42:03 4.7 C 4.8 g/m*3 4.7 C 0 km/h
1344 10-11-2007 04:54:03 4.6 C 4.83 g/m*3 4.6 C 0 km/h
1345 10-11-2007 05:06:03 4.6 C 4.9 g/m*3 4.6 C 0 km/h
1346 10-11-2007 05:18:02 4.7 C 5 g/m*3 4.7 C 0 km/h
1347 10-11-2007 05:30:02 4.5 C 5.06 g/m*3 4.5 C 0 km/h
1348 10-11-2007 05:42:02 4.4 C 5.09 g/m*3 4.4 C 0 km/h
1349 10-11-2007 05:54:02 4.2 C 5.15 g/m*3 4.2 C 0 km/h
1350 10-11-2007 06:06:02 3.8 C 5.4 g/m*3 3.8 C 0 km/h
Sensor: Nr:Datum:Temp:Abs-Feuchte:Windchill:Wind:
Aussen-T/F 1351 10-11-2007 06:18:02 3.7 C 5.48 g/m*3 3.7 C 0 km/h
1352 10-11-2007 06:30:02 3.7 C 5.48 g/m*3 3.7 C 0 km/h
1353 10-11-2007 06:42:02 3.8 C 5.52 g/m*3 3.8 C 0 km/h
1354 10-11-2007 06:54:01 4 C 5.53 g/m*3 4 C 0 km/h
1355 10-11-2007 07:06:01 4 C 5.47 g/m*3 4 C 0 km/h
1356 10-11-2007 07:18:02 4 C 5.47 g/m*3 4 C 0 km/h
1357 10-11-2007 07:30:02 4.1 C 5.57 g/m*3 4.1 C 0 km/h
1358 10-11-2007 07:42:02 4.2 C 5.61 g/m*3 4.2 C 0 km/h
1359 10-11-2007 07:54:02 4.5 C 5.72 g/m*3 4.5 C 0 km/h
1360 10-11-2007 08:06:03 4.7 C 5.8 g/m*3 4.7 C 0 km/h
1361 10-11-2007 08:18:02 4.7 C 5.86 g/m*3 4.7 C 0 km/h
1362 10-11-2007 08:30:02 4.8 C 5.97 g/m*3 4.8 C 0 km/h
1363 10-11-2007 08:42:02 4.9 C 6.01 g/m*3 4.9 C 0 km/h
1364 10-11-2007 08:54:02 5.1 C 6.09 g/m*3 5.1 C 0 km/h
1365 10-11-2007 09:06:02 5.2 C 6.13 g/m*3 5.2 C 0 km/h
1366 10-11-2007 09:18:03 5.3 C 6.24 g/m*3 5.3 C 0 km/h
1367 10-11-2007 09:30:03 5.4 C 6.28 g/m*3 5.4 C 0 km/h
1368 10-11-2007 09:42:02 5.5 C 6.32 g/m*3 5.5 C 0 km/h
1369 10-11-2007 09:54:03 5.6 C 6.36 g/m*3 5.6 C 0 km/h
1370 10-11-2007 10:06:02 5.9 C 6.49 g/m*3 5.9 C 0 km/h
1371 10-11-2007 10:18:03 6.1 C 6.43 g/m*3 6.1 C 0 km/h
1372 10-11-2007 10:30:03 6.2 C 6.47 g/m*3 6.2 C 0 km/h
1373 10-11-2007 10:42:02 6.2 C 6.47 g/m*3 6.2 C 0 km/h
1374 10-11-2007 10:54:02 6.2 C 6.55 g/m*3 6.2 C 0 km/h
1375 10-11-2007 11:06:02 6.2 C 6.62 g/m*3 6.2 C 0 km/h
Sensor: Nr:Datum:Temp:Abs-Feuchte:Windchill:Wind:
Aussen-T/F 1376 10-11-2007 11:18:02 6.1 C 6.65 g/m*3 6.1 C 0 km/h
1377 10-11-2007 11:30:02 6.3 C 6.81 g/m*3 6.3 C 0 km/h
1378 10-11-2007 11:42:02 6.8 C 7.11 g/m*3 6.8 C 0 km/h
1379 10-11-2007 11:54:01 7.4 C 7.32 g/m*3 7.4 C 0 km/h
1380 10-11-2007 12:06:02 8.6 C 7.56 g/m*3 8.6 C 0 km/h
1381 10-11-2007 12:18:02 9.3 C 7.1 g/m*3 9.3 C 0 km/h
1382 10-11-2007 12:30:02 9.8 C 6.87 g/m*3 9.8 C 0 km/h
1383 10-11-2007 12:42:02 10 C 6.58 g/m*3 10 C 0 km/h
1384 10-11-2007 12:54:03 10.1 C 6.52 g/m*3 10.1 C 0 km/h
1385 10-11-2007 13:06:03 9.9 C 6.63 g/m*3 9.9 C 0 km/h
1386 10-11-2007 13:18:02 9.2 C 6.61 g/m*3 9.2 C 0 km/h
1387 10-11-2007 13:30:02 8.6 C 6.87 g/m*3 8.6 C 0 km/h
1388 10-11-2007 13:42:02 8.9 C 7.1 g/m*3 8.9 C 0 km/h
1389 10-11-2007 13:54:02 8.6 C 6.96 g/m*3 8.6 C 0 km/h
1390 10-11-2007 14:06:03 7.4 C 6.36 g/m*3 7.4 C 0 km/h
1391 10-11-2007 14:18:02 7.7 C 6.65 g/m*3 7.7 C 0 km/h
1392 10-11-2007 14:30:02 8.1 C 6.66 g/m*3 8.1 C 0 km/h
1393 10-11-2007 14:42:02 8.4 C 6.53 g/m*3 8.4 C 0 km/h
1394 10-11-2007 14:54:01 8.6 C 6.36 g/m*3 8.6 C 0 km/h
1395 10-11-2007 15:06:01 8.5 C 6.15 g/m*3 8.5 C 0 km/h
1396 10-11-2007 15:18:02 8.6 C 5.93 g/m*3 8.6 C 0 km/h
1397 10-11-2007 15:30:02 8.4 C 6.02 g/m*3 8.4 C 0 km/h
1398 10-11-2007 15:42:02 8.1 C 5.91 g/m*3 8.1 C 0 km/h
1399 10-11-2007 15:54:02 8.1 C 5.91 g/m*3 8.1 C 0 km/h
1400 10-11-2007 16:06:02 8.1 C 5.91 g/m*3 8.1 C 0 km/h
Sensor: Nr:Datum:Temp:Abs-Feuchte:Windchill:Wind:
Aussen-T/F 1401 10-11-2007 16:18:02 8 C 5.79 g/m*3 8 C 0 km/h
1402 10-11-2007 16:30:02 7.9 C 5.83 g/m*3 7.9 C 0 km/h
1403 10-11-2007 16:42:03 7.5 C 5.84 g/m*3 7.5 C 0 km/h
1404 10-11-2007 16:54:03 7.3 C 5.85 g/m*3 7.3 C 0 km/h
1405 10-11-2007 17:06:02 7 C 5.89 g/m*3 7 C 0 km/h
1406 10-11-2007 17:18:02 7 C 5.97 g/m*3 7 C 0 km/h
1407 10-11-2007 17:30:02 7.4 C 5.88 g/m*3 7.4 C 0 km/h
1408 10-11-2007 17:42:03 7.5 C 5.92 g/m*3 7.5 C 0 km/h
1409 10-11-2007 17:54:02 7.5 C 5.84 g/m*3 7.5 C 0 km/h
1410 10-11-2007 18:06:01 7.4 C 5.81 g/m*3 7.4 C 0 km/h
1411 10-11-2007 18:18:02 7.6 C 5.64 g/m*3 7.6 C 0 km/h
1412 10-11-2007 18:30:02 7.6 C 5.48 g/m*3 7.6 C 0 km/h
1413 10-11-2007 18:42:02 7.8 C 5.47 g/m*3 7.8 C 0 km/h
1414 10-11-2007 18:54:02 7.8 C 5.47 g/m*3 7.8 C 0 km/h
1415 10-11-2007 19:06:02 7.9 C 5.5 g/m*3 7.9 C 0 km/h
1416 10-11-2007 19:18:02 8 C 5.37 g/m*3 8 C 0 km/h
1417 10-11-2007 19:30:03 7.9 C 5.59 g/m*3 7.9 C 0 km/h
1418 10-11-2007 19:42:02 7.9 C 5.67 g/m*3 7.9 C 0 km/h
1419 10-11-2007 19:54:02 7.7 C 5.76 g/m*3 7.7 C 0 km/h
1420 10-11-2007 20:06:02 7.8 C 5.71 g/m*3 7.8 C 0 km/h
1421 10-11-2007 20:18:03 7.9 C 5.75 g/m*3 7.9 C 0 km/h
1422 10-11-2007 20:30:03 8.1 C 5.49 g/m*3 8.1 C 0 km/h
1423 10-11-2007 20:42:03 7.8 C 5.63 g/m*3 7.8 C 0 km/h
1424 10-11-2007 20:54:02 7.5 C 5.76 g/m*3 7.5 C 0 km/h
1425 10-11-2007 21:06:02 7.1 C 5.93 g/m*3 7.1 C 0 km/h
Sensor: Nr:Datum:Temp:Abs-Feuchte:Windchill:Wind:
Aussen-T/F 1426 10-11-2007 21:18:02 6.9 C 6.08 g/m*3 6.9 C 0 km/h
1427 10-11-2007 21:30:02 6.8 C 6.19 g/m*3 6.8 C 0 km/h
1428 10-11-2007 21:42:01 6.7 C 6.23 g/m*3 6.7 C 0 km/h
1429 10-11-2007 21:54:02 6.5 C 6.3 g/m*3 6.5 C 0 km/h
1430 10-11-2007 22:06:02 6.4 C 6.41 g/m*3 6.4 C 0 km/h
1431 10-11-2007 22:18:01 6.3 C 6.44 g/m*3 6.3 C 0 km/h
1432 10-11-2007 22:30:01 6.3 C 6.51 g/m*3 6.3 C 0 km/h
1433 10-11-2007 22:42:01 6.3 C 6.59 g/m*3 6.3 C 0 km/h
1434 10-11-2007 22:54:02 6.2 C 6.55 g/m*3 6.2 C 0 km/h
1435 10-11-2007 23:06:02 6.2 C 6.62 g/m*3 6.2 C 0 km/h
1436 10-11-2007 23:18:03 6.2 C 6.69 g/m*3 6.2 C 0 km/h
1437 10-11-2007 23:30:03 6.1 C 6.65 g/m*3 6.1 C 0 km/h
1438 10-11-2007 23:42:03 6.1 C 6.72 g/m*3 6.1 C 0 km/h
1439 10-11-2007 23:54:02 6.2 C 6.77 g/m*3 6.2 C 0 km/h
1440 11-11-2007 00:06:03 6.4 C 6.93 g/m*3 6.4 C 0 km/h
1441 11-11-2007 00:18:02 6.5 C 6.97 g/m*3 6.5 C 0 km/h
1442 11-11-2007 00:30:02 6.4 C 6.93 g/m*3 6.4 C 0 km/h
1443 11-11-2007 00:42:02 6.6 C 7.02 g/m*3 6.6 C 0 km/h
1444 11-11-2007 00:54:02 6.6 C 7.1 g/m*3 6.6 C 0 km/h
1445 11-11-2007 01:06:01 6.8 C 7.19 g/m*3 6.8 C 0 km/h
1446 11-11-2007 01:18:01 6.9 C 7.31 g/m*3 6.9 C 0 km/h
1447 11-11-2007 01:30:01 7 C 7.28 g/m*3 7 C 0 km/h
1448 11-11-2007 01:42:01 7.1 C 7.41 g/m*3 7.1 C 0 km/h
1449 11-11-2007 01:54:02 7.2 C 7.46 g/m*3 7.2 C 0 km/h
1450 11-11-2007 02:06:02 7.5 C 7.6 g/m*3 7.5 C 0 km/h
Sensor: Nr:Datum:Temp:Abs-Feuchte:Windchill:Wind:
Aussen-T/F 1451 11-11-2007 02:18:02 7.7 C 7.7 g/m*3 7.7 C 0 km/h
1452 11-11-2007 02:30:02 7.8 C 7.75 g/m*3 7.8 C 0 km/h
1453 11-11-2007 02:42:02 8.1 C 7.9 g/m*3 8.1 C 0 km/h
1454 11-11-2007 02:55:03 8.5 C 8.11 g/m*3 8.5 C 0 km/h
1455 11-11-2007 03:07:03 8.7 C 8.22 g/m*3 8.7 C 0 km/h
1456 11-11-2007 03:19:04 8.7 C 8.22 g/m*3 8.7 C 0 km/h
1457 11-11-2007 03:31:01 8.9 C 8.32 g/m*3 8.9 C 0 km/h
1458 11-11-2007 03:43:01 9 C 8.2 g/m*3 9 C 0 km/h
1459 11-11-2007 03:55:01 9.1 C 8.07 g/m*3 9.1 C 0 km/h
1460 11-11-2007 04:07:01 9.4 C 7.78 g/m*3 9.4 C 0 km/h
1461 11-11-2007 04:19:01 9.3 C 7.46 g/m*3 9.3 C 0 km/h
1462 11-11-2007 04:31:02 9.3 C 7.37 g/m*3 9.3 C 0 km/h
1463 11-11-2007 04:43:02 9.2 C 7.32 g/m*3 9.2 C 0 km/h
1464 11-11-2007 04:55:02 9.6 C 7.33 g/m*3 9.6 C 0 km/h
1465 11-11-2007 05:07:02 9.6 C 7.24 g/m*3 9.6 C 0 km/h
1466 11-11-2007 05:19:01 9.6 C 7.24 g/m*3 9.6 C 0 km/h
1467 11-11-2007 05:31:02 9.7 C 7.19 g/m*3 9.7 C 0 km/h
1468 11-11-2007 05:43:02 9.8 C 7.14 g/m*3 9.8 C 0 km/h
1469 11-11-2007 05:55:02 9.7 C 7.19 g/m*3 9.7 C 0 km/h
1470 11-11-2007 06:07:02 9.4 C 7.24 g/m*3 9.4 C 0 km/h
1471 11-11-2007 06:19:02 9.4 C 7.33 g/m*3 9.4 C 0 km/h
1472 11-11-2007 06:31:02 9.4 C 7.33 g/m*3 9.4 C 0 km/h
1473 11-11-2007 06:43:02 9.7 C 7.28 g/m*3 9.7 C 0 km/h
1474 11-11-2007 06:55:01 9.7 C 7.28 g/m*3 9.7 C 0 km/h
1475 11-11-2007 07:07:02 9.8 C 7.14 g/m*3 9.8 C 0 km/h
Sensor: Nr:Datum:Temp:Abs-Feuchte:Windchill:Wind:
Aussen-T/F 1476 11-11-2007 07:19:01 9.9 C 7 g/m*3 9.9 C 0 km/h
1477 11-11-2007 07:31:02 9.9 C 7 g/m*3 9.9 C 0 km/h
1478 11-11-2007 07:43:02 9.9 C 7 g/m*3 9.9 C 0 km/h
1479 11-11-2007 07:55:02 9.9 C 7 g/m*3 9.9 C 0 km/h
1480 11-11-2007 08:07:02 9.9 C 7 g/m*3 9.9 C 0 km/h
1481 11-11-2007 08:19:02 9.9 C 7 g/m*3 9.9 C 0 km/h
1482 11-11-2007 08:31:02 10 C 6.86 g/m*3 10 C 0 km/h
1483 11-11-2007 08:43:02 9.8 C 6.96 g/m*3 9.8 C 0 km/h
1484 11-11-2007 08:55:03 9.4 C 7.15 g/m*3 9.4 C 0 km/h
1485 11-11-2007 09:07:03 9.2 C 7.23 g/m*3 9.2 C 0 km/h
1486 11-11-2007 09:19:02 9.3 C 7.28 g/m*3 9.3 C 0 km/h
1487 11-11-2007 09:31:02 9.4 C 7.24 g/m*3 9.4 C 0 km/h
1488 11-11-2007 09:43:02 9.4 C 7.33 g/m*3 9.4 C 0 km/h
1489 11-11-2007 09:55:02 9.7 C 7.28 g/m*3 9.7 C 0 km/h
1490 11-11-2007 10:07:01 10 C 7.05 g/m*3 10 C 0 km/h
1491 11-11-2007 10:19:01 10.2 C 7.04 g/m*3 10.2 C 0 km/h
1492 11-11-2007 10:31:01 10.2 C 6.95 g/m*3 10.2 C 0 km/h
1493 11-11-2007 10:43:01 10.4 C 7.04 g/m*3 10.4 C 0 km/h
1494 11-11-2007 10:55:02 9.9 C 7.28 g/m*3 9.9 C 0 km/h
1495 11-11-2007 11:07:02 9.7 C 7.38 g/m*3 9.7 C 0 km/h
1496 11-11-2007 11:19:02 9.6 C 7.51 g/m*3 9.6 C 0 km/h
1497 11-11-2007 11:31:02 9.5 C 7.55 g/m*3 9.5 C 0 km/h
1498 11-11-2007 11:43:02 9.2 C 7.5 g/m*3 9.2 C 0 km/h
1499 11-11-2007 11:55:02 9.2 C 7.23 g/m*3 9.2 C 0 km/h
1500 11-11-2007 12:07:02 9.3 C 6.65 g/m*3 9.3 C 0 km/h
Sensor: Nr:Datum:Temp:Abs-Feuchte:Windchill:Wind:
Aussen-T/F 1501 11-11-2007 12:19:02 9.2 C 6.52 g/m*3 9.2 C 0 km/h
1502 11-11-2007 12:31:01 9.3 C 6.47 g/m*3 9.3 C 0 km/h
1503 11-11-2007 12:43:01 9.6 C 6.41 g/m*3 9.6 C 0 km/h
1504 11-11-2007 12:55:02 9.9 C 6.44 g/m*3 9.9 C 0 km/h
1505 11-11-2007 13:07:02 10.3 C 6.42 g/m*3 10.3 C 0 km/h
1506 11-11-2007 13:19:02 10.4 C 6.46 g/m*3 10.4 C 0 km/h
1507 11-11-2007 13:31:02 10.4 C 6.36 g/m*3 10.4 C 0 km/h
1508 11-11-2007 13:43:02 10.4 C 6.36 g/m*3 10.4 C 0 km/h
1509 11-11-2007 13:55:02 10.6 C 6.25 g/m*3 10.6 C 0 km/h
1510 11-11-2007 14:07:02 11.1 C 6.25 g/m*3 11.1 C 0 km/h
1511 11-11-2007 14:19:02 9.3 C 6.02 g/m*3 9.3 C 0 km/h
1512 11-11-2007 14:31:02 8.1 C 6.57 g/m*3 8.1 C 0 km/h
1513 11-11-2007 14:43:02 7.8 C 6.69 g/m*3 7.8 C 0 km/h
1514 11-11-2007 14:55:01 7.5 C 6.72 g/m*3 7.5 C 0 km/h
1515 11-11-2007 15:07:02 7.9 C 6.9 g/m*3 7.9 C 0 km/h
1516 11-11-2007 15:19:02 8.8 C 6.96 g/m*3 8.8 C 0 km/h
1517 11-11-2007 15:31:02 8.4 C 6.7 g/m*3 8.4 C 0 km/h
1518 11-11-2007 15:43:02 8 C 6.7 g/m*3 8 C 0 km/h
1519 11-11-2007 15:55:02 7.5 C 6.56 g/m*3 7.5 C 0 km/h
1520 11-11-2007 16:07:02 7.1 C 6.4 g/m*3 7.1 C 0 km/h
1521 11-11-2007 16:19:02 6.7 C 6.38 g/m*3 6.7 C 0 km/h
1522 11-11-2007 16:31:02 6.8 C 6.42 g/m*3 6.8 C 0 km/h
1523 11-11-2007 16:43:02 6.9 C 6.47 g/m*3 6.9 C 0 km/h
1524 11-11-2007 16:55:02 6.7 C 6.23 g/m*3 6.7 C 0 km/h
1525 11-11-2007 17:07:02 6.4 C 6.11 g/m*3 6.4 C 0 km/h
Sensor: Nr:Datum:Temp:Abs-Feuchte:Windchill:Wind:
Aussen-T/F 1526 11-11-2007 17:19:02 6.5 C 6.07 g/m*3 6.5 C 0 km/h
1527 11-11-2007 17:31:01 6.2 C 6.03 g/m*3 6.2 C 0 km/h
1528 11-11-2007 17:43:01 6 C 6.02 g/m*3 6 C 0 km/h
1529 11-11-2007 17:55:02 6 C 6.1 g/m*3 6 C 0 km/h
1530 11-11-2007 18:07:02 6.2 C 6.1 g/m*3 6.2 C 0 km/h
1531 11-11-2007 18:19:01 5.9 C 5.98 g/m*3 5.9 C 0 km/h
1532 11-11-2007 18:31:02 5.5 C 5.83 g/m*3 5.5 C 0 km/h
1533 11-11-2007 18:43:02 5.2 C 5.71 g/m*3 5.2 C 0 km/h
1534 11-11-2007 18:55:02 5.4 C 5.86 g/m*3 5.4 C 0 km/h
1535 11-11-2007 19:07:02 5.6 C 5.87 g/m*3 5.6 C 0 km/h
1536 11-11-2007 19:19:01 5.7 C 5.84 g/m*3 5.7 C 0 km/h
1537 11-11-2007 19:31:02 5.7 C 5.76 g/m*3 5.7 C 0 km/h
1538 11-11-2007 19:43:02 5.6 C 5.59 g/m*3 5.6 C 0 km/h
1539 11-11-2007 19:55:01 5.2 C 5.51 g/m*3 5.2 C 0 km/h
1540 11-11-2007 20:07:01 4.9 C 5.6 g/m*3 4.9 C 0 km/h
1541 11-11-2007 20:19:02 4.9 C 5.67 g/m*3 4.9 C 0 km/h
1542 11-11-2007 20:31:02 4.9 C 5.67 g/m*3 4.9 C 0 km/h
1543 11-11-2007 20:43:02 4.9 C 5.54 g/m*3 4.9 C 0 km/h
1544 11-11-2007 20:55:02 4.3 C 5.38 g/m*3 4.3 C 0 km/h
1545 11-11-2007 21:07:02 3.8 C 5.4 g/m*3 3.8 C 0 km/h
1546 11-11-2007 21:19:02 3.7 C 5.42 g/m*3 3.7 C 0 km/h
1547 11-11-2007 21:31:02 3.9 C 5.56 g/m*3 3.9 C 0 km/h
1548 11-11-2007 21:43:02 4 C 5.59 g/m*3 4 C 0 km/h
1549 11-11-2007 21:55:02 4.1 C 5.63 g/m*3 4.1 C 0 km/h
1550 11-11-2007 22:07:02 4.3 C 5.64 g/m*3 4.3 C 0 km/h
Sensor: Nr:Datum:Temp:Abs-Feuchte:Windchill:Wind:
Aussen-T/F 1551 11-11-2007 22:19:02 4.3 C 5.51 g/m*3 4.3 C 0 km/h
1552 11-11-2007 22:31:02 4.3 C 5.51 g/m*3 4.3 C 0 km/h
1553 11-11-2007 22:43:02 4.6 C 5.62 g/m*3 4.6 C 0 km/h
1554 11-11-2007 22:55:02 4.7 C 5.6 g/m*3 4.7 C 0 km/h
1555 11-11-2007 23:07:02 4.5 C 5.46 g/m*3 4.5 C 0 km/h
1556 11-11-2007 23:19:03 4.5 C 5.46 g/m*3 4.5 C 0 km/h
1557 11-11-2007 23:31:03 4.5 C 5.39 g/m*3 4.5 C 0 km/h
1558 11-11-2007 23:43:03 4.7 C 5.33 g/m*3 4.7 C 0 km/h
1559 11-11-2007 23:55:02 4.6 C 5.29 g/m*3 4.6 C 0 km/h
1560 12-11-2007 00:07:03 4.6 C 5.29 g/m*3 4.6 C 0 km/h
1561 12-11-2007 00:19:03 4.4 C 5.16 g/m*3 4.4 C 0 km/h
1562 12-11-2007 00:31:03 4.1 C 5.12 g/m*3 4.1 C 0 km/h
1563 12-11-2007 00:43:03 4.1 C 5.18 g/m*3 4.1 C 0 km/h
1564 12-11-2007 00:55:02 4.3 C 5.19 g/m*3 4.3 C 0 km/h
1565 12-11-2007 01:07:02 4 C 5.09 g/m*3 4 C 0 km/h
1566 12-11-2007 01:19:02 4.1 C 5.12 g/m*3 4.1 C 0 km/h
1567 12-11-2007 01:31:02 4 C 5.15 g/m*3 4 C 0 km/h
1568 12-11-2007 01:43:02 4 C 5.15 g/m*3 4 C 0 km/h
1569 12-11-2007 01:55:02 4.2 C 5.15 g/m*3 4.2 C 0 km/h
1570 12-11-2007 02:07:02 4.1 C 5.06 g/m*3 4.1 C 0 km/h
1571 12-11-2007 02:19:01 3.9 C 5.05 g/m*3 3.9 C 0 km/h
1572 12-11-2007 02:31:01 4 C 5.09 g/m*3 4 C 0 km/h
1573 12-11-2007 02:43:01 4.1 C 5.06 g/m*3 4.1 C 0 km/h
1574 12-11-2007 02:56:04 4 C 4.96 g/m*3 4 C 0 km/h
1575 12-11-2007 03:08:04 3.6 C 4.95 g/m*3 3.6 C 0 km/h
Sensor: Nr:Datum:Temp:Abs-Feuchte:Windchill:Wind:
Aussen-T/F 1576 12-11-2007 03:20:04 3.7 C 5.05 g/m*3 3.7 C 0 km/h
1577 12-11-2007 03:32:01 3.3 C 4.91 g/m*3 3.3 C 0 km/h
1578 12-11-2007 03:44:01 3.2 C 4.94 g/m*3 3.2 C 0 km/h
1579 12-11-2007 03:56:01 3.3 C 5.04 g/m*3 3.3 C 0 km/h
1580 12-11-2007 04:08:01 3.4 C 5.07 g/m*3 3.4 C 0 km/h
1581 12-11-2007 04:20:02 3.6 C 5.08 g/m*3 3.6 C 0 km/h
1582 12-11-2007 04:32:02 3.8 C 5.02 g/m*3 3.8 C 0 km/h
1583 12-11-2007 04:44:02 3.9 C 4.93 g/m*3 3.9 C 0 km/h
1584 12-11-2007 04:56:02 3.9 C 4.93 g/m*3 3.9 C 0 km/h
1585 12-11-2007 05:08:02 4 C 4.9 g/m*3 4 C 0 km/h
1586 12-11-2007 05:20:03 3.8 C 4.96 g/m*3 3.8 C 0 km/h
1587 12-11-2007 05:32:03 3.7 C 4.92 g/m*3 3.7 C 0 km/h
1588 12-11-2007 05:44:03 3.8 C 4.96 g/m*3 3.8 C 0 km/h
1589 12-11-2007 05:56:03 3.6 C 4.89 g/m*3 3.6 C 0 km/h
1590 12-11-2007 06:08:02 3.5 C 4.86 g/m*3 3.5 C 0 km/h
1591 12-11-2007 06:20:02 3.5 C 4.92 g/m*3 3.5 C 0 km/h
1592 12-11-2007 06:32:02 3.6 C 4.89 g/m*3 3.6 C 0 km/h
1593 12-11-2007 06:44:02 3.5 C 4.86 g/m*3 3.5 C 0 km/h
1594 12-11-2007 06:56:02 3.4 C 4.83 g/m*3 3.4 C 0 km/h
1595 12-11-2007 07:08:02 3.6 C 4.95 g/m*3 3.6 C 0 km/h
1596 12-11-2007 07:20:02 3.5 C 4.86 g/m*3 3.5 C 0 km/h
1597 12-11-2007 07:32:02 3.3 C 4.79 g/m*3 3.3 C 0 km/h
1598 12-11-2007 07:44:02 3.1 C 4.79 g/m*3 3.1 C 0 km/h
1599 12-11-2007 07:56:02 2.9 C 4.84 g/m*3 2.9 C 0 km/h
1600 12-11-2007 08:08:02 2.9 C 4.9 g/m*3 2.9 C 0 km/h
Sensor: Nr:Datum:Temp:Abs-Feuchte:Windchill:Wind:
Aussen-T/F 1601 12-11-2007 08:20:02 2.9 C 4.9 g/m*3 2.9 C 0 km/h
1602 12-11-2007 08:32:02 3 C 4.82 g/m*3 3 C 0 km/h
1603 12-11-2007 08:44:02 3.1 C 4.79 g/m*3 3.1 C 0 km/h
1604 12-11-2007 08:56:03 3.1 C 4.79 g/m*3 3.1 C 0 km/h
1605 12-11-2007 09:08:03 3.2 C 4.76 g/m*3 3.2 C 0 km/h
1606 12-11-2007 09:20:03 3.6 C 4.83 g/m*3 3.6 C 0 km/h
1607 12-11-2007 09:32:03 4.1 C 4.74 g/m*3 4.1 C 0 km/h
1608 12-11-2007 09:44:03 4.7 C 4.86 g/m*3 4.7 C 0 km/h
1609 12-11-2007 09:56:02 5 C 4.82 g/m*3 5 C 0 km/h
1610 12-11-2007 10:08:02 5.3 C 4.92 g/m*3 5.3 C 0 km/h
1611 12-11-2007 10:20:02 5.2 C 4.82 g/m*3 5.2 C 0 km/h
1612 12-11-2007 10:32:01 5.2 C 4.82 g/m*3 5.2 C 0 km/h
1613 12-11-2007 10:44:01 5.3 C 4.85 g/m*3 5.3 C 0 km/h
1614 12-11-2007 10:56:02 5.6 C 4.88 g/m*3 5.6 C 0 km/h
1615 12-11-2007 11:08:02 6.2 C 4.93 g/m*3 6.2 C 0 km/h
1616 12-11-2007 11:20:02 6.7 C 4.86 g/m*3 6.7 C 0 km/h
1617 12-11-2007 11:32:02 6.6 C 4.83 g/m*3 6.6 C 0 km/h
1618 12-11-2007 11:44:02 6.7 C 4.79 g/m*3 6.7 C 0 km/h
1619 12-11-2007 11:56:02 6.9 C 4.7 g/m*3 6.9 C 0 km/h
1620 12-11-2007 12:08:02 7.2 C 4.4 g/m*3 7.2 C 0 km/h
1621 12-11-2007 12:20:02 7.2 C 4.24 g/m*3 7.2 C 0 km/h
1622 12-11-2007 12:32:02 7.4 C 4.14 g/m*3 7.4 C 0 km/h
1623 12-11-2007 12:44:02 7.5 C 4.16 g/m*3 7.5 C 0 km/h
1624 12-11-2007 12:56:02 8 C 3.97 g/m*3 8 C 0 km/h
1625 12-11-2007 13:08:02 8.1 C 3.99 g/m*3 8.1 C 0 km/h
Sensor: Nr:Datum:Temp:Abs-Feuchte:Windchill:Wind:
Aussen-T/F 1626 12-11-2007 13:20:02 8 C 3.89 g/m*3 8 C 0 km/h
1627 12-11-2007 13:32:02 8.1 C 3.91 g/m*3 8.1 C 0 km/h
1628 12-11-2007 13:44:02 8.1 C 3.91 g/m*3 8.1 C 0 km/h
1629 12-11-2007 13:56:01 8 C 3.97 g/m*3 8 C 0 km/h
1630 12-11-2007 14:08:01 8.1 C 3.91 g/m*3 8.1 C 0 km/h
1631 12-11-2007 14:20:02 8.1 C 3.99 g/m*3 8.1 C 0 km/h
1632 12-11-2007 14:32:02 8.1 C 3.91 g/m*3 8.1 C 0 km/h
1633 12-11-2007 14:44:02 8 C 3.97 g/m*3 8 C 0 km/h
1634 12-11-2007 14:56:02 8.1 C 4.08 g/m*3 8.1 C 0 km/h
1635 12-11-2007 15:08:02 8 C 3.97 g/m*3 8 C 0 km/h
1636 12-11-2007 15:20:02 8 C 3.97 g/m*3 8 C 0 km/h
1637 12-11-2007 15:32:02 7.8 C 4.08 g/m*3 7.8 C 0 km/h
1638 12-11-2007 15:44:02 7.5 C 4 g/m*3 7.5 C 0 km/h
1639 12-11-2007 15:56:02 7.2 C 3.92 g/m*3 7.2 C 0 km/h
1640 12-11-2007 16:08:02 6.9 C 4 g/m*3 6.9 C 0 km/h
1641 12-11-2007 16:20:02 7.1 C 3.98 g/m*3 7.1 C 0 km/h
1642 12-11-2007 16:32:02 7 C 4.03 g/m*3 7 C 0 km/h
1643 12-11-2007 16:44:02 7.1 C 4.06 g/m*3 7.1 C 0 km/h
1644 12-11-2007 16:56:03 7.1 C 4.21 g/m*3 7.1 C 0 km/h
1645 12-11-2007 17:08:03 6.6 C 4.6 g/m*3 6.6 C 0 km/h
1646 12-11-2007 17:20:02 5.7 C 4.91 g/m*3 5.7 C 0 km/h
1647 12-11-2007 17:32:02 5.2 C 5.16 g/m*3 5.2 C 0 km/h
1648 12-11-2007 17:44:02 5 C 5.23 g/m*3 5 C 0 km/h
1649 12-11-2007 17:56:02 4.8 C 5.36 g/m*3 4.8 C 0 km/h
1650 12-11-2007 18:08:03 5.2 C 5.37 g/m*3 5.2 C 0 km/h
Sensor: Nr:Datum:Temp:Abs-Feuchte:Windchill:Wind:
Aussen-T/F 1651 12-11-2007 18:20:02 5.7 C 5.12 g/m*3 5.7 C 0 km/h
1652 12-11-2007 18:32:03 5.8 C 5.09 g/m*3 5.8 C 0 km/h
1653 12-11-2007 18:44:03 5.8 C 4.94 g/m*3 5.8 C 0 km/h
1654 12-11-2007 18:56:02 5.7 C 4.84 g/m*3 5.7 C 0 km/h
1655 12-11-2007 19:08:03 5.8 C 4.94 g/m*3 5.8 C 0 km/h
1656 12-11-2007 19:20:02 5.7 C 4.84 g/m*3 5.7 C 0 km/h
1657 12-11-2007 19:32:02 5.4 C 4.88 g/m*3 5.4 C 0 km/h
1658 12-11-2007 19:44:02 5.4 C 4.95 g/m*3 5.4 C 0 km/h
1659 12-11-2007 19:56:02 5.5 C 4.92 g/m*3 5.5 C 0 km/h
1660 12-11-2007 20:08:01 5.5 C 4.92 g/m*3 5.5 C 0 km/h
1661 12-11-2007 20:20:01 5.5 C 4.85 g/m*3 5.5 C 0 km/h
1662 12-11-2007 20:32:01 5.5 C 4.78 g/m*3 5.5 C 0 km/h
1663 12-11-2007 20:44:01 5.3 C 4.85 g/m*3 5.3 C 0 km/h
1664 12-11-2007 20:56:01 5.2 C 4.82 g/m*3 5.2 C 0 km/h
1665 12-11-2007 21:08:02 5.2 C 4.82 g/m*3 5.2 C 0 km/h
1666 12-11-2007 21:20:02 5.2 C 4.75 g/m*3 5.2 C 0 km/h
1667 12-11-2007 21:32:02 5.2 C 4.75 g/m*3 5.2 C 0 km/h
1668 12-11-2007 21:44:02 5.2 C 4.75 g/m*3 5.2 C 0 km/h
1669 12-11-2007 21:56:01 5.2 C 4.68 g/m*3 5.2 C 0 km/h
1670 12-11-2007 22:08:02 5 C 4.69 g/m*3 5 C 0 km/h
1671 12-11-2007 22:20:02 4.8 C 4.69 g/m*3 4.8 C 0 km/h
1672 12-11-2007 22:32:02 4.6 C 4.7 g/m*3 4.6 C 0 km/h
1673 12-11-2007 22:44:02 4.5 C 4.73 g/m*3 4.5 C 0 km/h
1674 12-11-2007 22:56:02 4.3 C 4.74 g/m*3 4.3 C 0 km/h
1675 12-11-2007 23:08:02 4.3 C 4.74 g/m*3 4.3 C 0 km/h
Sensor: Nr:Datum:Temp:Abs-Feuchte:Windchill:Wind:
Aussen-T/F 1676 12-11-2007 23:20:03 4.2 C 4.77 g/m*3 4.2 C 0 km/h
1677 12-11-2007 23:32:02 4.2 C 4.77 g/m*3 4.2 C 0 km/h
1678 12-11-2007 23:44:03 4.1 C 4.74 g/m*3 4.1 C 0 km/h
1679 12-11-2007 23:56:02 4 C 4.7 g/m*3 4 C 0 km/h
1680 13-11-2007 00:08:02 3.9 C 4.8 g/m*3 3.9 C 0 km/h
1681 13-11-2007 00:20:02 4 C 4.77 g/m*3 4 C 0 km/h
1682 13-11-2007 00:32:02 3.8 C 4.77 g/m*3 3.8 C 0 km/h
1683 13-11-2007 00:44:02 3.6 C 4.77 g/m*3 3.6 C 0 km/h
1684 13-11-2007 00:56:02 3.4 C 4.76 g/m*3 3.4 C 0 km/h
1685 13-11-2007 01:08:02 3.7 C 4.86 g/m*3 3.7 C 0 km/h
1686 13-11-2007 01:20:02 3.9 C 4.86 g/m*3 3.9 C 0 km/h
1687 13-11-2007 01:32:02 3.8 C 4.83 g/m*3 3.8 C 0 km/h
1688 13-11-2007 01:44:03 3.7 C 4.8 g/m*3 3.7 C 0 km/h
1689 13-11-2007 01:56:02 3.7 C 4.86 g/m*3 3.7 C 0 km/h
1690 13-11-2007 02:08:02 3.7 C 4.86 g/m*3 3.7 C 0 km/h
1691 13-11-2007 02:20:02 3.7 C 4.86 g/m*3 3.7 C 0 km/h
1692 13-11-2007 02:32:02 3.6 C 4.83 g/m*3 3.6 C 0 km/h
1693 13-11-2007 02:44:02 3.8 C 4.89 g/m*3 3.8 C 0 km/h
1694 13-11-2007 02:56:01 4 C 4.83 g/m*3 4 C 0 km/h
1695 13-11-2007 03:08:01 4.2 C 4.83 g/m*3 4.2 C 0 km/h
1696 13-11-2007 03:20:02 4.1 C 4.8 g/m*3 4.1 C 0 km/h
1697 13-11-2007 03:32:02 3.9 C 4.74 g/m*3 3.9 C 0 km/h
1698 13-11-2007 03:44:02 3.7 C 4.74 g/m*3 3.7 C 0 km/h
1699 13-11-2007 03:56:02 3.7 C 4.74 g/m*3 3.7 C 0 km/h
1700 13-11-2007 04:08:02 3.7 C 4.8 g/m*3 3.7 C 0 km/h
Sensor: Nr:Datum:Temp:Abs-Feuchte:Windchill:Wind:
Aussen-T/F 1701 13-11-2007 04:20:02 3.7 C 4.74 g/m*3 3.7 C 0 km/h
1702 13-11-2007 04:32:02 3.8 C 4.77 g/m*3 3.8 C 0 km/h
1703 13-11-2007 04:44:02 3.9 C 4.8 g/m*3 3.9 C 0 km/h
1704 13-11-2007 04:56:02 4 C 4.83 g/m*3 4 C 0 km/h
1705 13-11-2007 05:08:02 4 C 4.83 g/m*3 4 C 0 km/h
1706 13-11-2007 05:20:01 3.9 C 4.86 g/m*3 3.9 C 0 km/h
1707 13-11-2007 05:32:01 3.8 C 4.83 g/m*3 3.8 C 0 km/h
1708 13-11-2007 05:44:01 3.8 C 4.89 g/m*3 3.8 C 0 km/h
1709 13-11-2007 05:56:01 3.8 C 4.89 g/m*3 3.8 C 0 km/h
1710 13-11-2007 06:08:01 3.8 C 4.96 g/m*3 3.8 C 0 km/h
1711 13-11-2007 06:20:01 4 C 4.96 g/m*3 4 C 0 km/h
1712 13-11-2007 06:32:02 4.1 C 4.99 g/m*3 4.1 C 0 km/h
1713 13-11-2007 06:44:02 4.1 C 4.99 g/m*3 4.1 C 0 km/h
1714 13-11-2007 06:56:01 4 C 5.09 g/m*3 4 C 0 km/h
1715 13-11-2007 07:08:02 3.8 C 5.21 g/m*3 3.8 C 0 km/h
1716 13-11-2007 07:20:02 3.7 C 5.36 g/m*3 3.7 C 0 km/h
1717 13-11-2007 07:32:02 3.7 C 5.48 g/m*3 3.7 C 0 km/h
1718 13-11-2007 07:44:02 3.7 C 5.55 g/m*3 3.7 C 0 km/h
1719 13-11-2007 07:56:02 3.7 C 5.55 g/m*3 3.7 C 0 km/h
1720 13-11-2007 08:08:02 3.8 C 5.58 g/m*3 3.8 C 0 km/h
1721 13-11-2007 08:20:01 3.8 C 5.58 g/m*3 3.8 C 0 km/h
1722 13-11-2007 08:32:02 3.8 C 5.58 g/m*3 3.8 C 0 km/h
1723 13-11-2007 08:44:02 3.8 C 5.58 g/m*3 3.8 C 0 km/h
1724 13-11-2007 08:56:01 3.8 C 5.58 g/m*3 3.8 C 0 km/h
1725 13-11-2007 09:08:02 3.9 C 5.62 g/m*3 3.9 C 0 km/h
Sensor: Nr:Datum:Temp:Abs-Feuchte:Windchill:Wind:
Aussen-T/F 1726 13-11-2007 09:20:02 4.2 C 5.67 g/m*3 4.2 C 0 km/h
1727 13-11-2007 09:32:01 4.4 C 5.62 g/m*3 4.4 C 0 km/h
1728 13-11-2007 09:44:01 4.5 C 5.46 g/m*3 4.5 C 0 km/h
1729 13-11-2007 09:56:02 4.7 C 5.4 g/m*3 4.7 C 0 km/h
1730 13-11-2007 10:08:02 4.8 C 5.23 g/m*3 4.8 C 0 km/h
1731 13-11-2007 10:20:01 5 C 5.03 g/m*3 5 C 0 km/h
1732 13-11-2007 10:32:01 5.2 C 4.89 g/m*3 5.2 C 0 km/h
1733 13-11-2007 10:44:01 5.3 C 4.78 g/m*3 5.3 C 0 km/h
1734 13-11-2007 10:56:01 5.2 C 4.96 g/m*3 5.2 C 0 km/h
1735 13-11-2007 11:08:01 5.4 C 4.74 g/m*3 5.4 C 0 km/h
1736 13-11-2007 11:20:02 5.6 C 4.67 g/m*3 5.6 C 0 km/h
1737 13-11-2007 11:32:02 5.6 C 4.52 g/m*3 5.6 C 0 km/h
1738 13-11-2007 11:44:02 5.6 C 4.6 g/m*3 5.6 C 0 km/h
1739 13-11-2007 11:56:02 6 C 4.65 g/m*3 6 C 0 km/h
1740 13-11-2007 12:08:02 6.2 C 4.34 g/m*3 6.2 C 0 km/h
1741 13-11-2007 12:20:01 6.2 C 4.27 g/m*3 6.2 C 0 km/h
1742 13-11-2007 12:32:01 6.4 C 4.47 g/m*3 6.4 C 0 km/h
1743 13-11-2007 12:44:01 6.4 C 4.47 g/m*3 6.4 C 0 km/h
1744 13-11-2007 12:56:02 6.1 C 4.38 g/m*3 6.1 C 0 km/h
1745 13-11-2007 13:08:01 5.7 C 4.63 g/m*3 5.7 C 0 km/h
1746 13-11-2007 13:20:01 5.3 C 4.85 g/m*3 5.3 C 0 km/h
1747 13-11-2007 13:32:02 4.6 C 5.03 g/m*3 4.6 C 0 km/h
1748 13-11-2007 13:44:02 4.4 C 5.09 g/m*3 4.4 C 0 km/h
1749 13-11-2007 13:56:01 4.3 C 5.12 g/m*3 4.3 C 0 km/h
1750 13-11-2007 14:08:02 4.2 C 5.09 g/m*3 4.2 C 0 km/h
Sensor: Nr:Datum:Temp:Abs-Feuchte:Windchill:Wind:
Aussen-T/F 1751 13-11-2007 14:20:02 3.8 C 5.08 g/m*3 3.8 C 0 km/h
1752 13-11-2007 14:32:01 3.7 C 5.17 g/m*3 3.7 C 0 km/h
1753 13-11-2007 14:44:01 3.6 C 5.26 g/m*3 3.6 C 0 km/h
1754 13-11-2007 14:56:02 3.5 C 5.29 g/m*3 3.5 C 0 km/h
1755 13-11-2007 15:08:01 3.6 C 5.32 g/m*3 3.6 C 0 km/h
1756 13-11-2007 15:20:02 3.6 C 5.32 g/m*3 3.6 C 0 km/h
1757 13-11-2007 15:32:02 3.8 C 5.27 g/m*3 3.8 C 0 km/h
1758 13-11-2007 15:44:02 3.9 C 5.24 g/m*3 3.9 C 0 km/h
1759 13-11-2007 15:56:01 3.8 C 5.27 g/m*3 3.8 C 0 km/h
1760 13-11-2007 16:08:02 3.7 C 5.3 g/m*3 3.7 C 0 km/h
1761 13-11-2007 16:20:02 3.6 C 5.32 g/m*3 3.6 C 0 km/h
1762 13-11-2007 16:32:02 3.5 C 5.29 g/m*3 3.5 C 0 km/h
1763 13-11-2007 16:44:02 3.5 C 5.35 g/m*3 3.5 C 0 km/h
1764 13-11-2007 16:56:02 3.4 C 5.31 g/m*3 3.4 C 0 km/h
1765 13-11-2007 17:08:02 3.3 C 5.34 g/m*3 3.3 C 0 km/h
1766 13-11-2007 17:20:02 3.3 C 5.34 g/m*3 3.3 C 0 km/h
1767 13-11-2007 17:32:02 3.2 C 5.3 g/m*3 3.2 C 0 km/h
1768 13-11-2007 17:44:02 3.3 C 5.34 g/m*3 3.3 C 0 km/h
1769 13-11-2007 17:56:01 3.2 C 5.3 g/m*3 3.2 C 0 km/h
1770 13-11-2007 18:08:01 3.2 C 5.36 g/m*3 3.2 C 0 km/h
1771 13-11-2007 18:20:01 3.2 C 5.36 g/m*3 3.2 C 0 km/h
1772 13-11-2007 18:32:01 3.3 C 5.4 g/m*3 3.3 C 0 km/h
1773 13-11-2007 18:44:01 3.3 C 5.4 g/m*3 3.3 C 0 km/h
1774 13-11-2007 18:56:02 3.5 C 5.41 g/m*3 3.5 C 0 km/h
1775 13-11-2007 19:08:02 3.7 C 5.42 g/m*3 3.7 C 0 km/h
Sensor: Nr:Datum:Temp:Abs-Feuchte:Windchill:Wind:
Aussen-T/F 1776 13-11-2007 19:20:01 3.8 C 5.33 g/m*3 3.8 C 0 km/h
1777 13-11-2007 19:32:01 3.8 C 5.27 g/m*3 3.8 C 0 km/h
1778 13-11-2007 19:44:01 3.8 C 5.27 g/m*3 3.8 C 0 km/h
1779 13-11-2007 19:56:02 3.5 C 5.29 g/m*3 3.5 C 0 km/h
1780 13-11-2007 20:08:02 3.5 C 5.35 g/m*3 3.5 C 0 km/h
1781 13-11-2007 20:20:01 3.5 C 5.41 g/m*3 3.5 C 0 km/h
1782 13-11-2007 20:32:02 3.6 C 5.39 g/m*3 3.6 C 0 km/h
1783 13-11-2007 20:44:02 3.6 C 5.39 g/m*3 3.6 C 0 km/h
1784 13-11-2007 20:56:01 3.6 C 5.39 g/m*3 3.6 C 0 km/h
1785 13-11-2007 21:08:01 3.6 C 5.39 g/m*3 3.6 C 0 km/h
1786 13-11-2007 21:20:02 3.6 C 5.32 g/m*3 3.6 C 0 km/h
1787 13-11-2007 21:32:02 3.6 C 5.32 g/m*3 3.6 C 0 km/h
1788 13-11-2007 21:44:02 3.5 C 5.35 g/m*3 3.5 C 0 km/h
1789 13-11-2007 21:56:01 3.4 C 5.37 g/m*3 3.4 C 0 km/h
1790 13-11-2007 22:08:01 3.4 C 5.37 g/m*3 3.4 C 0 km/h
1791 13-11-2007 22:20:01 3.4 C 5.44 g/m*3 3.4 C 0 km/h
1792 13-11-2007 22:32:01 3.4 C 5.44 g/m*3 3.4 C 0 km/h
1793 13-11-2007 22:44:01 3.2 C 5.42 g/m*3 3.2 C 0 km/h
1794 13-11-2007 22:56:02 3.2 C 5.48 g/m*3 3.2 C 0 km/h
1795 13-11-2007 23:08:02 3.2 C 5.48 g/m*3 3.2 C 0 km/h
1796 13-11-2007 23:20:02 3.1 C 5.51 g/m*3 3.1 C 0 km/h
1797 13-11-2007 23:32:02 3.2 C 5.54 g/m*3 3.2 C 0 km/h
1798 13-11-2007 23:44:02 3.3 C 5.64 g/m*3 3.3 C 0 km/h
1799 13-11-2007 23:56:01 3.4 C 5.68 g/m*3 3.4 C 0 km/h
1800 14-11-2007 00:08:01 3.4 C 5.68 g/m*3 3.4 C 0 km/h
Sensor: Nr:Datum:Temp:Abs-Feuchte:Windchill:Wind:
Aussen-T/F 1801 14-11-2007 00:20:02 3.4 C 5.74 g/m*3 3.4 C 0 km/h
1802 14-11-2007 00:32:02 3.4 C 5.74 g/m*3 3.4 C 0 km/h
1803 14-11-2007 00:44:02 3.5 C 5.78 g/m*3 3.5 C 0 km/h
1804 14-11-2007 00:56:01 3.6 C 5.82 g/m*3 3.6 C 0 km/h
1805 14-11-2007 01:08:01 3.6 C 5.88 g/m*3 3.6 C 0 km/h
1806 14-11-2007 01:20:01 3.7 C 5.92 g/m*3 3.7 C 0 km/h
1807 14-11-2007 01:32:01 3.7 C 5.92 g/m*3 3.7 C 0 km/h
1808 14-11-2007 01:44:01 3.7 C 5.92 g/m*3 3.7 C 0 km/h
1809 14-11-2007 01:56:02 3.8 C 5.96 g/m*3 3.8 C 0 km/h
1810 14-11-2007 02:08:02 3.8 C 5.96 g/m*3 3.8 C 0 km/h
1811 14-11-2007 02:20:01 3.7 C 5.92 g/m*3 3.7 C 0 km/h
1812 14-11-2007 02:32:01 3.7 C 5.92 g/m*3 3.7 C 0 km/h
1813 14-11-2007 02:44:01 3.6 C 5.82 g/m*3 3.6 C 0 km/h
1814 14-11-2007 02:57:07 3.5 C 5.66 g/m*3 3.5 C 0 km/h
1815 14-11-2007 03:09:07 3.4 C 5.5 g/m*3 3.4 C 0 km/h
1816 14-11-2007 03:21:07 3.2 C 5.3 g/m*3 3.2 C 0 km/h
1817 14-11-2007 03:33:02 3.1 C 5.15 g/m*3 3.1 C 0 km/h
1818 14-11-2007 03:45:02 3.1 C 5.09 g/m*3 3.1 C 0 km/h
1819 14-11-2007 03:57:03 3 C 5.05 g/m*3 3 C 0 km/h
1820 14-11-2007 04:09:02 3 C 5.11 g/m*3 3 C 0 km/h
1821 14-11-2007 04:21:02 3 C 5.05 g/m*3 3 C 0 km/h
1822 14-11-2007 04:33:02 3 C 4.99 g/m*3 3 C 0 km/h
1823 14-11-2007 04:45:02 2.7 C 4.89 g/m*3 2.7 C 0 km/h
1824 14-11-2007 04:57:02 2.4 C 4.85 g/m*3 2.4 C 0 km/h
1825 14-11-2007 05:09:02 2.4 C 4.91 g/m*3 2.4 C 0 km/h
Sensor: Nr:Datum:Temp:Abs-Feuchte:Windchill:Wind:
Aussen-T/F 1826 14-11-2007 05:21:02 2.4 C 4.85 g/m*3 2.4 C 0 km/h
1827 14-11-2007 05:33:02 2.2 C 4.73 g/m*3 2.2 C 0 km/h
1828 14-11-2007 05:45:02 1.8 C 4.71 g/m*3 1.8 C 0 km/h
1829 14-11-2007 05:57:02 1.9 C 4.8 g/m*3 1.9 C 0 km/h
1830 14-11-2007 06:09:02 2.2 C 4.84 g/m*3 2.2 C 0 km/h
1831 14-11-2007 06:21:02 2.3 C 4.82 g/m*3 2.3 C 0 km/h
1832 14-11-2007 06:33:02 2.4 C 4.8 g/m*3 2.4 C 0 km/h
1833 14-11-2007 06:45:02 2.5 C 4.83 g/m*3 2.5 C 0 km/h
1834 14-11-2007 06:57:02 2.4 C 4.85 g/m*3 2.4 C 0 km/h
1835 14-11-2007 07:09:02 2.4 C 4.85 g/m*3 2.4 C 0 km/h
1836 14-11-2007 07:21:02 2.4 C 4.91 g/m*3 2.4 C 0 km/h
1837 14-11-2007 07:33:02 2.4 C 4.91 g/m*3 2.4 C 0 km/h
1838 14-11-2007 07:45:02 2.5 C 4.94 g/m*3 2.5 C 0 km/h
1839 14-11-2007 07:57:02 2.5 C 4.94 g/m*3 2.5 C 0 km/h
1840 14-11-2007 08:09:02 2.5 C 5 g/m*3 2.5 C 0 km/h
1841 14-11-2007 08:21:02 2.5 C 5 g/m*3 2.5 C 0 km/h
1842 14-11-2007 08:33:02 2.7 C 4.95 g/m*3 2.7 C 0 km/h
1843 14-11-2007 08:45:02 2.7 C 4.95 g/m*3 2.7 C 0 km/h
1844 14-11-2007 08:57:02 2.9 C 4.84 g/m*3 2.9 C 0 km/h
1845 14-11-2007 09:09:02 2.9 C 4.72 g/m*3 2.9 C 0 km/h
1846 14-11-2007 09:21:02 3 C 4.7 g/m*3 3 C 0 km/h
1847 14-11-2007 09:33:02 3 C 4.58 g/m*3 3 C 0 km/h
1848 14-11-2007 09:45:02 3.1 C 4.55 g/m*3 3.1 C 0 km/h
1849 14-11-2007 09:57:02 3 C 4.4 g/m*3 3 C 0 km/h
1850 14-11-2007 10:09:02 2.8 C 4.28 g/m*3 2.8 C 0 km/h
Sensor: Nr:Datum:Temp:Abs-Feuchte:Windchill:Wind:
Aussen-T/F 1851 14-11-2007 10:21:02 3.2 C 4.34 g/m*3 3.2 C 0 km/h
1852 14-11-2007 10:33:02 3.3 C 4.31 g/m*3 3.3 C 0 km/h
1853 14-11-2007 10:45:02 3.2 C 4.22 g/m*3 3.2 C 0 km/h
1854 14-11-2007 10:57:02 3 C 4.1 g/m*3 3 C 0 km/h
1855 14-11-2007 11:09:02 3.2 C 4.1 g/m*3 3.2 C 0 km/h
1856 14-11-2007 11:21:02 3.4 C 4.09 g/m*3 3.4 C 0 km/h
1857 14-11-2007 11:33:02 3.5 C 4.12 g/m*3 3.5 C 0 km/h
1858 14-11-2007 11:45:02 3.6 C 4.15 g/m*3 3.6 C 0 km/h
1859 14-11-2007 11:57:02 3.4 C 3.97 g/m*3 3.4 C 0 km/h
1860 14-11-2007 12:09:02 3.5 C 4.12 g/m*3 3.5 C 0 km/h
1861 14-11-2007 12:21:02 3.6 C 3.96 g/m*3 3.6 C 0 km/h
1862 14-11-2007 12:33:02 3.2 C 3.92 g/m*3 3.2 C 0 km/h
1863 14-11-2007 12:45:02 3.3 C 4 g/m*3 3.3 C 0 km/h
1864 14-11-2007 12:57:02 3.6 C 3.9 g/m*3 3.6 C 0 km/h
1865 14-11-2007 13:09:02 3.8 C 3.83 g/m*3 3.8 C 0 km/h
1866 14-11-2007 13:21:01 3.8 C 3.83 g/m*3 3.8 C 0 km/h
1867 14-11-2007 13:33:02 4.1 C 3.78 g/m*3 4.1 C 0 km/h
1868 14-11-2007 13:45:02 3.5 C 3.44 g/m*3 3.5 C 0 km/h
1869 14-11-2007 13:57:02 3.5 C 3.44 g/m*3 3.5 C 0 km/h
1870 14-11-2007 14:09:02 3.5 C 3.44 g/m*3 3.5 C 0 km/h
1871 14-11-2007 14:21:02 3.5 C 3.38 g/m*3 3.5 C 0 km/h
1872 14-11-2007 14:33:02 3.6 C 3.4 g/m*3 3.6 C 0 km/h
1873 14-11-2007 14:45:01 3.6 C 3.47 g/m*3 3.6 C 0 km/h
1874 14-11-2007 14:57:01 3.5 C 3.38 g/m*3 3.5 C 0 km/h
1875 14-11-2007 15:09:01 3.5 C 3.44 g/m*3 3.5 C 0 km/h
Sensor: Nr:Datum:Temp:Abs-Feuchte:Windchill:Wind:
Aussen-T/F 1876 14-11-2007 15:21:01 3.4 C 3.48 g/m*3 3.4 C 0 km/h
1877 14-11-2007 15:33:01 3.4 C 3.54 g/m*3 3.4 C 0 km/h
1878 14-11-2007 15:45:02 3.4 C 3.54 g/m*3 3.4 C 0 km/h
1879 14-11-2007 15:57:02 3.4 C 3.36 g/m*3 3.4 C 0 km/h
1880 14-11-2007 16:09:02 3.3 C 3.34 g/m*3 3.3 C 0 km/h
1881 14-11-2007 16:21:02 3.2 C 3.31 g/m*3 3.2 C 0 km/h
1882 14-11-2007 16:33:02 3.2 C 3.31 g/m*3 3.2 C 0 km/h
1883 14-11-2007 16:45:02 2.9 C 3.43 g/m*3 2.9 C 0 km/h
1884 14-11-2007 16:57:02 2.7 C 3.44 g/m*3 2.7 C 0 km/h
1885 14-11-2007 17:09:02 2.7 C 3.5 g/m*3 2.7 C 0 km/h
1886 14-11-2007 17:21:02 2.4 C 3.54 g/m*3 2.4 C 0 km/h
1887 14-11-2007 17:33:02 2.4 C 3.6 g/m*3 2.4 C 0 km/h
1888 14-11-2007 17:45:02 2.6 C 3.7 g/m*3 2.6 C 0 km/h
1889 14-11-2007 17:57:02 2.4 C 3.65 g/m*3 2.4 C 0 km/h
1890 14-11-2007 18:09:02 2.1 C 3.64 g/m*3 2.1 C 0 km/h
1891 14-11-2007 18:21:02 2.2 C 3.66 g/m*3 2.2 C 0 km/h
1892 14-11-2007 18:33:02 2.3 C 3.69 g/m*3 2.3 C 0 km/h
1893 14-11-2007 18:45:01 2.3 C 3.74 g/m*3 2.3 C 0 km/h
1894 14-11-2007 18:57:01 2.3 C 3.8 g/m*3 2.3 C 0 km/h
1895 14-11-2007 19:09:01 2.2 C 3.77 g/m*3 2.2 C 0 km/h
1896 14-11-2007 19:21:02 2.1 C 3.8 g/m*3 2.1 C 0 km/h
1897 14-11-2007 19:33:02 2.3 C 3.8 g/m*3 2.3 C 0 km/h
1898 14-11-2007 19:45:02 2.3 C 3.8 g/m*3 2.3 C 0 km/h
1899 14-11-2007 19:57:02 2.2 C 3.83 g/m*3 2.2 C 0 km/h
1900 14-11-2007 20:09:01 2.1 C 3.86 g/m*3 2.1 C 0 km/h
Sensor: Nr:Datum:Temp:Abs-Feuchte:Windchill:Wind:
Aussen-T/F 1901 14-11-2007 20:21:02 2 C 3.95 g/m*3 2 C 0 km/h
1902 14-11-2007 20:33:02 2 C 4 g/m*3 2 C 0 km/h
1903 14-11-2007 20:45:02 1.8 C 4.06 g/m*3 1.8 C 0 km/h
1904 14-11-2007 20:57:02 1.9 C 4.08 g/m*3 1.9 C 0 km/h
1905 14-11-2007 21:09:02 1.9 C 3.97 g/m*3 1.9 C 0 km/h
1906 14-11-2007 21:21:02 1.6 C 3.89 g/m*3 1.6 C 0 km/h
1907 14-11-2007 21:33:02 1.6 C 3.84 g/m*3 1.6 C 0 km/h
1908 14-11-2007 21:45:02 1.5 C 3.81 g/m*3 1.5 C 0 km/h
1909 14-11-2007 21:57:02 1.4 C 3.84 g/m*3 1.4 C 0 km/h
1910 14-11-2007 22:09:02 0.9 C 3.81 g/m*3 0.9 C 0 km/h
1911 14-11-2007 22:21:01 0.8 C 3.89 g/m*3 0.8 C 0 km/h
1912 14-11-2007 22:33:01 0.7 C 3.92 g/m*3 0.7 C 0 km/h
1913 14-11-2007 22:45:02 0.8 C 3.99 g/m*3 0.8 C 0 km/h
1914 14-11-2007 22:57:02 1 C 4.05 g/m*3 1 C 0 km/h
1915 14-11-2007 23:09:02 0.9 C 4.02 g/m*3 0.9 C 0 km/h
1916 14-11-2007 23:21:02 0.9 C 4.07 g/m*3 0.9 C 0 km/h
1917 14-11-2007 23:33:02 0.8 C 3.99 g/m*3 0.8 C 0 km/h
1918 14-11-2007 23:45:02 1 C 4.05 g/m*3 1 C 0 km/h
1919 14-11-2007 23:57:02 0.9 C 4.07 g/m*3 0.9 C 0 km/h
1920 15-11-2007 00:09:02 0.6 C 3.99 g/m*3 0.6 C 0 km/h
1921 15-11-2007 00:21:02 0.3 C 3.96 g/m*3 0.3 C 0 km/h
1922 15-11-2007 00:33:02 0.3 C 4.01 g/m*3 0.3 C 0 km/h
1923 15-11-2007 00:45:02 0.4 C 4.03 g/m*3 0.4 C 0 km/h
1924 15-11-2007 00:57:02 0.4 C 3.98 g/m*3 0.4 C 0 km/h
1925 15-11-2007 01:09:02 0.3 C 4.01 g/m*3 0.3 C 0 km/h
Sensor: Nr:Datum:Temp:Abs-Feuchte:Windchill:Wind:
Aussen-T/F 1926 15-11-2007 01:21:02 0.4 C 4.03 g/m*3 0.4 C 0 km/h
1927 15-11-2007 01:33:02 0.4 C 3.98 g/m*3 0.4 C 0 km/h
1928 15-11-2007 01:45:01 0.5 C 4.01 g/m*3 0.5 C 0 km/h
1929 15-11-2007 01:57:01 0.6 C 4.04 g/m*3 0.6 C 0 km/h
1930 15-11-2007 02:09:02 0.6 C 4.04 g/m*3 0.6 C 0 km/h
1931 15-11-2007 02:21:02 0.7 C 4.07 g/m*3 0.7 C 0 km/h
1932 15-11-2007 02:33:02 0.8 C 4.04 g/m*3 0.8 C 0 km/h
1933 15-11-2007 02:46:03 0.8 C 4.04 g/m*3 0.8 C 0 km/h
1934 15-11-2007 02:58:03 0.7 C 4.02 g/m*3 0.7 C 0 km/h
1935 15-11-2007 03:10:03 0.4 C 3.93 g/m*3 0.4 C 0 km/h
1936 15-11-2007 03:22:03 0.2 C 3.93 g/m*3 0.2 C 0 km/h
1937 15-11-2007 03:34:02 0.4 C 4.03 g/m*3 0.4 C 0 km/h
1938 15-11-2007 03:46:02 0.2 C 3.93 g/m*3 0.2 C 0 km/h
1939 15-11-2007 03:58:02 0.2 C 3.98 g/m*3 0.2 C 0 km/h
1940 15-11-2007 04:10:03 0.2 C 3.98 g/m*3 0.2 C 0 km/h
1941 15-11-2007 04:22:03 0.2 C 3.98 g/m*3 0.2 C 0 km/h
1942 15-11-2007 04:34:03 0.4 C 4.03 g/m*3 0.4 C 0 km/h
1943 15-11-2007 04:46:01 0.4 C 3.98 g/m*3 0.4 C 0 km/h
1944 15-11-2007 04:58:01 0.4 C 3.98 g/m*3 0.4 C 0 km/h
1945 15-11-2007 05:10:01 0.3 C 3.96 g/m*3 0.3 C 0 km/h
1946 15-11-2007 05:22:01 0.3 C 3.96 g/m*3 0.3 C 0 km/h
1947 15-11-2007 05:34:01 0.4 C 3.98 g/m*3 0.4 C 0 km/h
1948 15-11-2007 05:46:02 0.5 C 4.01 g/m*3 0.5 C 0 km/h
1949 15-11-2007 05:58:02 0.5 C 4.01 g/m*3 0.5 C 0 km/h
1950 15-11-2007 06:10:02 0.5 C 3.96 g/m*3 0.5 C 0 km/h
Sensor: Nr:Datum:Temp:Abs-Feuchte:Windchill:Wind:
Aussen-T/F 1951 15-11-2007 06:22:02 0.3 C 3.86 g/m*3 0.3 C 0 km/h
1952 15-11-2007 06:34:02 0 C 3.83 g/m*3 0 C 0 km/h
1953 15-11-2007 06:46:01 0.4 C 3.88 g/m*3 0.4 C 0 km/h
1954 15-11-2007 06:58:01 0.7 C 3.76 g/m*3 0.7 C 0 km/h
1955 15-11-2007 07:10:01 0.6 C 3.74 g/m*3 0.6 C 0 km/h
1956 15-11-2007 07:22:02 0.6 C 3.79 g/m*3 0.6 C 0 km/h
1957 15-11-2007 07:34:02 0.5 C 3.76 g/m*3 0.5 C 0 km/h
1958 15-11-2007 07:46:02 0.5 C 3.76 g/m*3 0.5 C 0 km/h
1959 15-11-2007 07:58:02 0.6 C 3.79 g/m*3 0.6 C 0 km/h
1960 15-11-2007 08:10:03 0.6 C 3.79 g/m*3 0.6 C 0 km/h
1961 15-11-2007 08:22:03 0.7 C 3.76 g/m*3 0.7 C 0 km/h
1962 15-11-2007 08:34:03 0.7 C 3.76 g/m*3 0.7 C 0 km/h
1963 15-11-2007 08:46:02 0.7 C 3.81 g/m*3 0.7 C 0 km/h
1964 15-11-2007 08:58:02 0.8 C 3.84 g/m*3 0.8 C 0 km/h
1965 15-11-2007 09:10:02 0.8 C 3.84 g/m*3 0.8 C 0 km/h
1966 15-11-2007 09:22:02 0.8 C 3.79 g/m*3 0.8 C 0 km/h
1967 15-11-2007 09:34:02 1 C 3.84 g/m*3 1 C 0 km/h
1968 15-11-2007 09:46:01 1.1 C 3.87 g/m*3 1.1 C 0 km/h
1969 15-11-2007 09:58:01 1.3 C 3.92 g/m*3 1.3 C 0 km/h
1970 15-11-2007 10:10:01 1.4 C 3.84 g/m*3 1.4 C 0 km/h
1971 15-11-2007 10:22:01 1.5 C 3.87 g/m*3 1.5 C 0 km/h
1972 15-11-2007 10:34:01 1.7 C 3.87 g/m*3 1.7 C 0 km/h
1973 15-11-2007 10:46:02 1.8 C 3.89 g/m*3 1.8 C 0 km/h
1974 15-11-2007 10:58:02 2.3 C 3.91 g/m*3 2.3 C 0 km/h
1975 15-11-2007 11:10:02 3 C 3.92 g/m*3 3 C 0 km/h
Sensor: Nr:Datum:Temp:Abs-Feuchte:Windchill:Wind:
Aussen-T/F 1976 15-11-2007 11:22:02 3.1 C 3.77 g/m*3 3.1 C 0 km/h
1977 15-11-2007 11:34:02 2.4 C 3.71 g/m*3 2.4 C 0 km/h
1978 15-11-2007 11:46:02 2.7 C 3.9 g/m*3 2.7 C 0 km/h
1979 15-11-2007 11:58:02 3.3 C 3.88 g/m*3 3.3 C 0 km/h
1980 15-11-2007 12:10:02 3.3 C 3.64 g/m*3 3.3 C 0 km/h
1981 15-11-2007 12:22:02 3.9 C 3.79 g/m*3 3.9 C 0 km/h
1982 15-11-2007 12:34:02 4.5 C 3.75 g/m*3 4.5 C 0 km/h
1983 15-11-2007 12:46:03 5.1 C 3.63 g/m*3 5.1 C 0 km/h
1984 15-11-2007 12:58:03 4.1 C 3.46 g/m*3 4.1 C 0 km/h
1985 15-11-2007 13:10:03 4.6 C 3.51 g/m*3 4.6 C 0 km/h
1986 15-11-2007 13:22:03 5.4 C 3.49 g/m*3 5.4 C 0 km/h
1987 15-11-2007 13:34:03 6.2 C 3.38 g/m*3 6.2 C 0 km/h
1988 15-11-2007 13:46:02 6.6 C 3.17 g/m*3 6.6 C 0 km/h
1989 15-11-2007 13:58:02 4.7 C 3.33 g/m*3 4.7 C 0 km/h
1990 15-11-2007 14:10:02 4.5 C 3.42 g/m*3 4.5 C 0 km/h
1991 15-11-2007 14:22:02 4.6 C 3.57 g/m*3 4.6 C 0 km/h
1992 15-11-2007 14:34:02 4.4 C 3.46 g/m*3 4.4 C 0 km/h
1993 15-11-2007 14:46:01 4.4 C 3.53 g/m*3 4.4 C 0 km/h
1994 15-11-2007 14:58:01 4.3 C 3.44 g/m*3 4.3 C 0 km/h
1995 15-11-2007 15:10:01 3.7 C 3.74 g/m*3 3.7 C 0 km/h
1996 15-11-2007 15:22:02 3.6 C 3.9 g/m*3 3.6 C 0 km/h
1997 15-11-2007 15:34:02 3.6 C 3.9 g/m*3 3.6 C 0 km/h
1998 15-11-2007 15:46:03 3.2 C 3.86 g/m*3 3.2 C 0 km/h
1999 15-11-2007 15:58:03 3.2 C 3.98 g/m*3 3.2 C 0 km/h
2000 15-11-2007 16:10:03 3.2 C 4.04 g/m*3 3.2 C 0 km/h
Sensor: Nr:Datum:Temp:Abs-Feuchte:Windchill:Wind:
Aussen-T/F 2001 15-11-2007 16:22:03 3 C 3.98 g/m*3 3 C 0 km/h
2002 15-11-2007 16:34:03 2.9 C 4.07 g/m*3 2.9 C 0 km/h
2003 15-11-2007 16:46:02 2.8 C 4.11 g/m*3 2.8 C 0 km/h
2004 15-11-2007 16:58:02 2.8 C 4.11 g/m*3 2.8 C 0 km/h
2005 15-11-2007 17:10:02 2.9 C 3.78 g/m*3 2.9 C 0 km/h
2006 15-11-2007 17:22:02 2.9 C 3.48 g/m*3 2.9 C 0 km/h
2007 15-11-2007 17:34:03 2.9 C 3.43 g/m*3 2.9 C 0 km/h
2008 15-11-2007 17:46:02 2.6 C 3.36 g/m*3 2.6 C 0 km/h
2009 15-11-2007 17:58:02 2.1 C 3.36 g/m*3 2.1 C 0 km/h
2010 15-11-2007 18:10:02 1.5 C 3.44 g/m*3 1.5 C 0 km/h
2011 15-11-2007 18:22:03 0.8 C 3.58 g/m*3 0.8 C 0 km/h
2012 15-11-2007 18:34:03 0.5 C 3.61 g/m*3 0.5 C 0 km/h
2013 15-11-2007 18:46:01 0.4 C 3.64 g/m*3 0.4 C 0 km/h
2014 15-11-2007 18:58:01 0.4 C 3.69 g/m*3 0.4 C 0 km/h
2015 15-11-2007 19:10:01 0.2 C 3.64 g/m*3 0.2 C 0 km/h
2016 15-11-2007 19:22:02 0.1 C 3.66 g/m*3 0.1 C 0 km/h
2017 15-11-2007 19:34:02 0 C 3.63 g/m*3 0 C 0 km/h
2018 15-11-2007 19:46:03 -0.1 C 3.66 g/m*3 -0.1 C 0 km/h
2019 15-11-2007 19:58:03 0.2 C 3.78 g/m*3 0.2 C 0 km/h
2020 15-11-2007 20:10:02 0.3 C 3.81 g/m*3 0.3 C 0 km/h
2021 15-11-2007 20:22:02 0.5 C 3.81 g/m*3 0.5 C 0 km/h
2022 15-11-2007 20:34:02 0.5 C 3.81 g/m*3 0.5 C 0 km/h
2023 15-11-2007 20:46:02 0.4 C 3.74 g/m*3 0.4 C 0 km/h
2024 15-11-2007 20:58:03 0.1 C 3.66 g/m*3 0.1 C 0 km/h
2025 15-11-2007 21:10:02 0 C 3.68 g/m*3 0 C 0 km/h
Sensor: Nr:Datum:Temp:Abs-Feuchte:Windchill:Wind:
Aussen-T/F 2026 15-11-2007 21:22:02 0.3 C 3.81 g/m*3 0.3 C 0 km/h
2027 15-11-2007 21:34:02 0.3 C 3.81 g/m*3 0.3 C 0 km/h
2028 15-11-2007 21:46:01 0.2 C 3.73 g/m*3 0.2 C 0 km/h
2029 15-11-2007 21:58:01 0 C 3.68 g/m*3 0 C 0 km/h
2030 15-11-2007 22:10:02 -0.2 C 3.63 g/m*3 -0.2 C 0 km/h
2031 15-11-2007 22:22:02 -0.5 C 3.6 g/m*3 -0.5 C 0 km/h
2032 15-11-2007 22:34:02 -0.7 C 3.6 g/m*3 -0.7 C 0 km/h
2033 15-11-2007 22:46:02 -0.8 C 3.62 g/m*3 -0.8 C 0 km/h
2034 15-11-2007 22:58:03 -0.9 C 3.64 g/m*3 -0.9 C 0 km/h
2035 15-11-2007 23:10:02 -1.1 C 3.59 g/m*3 -1.1 C 0 km/h
2036 15-11-2007 23:22:02 -1.3 C 3.59 g/m*3 -1.3 C 0 km/h
2037 15-11-2007 23:34:01 -1.6 C 3.55 g/m*3 -1.6 C 0 km/h
2038 15-11-2007 23:46:03 -1.8 C 3.51 g/m*3 -1.8 C 0 km/h
2039 15-11-2007 23:58:03 -1.8 C 3.55 g/m*3 -1.8 C 0 km/h
2040 16-11-2007 00:10:02 -2.1 C 3.47 g/m*3 -2.1 C 0 km/h
2041 16-11-2007 00:22:03 -1.9 C 3.61 g/m*3 -1.9 C 0 km/h
2042 16-11-2007 00:34:02 -1.6 C 3.73 g/m*3 -1.6 C 0 km/h
2043 16-11-2007 00:46:02 -1.6 C 3.77 g/m*3 -1.6 C 0 km/h
2044 16-11-2007 00:58:02 -1.8 C 3.72 g/m*3 -1.8 C 0 km/h
2045 16-11-2007 01:10:02 -2 C 3.67 g/m*3 -2 C 0 km/h
2046 16-11-2007 01:22:02 -2 C 3.67 g/m*3 -2 C 0 km/h
2047 16-11-2007 01:34:02 -1.9 C 3.69 g/m*3 -1.9 C 0 km/h
2048 16-11-2007 01:46:02 -2.1 C 3.64 g/m*3 -2.1 C 0 km/h
2049 16-11-2007 01:58:02 -2.1 C 3.68 g/m*3 -2.1 C 0 km/h
2050 16-11-2007 02:10:02 -2.3 C 3.63 g/m*3 -2.3 C 0 km/h
Sensor: Nr:Datum:Temp:Abs-Feuchte:Windchill:Wind:
Aussen-T/F 2051 16-11-2007 02:22:02 -2.3 C 3.63 g/m*3 -2.3 C 0 km/h
2052 16-11-2007 02:34:02 -2.4 C 3.65 g/m*3 -2.4 C 0 km/h
2053 16-11-2007 02:47:04 -2.5 C 3.62 g/m*3 -2.5 C 0 km/h
2054 16-11-2007 02:59:04 -2.6 C 3.6 g/m*3 -2.6 C 0 km/h
2055 16-11-2007 03:11:04 -2.6 C 3.6 g/m*3 -2.6 C 0 km/h
2056 16-11-2007 03:23:04 -2.7 C 3.57 g/m*3 -2.7 C 0 km/h
2057 16-11-2007 03:35:02 -2.7 C 3.61 g/m*3 -2.7 C 0 km/h
2058 16-11-2007 03:47:02 -3 C 3.54 g/m*3 -3 C 0 km/h
2059 16-11-2007 03:59:02 -2.9 C 3.56 g/m*3 -2.9 C 0 km/h
2060 16-11-2007 04:11:02 -2.8 C 3.59 g/m*3 -2.8 C 0 km/h
2061 16-11-2007 04:23:03 -3 C 3.54 g/m*3 -3 C 0 km/h
2062 16-11-2007 04:35:02 -3 C 3.54 g/m*3 -3 C 0 km/h
2063 16-11-2007 04:47:03 -3.1 C 3.55 g/m*3 -3.1 C 0 km/h
2064 16-11-2007 04:59:03 -3.3 C 3.5 g/m*3 -3.3 C 0 km/h
2065 16-11-2007 05:11:02 -3.4 C 3.47 g/m*3 -3.4 C 0 km/h
2066 16-11-2007 05:23:02 -3.4 C 3.47 g/m*3 -3.4 C 0 km/h
2067 16-11-2007 05:35:02 -3.5 C 3.45 g/m*3 -3.5 C 0 km/h
2068 16-11-2007 05:47:02 -3.6 C 3.43 g/m*3 -3.6 C 0 km/h
2069 16-11-2007 05:59:02 -3.6 C 3.43 g/m*3 -3.6 C 0 km/h
2070 16-11-2007 06:11:02 -3.5 C 3.49 g/m*3 -3.5 C 0 km/h
2071 16-11-2007 06:23:02 -3.5 C 3.49 g/m*3 -3.5 C 0 km/h
2072 16-11-2007 06:35:02 -3.6 C 3.46 g/m*3 -3.6 C 0 km/h
2073 16-11-2007 06:47:02 -3.7 C 3.4 g/m*3 -3.7 C 0 km/h
2074 16-11-2007 06:59:03 -4 C 3.33 g/m*3 -4 C 0 km/h
2075 16-11-2007 07:11:02 -3.9 C 3.35 g/m*3 -3.9 C 0 km/h
Sensor: Nr:Datum:Temp:Abs-Feuchte:Windchill:Wind:
Aussen-T/F 2076 16-11-2007 07:23:02 -3.9 C 3.35 g/m*3 -3.9 C 0 km/h
2077 16-11-2007 07:35:02 -3.9 C 3.35 g/m*3 -3.9 C 0 km/h
2078 16-11-2007 07:47:02 -3.8 C 3.38 g/m*3 -3.8 C 0 km/h
2079 16-11-2007 07:59:02 -3.8 C 3.38 g/m*3 -3.8 C 0 km/h
2080 16-11-2007 08:11:02 -3.8 C 3.38 g/m*3 -3.8 C 0 km/h
2081 16-11-2007 08:23:02 -3.5 C 3.49 g/m*3 -3.5 C 0 km/h
2082 16-11-2007 08:35:02 -3.5 C 3.49 g/m*3 -3.5 C 0 km/h
2083 16-11-2007 08:47:02 -3.4 C 3.47 g/m*3 -3.4 C 0 km/h
2084 16-11-2007 08:59:02 -3.1 C 3.55 g/m*3 -3.1 C 0 km/h
2085 16-11-2007 09:11:01 -2.9 C 3.6 g/m*3 -2.9 C 0 km/h
2086 16-11-2007 09:23:01 -2.6 C 3.72 g/m*3 -2.6 C 0 km/h
2087 16-11-2007 09:35:01 -2.7 C 3.65 g/m*3 -2.7 C 0 km/h
2088 16-11-2007 09:47:02 -2.9 C 3.6 g/m*3 -2.9 C 0 km/h
2089 16-11-2007 09:59:02 -2.7 C 3.65 g/m*3 -2.7 C 0 km/h
2090 16-11-2007 10:11:02 -2.6 C 3.64 g/m*3 -2.6 C 0 km/h
2091 16-11-2007 10:23:02 -2.3 C 3.71 g/m*3 -2.3 C 0 km/h
2092 16-11-2007 10:35:02 -1.7 C 3.83 g/m*3 -1.7 C 0 km/h
2093 16-11-2007 10:47:02 -1.3 C 3.94 g/m*3 -1.3 C 0 km/h
2094 16-11-2007 10:59:02 -1 C 3.98 g/m*3 -1 C 0 km/h
2095 16-11-2007 11:11:02 -0.7 C 3.97 g/m*3 -0.7 C 0 km/h
2096 16-11-2007 11:23:02 -0.7 C 3.83 g/m*3 -0.7 C 0 km/h
2097 16-11-2007 11:35:02 -0.5 C 3.88 g/m*3 -0.5 C 0 km/h
2098 16-11-2007 11:47:02 -0.3 C 3.94 g/m*3 -0.3 C 0 km/h
2099 16-11-2007 11:59:02 -0.2 C 3.87 g/m*3 -0.2 C 0 km/h
2100 16-11-2007 12:11:02 0.1 C 3.95 g/m*3 0.1 C 0 km/h
Sensor: Nr:Datum:Temp:Abs-Feuchte:Windchill:Wind:
Aussen-T/F 2101 16-11-2007 12:23:02 0.5 C 4.01 g/m*3 0.5 C 0 km/h
2102 16-11-2007 12:35:02 0.9 C 3.97 g/m*3 0.9 C 0 km/h
2103 16-11-2007 12:47:02 1.1 C 3.97 g/m*3 1.1 C 0 km/h
2104 16-11-2007 12:59:02 1.8 C 4.06 g/m*3 1.8 C 0 km/h
2105 16-11-2007 13:11:02 1.5 C 3.71 g/m*3 1.5 C 0 km/h
2106 16-11-2007 13:23:02 1.8 C 3.89 g/m*3 1.8 C 0 km/h
2107 16-11-2007 13:35:02 1.9 C 3.81 g/m*3 1.9 C 0 km/h
2108 16-11-2007 13:47:02 2.2 C 3.89 g/m*3 2.2 C 0 km/h
2109 16-11-2007 13:59:02 2.7 C 4.02 g/m*3 2.7 C 0 km/h
2110 16-11-2007 14:11:02 2.7 C 3.96 g/m*3 2.7 C 0 km/h
2111 16-11-2007 14:23:02 2.6 C 3.88 g/m*3 2.6 C 0 km/h
2112 16-11-2007 14:35:02 3.3 C 4.06 g/m*3 3.3 C 0 km/h
2113 16-11-2007 14:47:02 3.3 C 3.82 g/m*3 3.3 C 0 km/h
2114 16-11-2007 14:59:02 3.2 C 3.92 g/m*3 3.2 C 0 km/h
2115 16-11-2007 15:11:02 3 C 3.81 g/m*3 3 C 0 km/h
2116 16-11-2007 15:23:02 2.9 C 3.9 g/m*3 2.9 C 0 km/h
2117 16-11-2007 15:35:02 2.7 C 3.9 g/m*3 2.7 C 0 km/h
2118 16-11-2007 15:47:02 2.5 C 3.97 g/m*3 2.5 C 0 km/h
2119 16-11-2007 15:59:02 2.5 C 4.02 g/m*3 2.5 C 0 km/h
2120 16-11-2007 16:11:02 2.3 C 4.03 g/m*3 2.3 C 0 km/h
2121 16-11-2007 16:23:02 2.1 C 4.03 g/m*3 2.1 C 0 km/h
2122 16-11-2007 16:35:02 2 C 4.06 g/m*3 2 C 0 km/h
2123 16-11-2007 16:47:03 1.6 C 4.06 g/m*3 1.6 C 0 km/h
2124 16-11-2007 16:59:03 1.5 C 4.08 g/m*3 1.5 C 0 km/h
2125 16-11-2007 17:11:02 1.5 C 4.08 g/m*3 1.5 C 0 km/h
Sensor: Nr:Datum:Temp:Abs-Feuchte:Windchill:Wind:
Aussen-T/F 2126 16-11-2007 17:23:02 1.4 C 4.11 g/m*3 1.4 C 0 km/h
2127 16-11-2007 17:35:02 1.4 C 4.11 g/m*3 1.4 C 0 km/h
2128 16-11-2007 17:47:02 1.3 C 4.08 g/m*3 1.3 C 0 km/h
2129 16-11-2007 17:59:02 1.2 C 4.05 g/m*3 1.2 C 0 km/h
2130 16-11-2007 18:11:02 1.1 C 4.08 g/m*3 1.1 C 0 km/h
2131 16-11-2007 18:23:02 1.1 C 4.08 g/m*3 1.1 C 0 km/h
2132 16-11-2007 18:35:03 1 C 4.05 g/m*3 1 C 0 km/h
2133 16-11-2007 18:47:03 1 C 4.1 g/m*3 1 C 0 km/h
2134 16-11-2007 18:59:03 1 C 4.1 g/m*3 1 C 0 km/h
2135 16-11-2007 19:11:02 0.9 C 4.12 g/m*3 0.9 C 0 km/h
2136 16-11-2007 19:23:03 0.9 C 4.12 g/m*3 0.9 C 0 km/h
2137 16-11-2007 19:35:03 0.9 C 4.12 g/m*3 0.9 C 0 km/h
2138 16-11-2007 19:47:03 0.7 C 4.07 g/m*3 0.7 C 0 km/h
2139 16-11-2007 19:59:03 0.7 C 4.12 g/m*3 0.7 C 0 km/h
2140 16-11-2007 20:11:03 0.7 C 4.12 g/m*3 0.7 C 0 km/h
2141 16-11-2007 20:23:02 0.7 C 4.17 g/m*3 0.7 C 0 km/h
2142 16-11-2007 20:35:02 0.8 C 4.15 g/m*3 0.8 C 0 km/h
2143 16-11-2007 20:47:02 1 C 4.15 g/m*3 1 C 0 km/h
2144 16-11-2007 20:59:02 1 C 4.1 g/m*3 1 C 0 km/h
2145 16-11-2007 21:11:02 1 C 4.1 g/m*3 1 C 0 km/h
2146 16-11-2007 21:23:02 1 C 4.1 g/m*3 1 C 0 km/h
2147 16-11-2007 21:35:02 1 C 4.1 g/m*3 1 C 0 km/h
2148 16-11-2007 21:47:02 0.9 C 4.12 g/m*3 0.9 C 0 km/h
2149 16-11-2007 21:59:02 0.9 C 4.18 g/m*3 0.9 C 0 km/h
2150 16-11-2007 22:11:02 0.8 C 4.2 g/m*3 0.8 C 0 km/h
Sensor: Nr:Datum:Temp:Abs-Feuchte:Windchill:Wind:
Aussen-T/F 2151 16-11-2007 22:23:02 0.8 C 4.2 g/m*3 0.8 C 0 km/h
2152 16-11-2007 22:35:02 0.9 C 4.23 g/m*3 0.9 C 0 km/h
2153 16-11-2007 22:47:01 0.9 C 4.18 g/m*3 0.9 C 0 km/h
2154 16-11-2007 22:59:01 0.9 C 4.18 g/m*3 0.9 C 0 km/h
2155 16-11-2007 23:11:01 1 C 4.15 g/m*3 1 C 0 km/h
2156 16-11-2007 23:23:01 0.9 C 4.18 g/m*3 0.9 C 0 km/h
2157 16-11-2007 23:35:01 0.9 C 4.18 g/m*3 0.9 C 0 km/h
2158 16-11-2007 23:47:02 0.9 C 4.18 g/m*3 0.9 C 0 km/h
2159 16-11-2007 23:59:02 1 C 4.2 g/m*3 1 C 0 km/h
2160 17-11-2007 00:11:02 1 C 4.2 g/m*3 1 C 0 km/h
2161 17-11-2007 00:23:03 1 C 4.2 g/m*3 1 C 0 km/h
2162 17-11-2007 00:35:02 1.1 C 4.18 g/m*3 1.1 C 0 km/h
2163 17-11-2007 00:47:02 1.1 C 4.18 g/m*3 1.1 C 0 km/h
2164 17-11-2007 00:59:02 1.1 C 4.18 g/m*3 1.1 C 0 km/h
2165 17-11-2007 01:11:02 1.2 C 4.21 g/m*3 1.2 C 0 km/h
2166 17-11-2007 01:23:01 1.2 C 4.21 g/m*3 1.2 C 0 km/h
2167 17-11-2007 01:35:01 1.3 C 4.19 g/m*3 1.3 C 0 km/h
2168 17-11-2007 01:47:02 1.4 C 4.21 g/m*3 1.4 C 0 km/h
2169 17-11-2007 01:59:02 1.4 C 4.21 g/m*3 1.4 C 0 km/h
2170 17-11-2007 02:11:02 1.4 C 4.16 g/m*3 1.4 C 0 km/h
2171 17-11-2007 02:23:02 1.5 C 4.14 g/m*3 1.5 C 0 km/h
2172 17-11-2007 02:35:02 1.5 C 4.14 g/m*3 1.5 C 0 km/h
2173 17-11-2007 02:48:03 1.5 C 4.14 g/m*3 1.5 C 0 km/h
2174 17-11-2007 03:00:04 1.5 C 4.19 g/m*3 1.5 C 0 km/h
2175 17-11-2007 03:12:04 1.5 C 4.19 g/m*3 1.5 C 0 km/h
Sensor: Nr:Datum:Temp:Abs-Feuchte:Windchill:Wind:
Aussen-T/F 2176 17-11-2007 03:24:04 1.6 C 4.16 g/m*3 1.6 C 0 km/h
2177 17-11-2007 03:36:02 1.6 C 4.22 g/m*3 1.6 C 0 km/h
2178 17-11-2007 03:48:02 1.7 C 4.14 g/m*3 1.7 C 0 km/h
2179 17-11-2007 04:00:02 1.7 C 4.19 g/m*3 1.7 C 0 km/h
2180 17-11-2007 04:12:02 1.7 C 4.14 g/m*3 1.7 C 0 km/h
2181 17-11-2007 04:24:02 1.7 C 4.19 g/m*3 1.7 C 0 km/h
2182 17-11-2007 04:36:02 1.7 C 4.19 g/m*3 1.7 C 0 km/h
2183 17-11-2007 04:48:02 1.7 C 4.19 g/m*3 1.7 C 0 km/h
2184 17-11-2007 05:00:02 1.9 C 4.3 g/m*3 1.9 C 0 km/h
2185 17-11-2007 05:12:01 1.9 C 4.3 g/m*3 1.9 C 0 km/h
2186 17-11-2007 05:24:01 1.9 C 4.25 g/m*3 1.9 C 0 km/h
2187 17-11-2007 05:36:01 1.8 C 4.28 g/m*3 1.8 C 0 km/h
2188 17-11-2007 05:48:02 1.8 C 4.28 g/m*3 1.8 C 0 km/h
2189 17-11-2007 06:00:02 1.9 C 4.3 g/m*3 1.9 C 0 km/h
2190 17-11-2007 06:12:02 1.9 C 4.3 g/m*3 1.9 C 0 km/h
2191 17-11-2007 06:24:02 1.9 C 4.36 g/m*3 1.9 C 0 km/h
2192 17-11-2007 06:36:02 1.9 C 4.36 g/m*3 1.9 C 0 km/h
2193 17-11-2007 06:48:03 1.9 C 4.36 g/m*3 1.9 C 0 km/h
2194 17-11-2007 07:00:03 1.9 C 4.36 g/m*3 1.9 C 0 km/h
2195 17-11-2007 07:12:02 1.9 C 4.36 g/m*3 1.9 C 0 km/h
2196 17-11-2007 07:24:02 1.9 C 4.36 g/m*3 1.9 C 0 km/h
2197 17-11-2007 07:36:02 1.9 C 4.36 g/m*3 1.9 C 0 km/h
2198 17-11-2007 07:48:02 1.9 C 4.36 g/m*3 1.9 C 0 km/h
2199 17-11-2007 08:00:02 2 C 4.39 g/m*3 2 C 0 km/h
2200 17-11-2007 08:12:02 2 C 4.39 g/m*3 2 C 0 km/h
Sensor: Nr:Datum:Temp:Abs-Feuchte:Windchill:Wind:
Aussen-T/F 2201 17-11-2007 08:24:02 2.1 C 4.42 g/m*3 2.1 C 0 km/h
2202 17-11-2007 08:36:02 2.2 C 4.45 g/m*3 2.2 C 0 km/h
2203 17-11-2007 08:48:03 2.2 C 4.45 g/m*3 2.2 C 0 km/h
2204 17-11-2007 09:00:03 2.2 C 4.45 g/m*3 2.2 C 0 km/h
2205 17-11-2007 09:12:02 2.3 C 4.48 g/m*3 2.3 C 0 km/h
2206 17-11-2007 09:24:02 2.3 C 4.42 g/m*3 2.3 C 0 km/h
2207 17-11-2007 09:36:02 2.4 C 4.4 g/m*3 2.4 C 0 km/h
2208 17-11-2007 09:48:02 2.6 C 4.46 g/m*3 2.6 C 0 km/h
2209 17-11-2007 10:00:02 2.7 C 4.49 g/m*3 2.7 C 0 km/h
2210 17-11-2007 10:12:02 2.7 C 4.49 g/m*3 2.7 C 0 km/h
2211 17-11-2007 10:24:02 3 C 4.46 g/m*3 3 C 0 km/h
2212 17-11-2007 10:36:02 3.1 C 4.43 g/m*3 3.1 C 0 km/h
2213 17-11-2007 10:48:02 3.2 C 4.4 g/m*3 3.2 C 0 km/h
2214 17-11-2007 11:00:02 3.3 C 4.43 g/m*3 3.3 C 0 km/h
2215 17-11-2007 11:12:02 3.4 C 4.46 g/m*3 3.4 C 0 km/h
2216 17-11-2007 11:24:02 3.7 C 4.49 g/m*3 3.7 C 0 km/h
2217 17-11-2007 11:36:02 4.1 C 4.48 g/m*3 4.1 C 0 km/h
2218 17-11-2007 11:48:03 4.2 C 4.51 g/m*3 4.2 C 0 km/h
2219 17-11-2007 12:00:03 4.2 C 4.45 g/m*3 4.2 C 0 km/h
2220 17-11-2007 12:12:03 4.4 C 4.51 g/m*3 4.4 C 0 km/h
2221 17-11-2007 12:24:03 4.7 C 4.6 g/m*3 4.7 C 0 km/h
2222 17-11-2007 12:36:03 5.1 C 4.65 g/m*3 5.1 C 0 km/h
2223 17-11-2007 12:48:02 5.4 C 4.67 g/m*3 5.4 C 0 km/h
2224 17-11-2007 13:00:02 5.5 C 4.71 g/m*3 5.5 C 0 km/h
2225 17-11-2007 13:12:02 5.5 C 4.64 g/m*3 5.5 C 0 km/h
Sensor: Nr:Datum:Temp:Abs-Feuchte:Windchill:Wind:
Aussen-T/F 2226 17-11-2007 13:24:02 5.6 C 4.81 g/m*3 5.6 C 0 km/h
2227 17-11-2007 13:36:02 5.7 C 4.77 g/m*3 5.7 C 0 km/h
2228 17-11-2007 13:48:02 6 C 4.86 g/m*3 6 C 0 km/h
2229 17-11-2007 14:00:02 6.3 C 4.96 g/m*3 6.3 C 0 km/h
2230 17-11-2007 14:12:02 6.6 C 4.98 g/m*3 6.6 C 0 km/h
2231 17-11-2007 14:24:02 6.6 C 4.98 g/m*3 6.6 C 0 km/h
2232 17-11-2007 14:36:02 6.5 C 4.95 g/m*3 6.5 C 0 km/h
2233 17-11-2007 14:48:03 6.3 C 4.96 g/m*3 6.3 C 0 km/h
2234 17-11-2007 15:00:03 6.3 C 5.03 g/m*3 6.3 C 0 km/h
2235 17-11-2007 15:12:03 6.3 C 5.03 g/m*3 6.3 C 0 km/h
2236 17-11-2007 15:24:03 6.2 C 5 g/m*3 6.2 C 0 km/h
2237 17-11-2007 15:36:03 6.2 C 5.07 g/m*3 6.2 C 0 km/h
2238 17-11-2007 15:48:01 6 C 5.01 g/m*3 6 C 0 km/h
2239 17-11-2007 16:00:01 5.9 C 5.05 g/m*3 5.9 C 0 km/h
2240 17-11-2007 16:12:01 5.6 C 5.02 g/m*3 5.6 C 0 km/h
2241 17-11-2007 16:24:01 5.4 C 5.02 g/m*3 5.4 C 0 km/h
2242 17-11-2007 16:36:01 5.3 C 5.13 g/m*3 5.3 C 0 km/h
2243 17-11-2007 16:48:03 5 C 5.1 g/m*3 5 C 0 km/h
2244 17-11-2007 17:00:03 4.8 C 5.16 g/m*3 4.8 C 0 km/h
2245 17-11-2007 17:12:03 4.7 C 5.13 g/m*3 4.7 C 0 km/h
2246 17-11-2007 17:24:02 4.6 C 5.16 g/m*3 4.6 C 0 km/h
2247 17-11-2007 17:36:02 4.5 C 5.13 g/m*3 4.5 C 0 km/h
2248 17-11-2007 17:48:02 4.4 C 5.16 g/m*3 4.4 C 0 km/h
2249 17-11-2007 18:00:02 4.3 C 5.12 g/m*3 4.3 C 0 km/h
2250 17-11-2007 18:12:02 4.3 C 5.19 g/m*3 4.3 C 0 km/h
Sensor: Nr:Datum:Temp:Abs-Feuchte:Windchill:Wind:
Aussen-T/F 2251 17-11-2007 18:24:01 4.2 C 5.15 g/m*3 4.2 C 0 km/h
2252 17-11-2007 18:36:02 4.2 C 5.15 g/m*3 4.2 C 0 km/h
2253 17-11-2007 18:48:02 4.2 C 5.15 g/m*3 4.2 C 0 km/h
2254 17-11-2007 19:00:02 4.1 C 5.12 g/m*3 4.1 C 0 km/h
2255 17-11-2007 19:12:02 4 C 5.15 g/m*3 4 C 0 km/h
2256 17-11-2007 19:24:02 4 C 5.15 g/m*3 4 C 0 km/h
2257 17-11-2007 19:36:02 4 C 5.15 g/m*3 4 C 0 km/h
2258 17-11-2007 19:48:02 4.3 C 5.25 g/m*3 4.3 C 0 km/h
2259 17-11-2007 20:00:02 4.1 C 5.18 g/m*3 4.1 C 0 km/h
2260 17-11-2007 20:12:02 4.3 C 5.25 g/m*3 4.3 C 0 km/h
2261 17-11-2007 20:24:02 4 C 5.15 g/m*3 4 C 0 km/h
2262 17-11-2007 20:36:02 4 C 5.15 g/m*3 4 C 0 km/h
2263 17-11-2007 20:48:02 3.9 C 5.18 g/m*3 3.9 C 0 km/h
2264 17-11-2007 21:00:02 4.4 C 5.35 g/m*3 4.4 C 0 km/h
2265 17-11-2007 21:12:02 3.8 C 5.21 g/m*3 3.8 C 0 km/h
2266 17-11-2007 21:24:03 3.7 C 5.17 g/m*3 3.7 C 0 km/h
2267 17-11-2007 21:36:03 3.7 C 5.17 g/m*3 3.7 C 0 km/h
2268 17-11-2007 21:48:02 3.6 C 5.14 g/m*3 3.6 C 0 km/h
2269 17-11-2007 22:00:02 3.6 C 5.14 g/m*3 3.6 C 0 km/h
2270 17-11-2007 22:12:02 3.6 C 5.14 g/m*3 3.6 C 0 km/h
2271 17-11-2007 22:24:02 3.5 C 5.16 g/m*3 3.5 C 0 km/h
2272 17-11-2007 22:36:02 3.5 C 5.16 g/m*3 3.5 C 0 km/h
2273 17-11-2007 22:48:02 3.5 C 5.16 g/m*3 3.5 C 0 km/h
2274 17-11-2007 23:00:02 3.5 C 5.16 g/m*3 3.5 C 0 km/h
2275 17-11-2007 23:12:01 3.4 C 5.13 g/m*3 3.4 C 0 km/h
Sensor: Nr:Datum:Temp:Abs-Feuchte:Windchill:Wind:
Aussen-T/F 2276 17-11-2007 23:24:02 3.4 C 5.13 g/m*3 3.4 C 0 km/h
2277 17-11-2007 23:36:02 3.4 C 5.19 g/m*3 3.4 C 0 km/h
2278 17-11-2007 23:48:02 3.3 C 5.1 g/m*3 3.3 C 0 km/h
2279 18-11-2007 00:00:02 3.3 C 5.1 g/m*3 3.3 C 0 km/h
2280 18-11-2007 00:12:03 3.3 C 5.16 g/m*3 3.3 C 0 km/h
2281 18-11-2007 00:24:03 3.2 C 5.12 g/m*3 3.2 C 0 km/h
2282 18-11-2007 00:36:02 3.2 C 5.12 g/m*3 3.2 C 0 km/h
2283 18-11-2007 00:48:02 3.1 C 5.09 g/m*3 3.1 C 0 km/h
2284 18-11-2007 01:00:02 3.1 C 5.15 g/m*3 3.1 C 0 km/h
2285 18-11-2007 01:12:02 3.2 C 5.18 g/m*3 3.2 C 0 km/h
2286 18-11-2007 01:24:02 3.2 C 5.18 g/m*3 3.2 C 0 km/h
2287 18-11-2007 01:36:02 3.2 C 5.18 g/m*3 3.2 C 0 km/h
2288 18-11-2007 01:48:01 3.2 C 5.12 g/m*3 3.2 C 0 km/h
2289 18-11-2007 02:00:01 3.1 C 5.09 g/m*3 3.1 C 0 km/h
2290 18-11-2007 02:12:02 3.1 C 5.09 g/m*3 3.1 C 0 km/h
2291 18-11-2007 02:24:02 3 C 5.05 g/m*3 3 C 0 km/h
2292 18-11-2007 02:36:02 3 C 5.05 g/m*3 3 C 0 km/h
2293 18-11-2007 02:49:04 2.9 C 5.08 g/m*3 2.9 C 0 km/h
2294 18-11-2007 03:01:04 2.9 C 5.08 g/m*3 2.9 C 0 km/h
2295 18-11-2007 03:13:04 2.8 C 5.04 g/m*3 2.8 C 0 km/h
2296 18-11-2007 03:25:04 2.8 C 5.04 g/m*3 2.8 C 0 km/h
2297 18-11-2007 03:37:01 2.7 C 5.01 g/m*3 2.7 C 0 km/h
2298 18-11-2007 03:49:01 2.7 C 5.07 g/m*3 2.7 C 0 km/h
2299 18-11-2007 04:01:01 2.7 C 5.07 g/m*3 2.7 C 0 km/h
2300 18-11-2007 04:13:01 2.7 C 5.07 g/m*3 2.7 C 0 km/h
Sensor: Nr:Datum:Temp:Abs-Feuchte:Windchill:Wind:
Aussen-T/F 2301 18-11-2007 04:25:01 2.6 C 5.03 g/m*3 2.6 C 0 km/h
2302 18-11-2007 04:37:01 2.6 C 5.03 g/m*3 2.6 C 0 km/h
2303 18-11-2007 04:49:02 2.6 C 5.03 g/m*3 2.6 C 0 km/h
2304 18-11-2007 05:01:02 2.6 C 5.03 g/m*3 2.6 C 0 km/h
2305 18-11-2007 05:13:02 2.5 C 5 g/m*3 2.5 C 0 km/h
2306 18-11-2007 05:25:03 2.6 C 5.03 g/m*3 2.6 C 0 km/h
2307 18-11-2007 05:37:03 2.5 C 5 g/m*3 2.5 C 0 km/h
2308 18-11-2007 05:49:02 2.6 C 5.03 g/m*3 2.6 C 0 km/h
2309 18-11-2007 06:01:02 2.6 C 5.03 g/m*3 2.6 C 0 km/h
2310 18-11-2007 06:13:02 2.6 C 5.03 g/m*3 2.6 C 0 km/h
2311 18-11-2007 06:25:03 2.6 C 5.03 g/m*3 2.6 C 0 km/h
2312 18-11-2007 06:37:03 2.7 C 5.07 g/m*3 2.7 C 0 km/h
2313 18-11-2007 06:49:02 2.7 C 5.07 g/m*3 2.7 C 0 km/h
2314 18-11-2007 07:01:02 2.7 C 5.13 g/m*3 2.7 C 0 km/h
2315 18-11-2007 07:13:02 2.7 C 5.13 g/m*3 2.7 C 0 km/h
2316 18-11-2007 07:25:02 2.7 C 5.13 g/m*3 2.7 C 0 km/h
2317 18-11-2007 07:37:02 2.7 C 5.13 g/m*3 2.7 C 0 km/h
2318 18-11-2007 07:49:02 2.7 C 5.13 g/m*3 2.7 C 0 km/h
2319 18-11-2007 08:01:02 2.7 C 5.13 g/m*3 2.7 C 0 km/h
2320 18-11-2007 08:13:02 2.8 C 5.16 g/m*3 2.8 C 0 km/h
2321 18-11-2007 08:25:01 3 C 5.17 g/m*3 3 C 0 km/h
2322 18-11-2007 08:37:01 3.1 C 5.21 g/m*3 3.1 C 0 km/h
2323 18-11-2007 08:49:02 3.2 C 5.3 g/m*3 3.2 C 0 km/h
2324 18-11-2007 09:01:02 3.4 C 5.37 g/m*3 3.4 C 0 km/h
2325 18-11-2007 09:13:02 3.4 C 5.31 g/m*3 3.4 C 0 km/h
Sensor: Nr:Datum:Temp:Abs-Feuchte:Windchill:Wind:
Aussen-T/F 2326 18-11-2007 09:25:02 3.5 C 5.35 g/m*3 3.5 C 0 km/h
2327 18-11-2007 09:37:02 3.7 C 5.42 g/m*3 3.7 C 0 km/h
2328 18-11-2007 09:49:02 3.8 C 5.46 g/m*3 3.8 C 0 km/h
2329 18-11-2007 10:01:02 4 C 5.47 g/m*3 4 C 0 km/h
2330 18-11-2007 10:13:02 4.2 C 5.48 g/m*3 4.2 C 0 km/h
2331 18-11-2007 10:25:02 4.2 C 5.41 g/m*3 4.2 C 0 km/h
2332 18-11-2007 10:37:02 4.3 C 5.38 g/m*3 4.3 C 0 km/h
2333 18-11-2007 10:49:04 4.3 C 5.38 g/m*3 4.3 C 0 km/h
2334 18-11-2007 11:01:02 4.5 C 5.46 g/m*3 4.5 C 0 km/h
2335 18-11-2007 11:13:02 4.8 C 5.5 g/m*3 4.8 C 0 km/h
2336 18-11-2007 11:25:05 5.4 C 5.51 g/m*3 5.4 C 0 km/h
2337 18-11-2007 11:37:03 5.7 C 5.55 g/m*3 5.7 C 0 km/h
2338 18-11-2007 11:49:02 6 C 5.23 g/m*3 6 C 0 km/h
2339 18-11-2007 12:01:02 6.1 C 5.04 g/m*3 6.1 C 0 km/h
2340 18-11-2007 12:13:02 5.9 C 4.98 g/m*3 5.9 C 0 km/h
2341 18-11-2007 12:25:01 6 C 4.86 g/m*3 6 C 0 km/h
2342 18-11-2007 12:37:01 5.9 C 4.83 g/m*3 5.9 C 0 km/h
2343 18-11-2007 12:49:02 5.8 C 4.8 g/m*3 5.8 C 0 km/h
2344 18-11-2007 13:01:01 5.7 C 4.84 g/m*3 5.7 C 0 km/h
2345 18-11-2007 13:13:01 5.8 C 4.87 g/m*3 5.8 C 0 km/h
2346 18-11-2007 13:25:01 5.7 C 4.84 g/m*3 5.7 C 0 km/h
2347 18-11-2007 13:37:02 5.7 C 4.91 g/m*3 5.7 C 0 km/h
2348 18-11-2007 13:49:02 5.7 C 4.91 g/m*3 5.7 C 0 km/h
2349 18-11-2007 14:01:02 5.8 C 4.94 g/m*3 5.8 C 0 km/h
2350 18-11-2007 14:13:02 5.9 C 4.98 g/m*3 5.9 C 0 km/h
Sensor: Nr:Datum:Temp:Abs-Feuchte:Windchill:Wind:
Aussen-T/F 2351 18-11-2007 14:25:02 6 C 4.86 g/m*3 6 C 0 km/h
2352 18-11-2007 14:37:03 5.9 C 4.83 g/m*3 5.9 C 0 km/h
2353 18-11-2007 14:49:03 5.8 C 4.73 g/m*3 5.8 C 0 km/h
2354 18-11-2007 15:01:02 5.7 C 4.77 g/m*3 5.7 C 0 km/h
2355 18-11-2007 15:13:02 5.7 C 4.84 g/m*3 5.7 C 0 km/h
2356 18-11-2007 15:25:02 5.7 C 4.84 g/m*3 5.7 C 0 km/h
2357 18-11-2007 15:37:03 5.6 C 4.81 g/m*3 5.6 C 0 km/h
2358 18-11-2007 15:49:02 5.6 C 4.74 g/m*3 5.6 C 0 km/h
2359 18-11-2007 16:01:02 5.5 C 4.71 g/m*3 5.5 C 0 km/h
2360 18-11-2007 16:13:02 5.5 C 4.71 g/m*3 5.5 C 0 km/h
2361 18-11-2007 16:25:02 5.3 C 4.64 g/m*3 5.3 C 0 km/h
2362 18-11-2007 16:37:03 5 C 4.69 g/m*3 5 C 0 km/h
2363 18-11-2007 16:49:02 4.5 C 4.67 g/m*3 4.5 C 0 km/h
2364 18-11-2007 17:01:02 4.3 C 4.67 g/m*3 4.3 C 0 km/h
2365 18-11-2007 17:13:02 3.9 C 4.74 g/m*3 3.9 C 0 km/h
2366 18-11-2007 17:25:02 3.6 C 4.64 g/m*3 3.6 C 0 km/h
2367 18-11-2007 17:37:02 3.3 C 4.61 g/m*3 3.3 C 0 km/h
2368 18-11-2007 17:49:02 3.3 C 4.61 g/m*3 3.3 C 0 km/h
2369 18-11-2007 18:01:01 3.4 C 4.64 g/m*3 3.4 C 0 km/h
2370 18-11-2007 18:13:01 3.1 C 4.49 g/m*3 3.1 C 0 km/h
2371 18-11-2007 18:25:01 2.8 C 4.52 g/m*3 2.8 C 0 km/h
2372 18-11-2007 18:37:02 2.7 C 4.49 g/m*3 2.7 C 0 km/h
2373 18-11-2007 18:49:02 2.7 C 4.54 g/m*3 2.7 C 0 km/h
2374 18-11-2007 19:01:02 2.6 C 4.51 g/m*3 2.6 C 0 km/h
2375 18-11-2007 19:13:02 2.5 C 4.48 g/m*3 2.5 C 0 km/h
Sensor: Nr:Datum:Temp:Abs-Feuchte:Windchill:Wind:
Aussen-T/F 2376 18-11-2007 19:25:03 2.4 C 4.51 g/m*3 2.4 C 0 km/h
2377 18-11-2007 19:37:02 2.3 C 4.48 g/m*3 2.3 C 0 km/h
2378 18-11-2007 19:49:02 2.2 C 4.45 g/m*3 2.2 C 0 km/h
2379 18-11-2007 20:01:01 2.1 C 4.42 g/m*3 2.1 C 0 km/h
2380 18-11-2007 20:13:01 2 C 4.39 g/m*3 2 C 0 km/h
2381 18-11-2007 20:25:02 1.8 C 4.39 g/m*3 1.8 C 0 km/h
2382 18-11-2007 20:37:02 1.8 C 4.44 g/m*3 1.8 C 0 km/h
2383 18-11-2007 20:49:02 1.5 C 4.35 g/m*3 1.5 C 0 km/h
2384 18-11-2007 21:01:02 1.3 C 4.34 g/m*3 1.3 C 0 km/h
2385 18-11-2007 21:13:02 1.3 C 4.34 g/m*3 1.3 C 0 km/h
2386 18-11-2007 21:25:02 1.2 C 4.37 g/m*3 1.2 C 0 km/h
2387 18-11-2007 21:37:02 1.1 C 4.34 g/m*3 1.1 C 0 km/h
2388 18-11-2007 21:49:02 1.2 C 4.42 g/m*3 1.2 C 0 km/h
2389 18-11-2007 22:01:03 1.3 C 4.45 g/m*3 1.3 C 0 km/h
2390 18-11-2007 22:13:03 1.2 C 4.42 g/m*3 1.2 C 0 km/h
2391 18-11-2007 22:25:02 1.2 C 4.42 g/m*3 1.2 C 0 km/h
2392 18-11-2007 22:37:02 1 C 4.36 g/m*3 1 C 0 km/h
2393 18-11-2007 22:49:01 1 C 4.36 g/m*3 1 C 0 km/h
2394 18-11-2007 23:01:02 1 C 4.36 g/m*3 1 C 0 km/h
2395 18-11-2007 23:13:02 1.1 C 4.44 g/m*3 1.1 C 0 km/h
2396 18-11-2007 23:25:02 0.9 C 4.38 g/m*3 0.9 C 0 km/h
2397 18-11-2007 23:37:01 0.7 C 4.32 g/m*3 0.7 C 0 km/h
2398 18-11-2007 23:49:01 0.6 C 4.29 g/m*3 0.6 C 0 km/h
2399 19-11-2007 00:01:02 0.6 C 4.34 g/m*3 0.6 C 0 km/h
2400 19-11-2007 00:13:02 0.3 C 4.25 g/m*3 0.3 C 0 km/h
Sensor: Nr:Datum:Temp:Abs-Feuchte:Windchill:Wind:
Aussen-T/F 2401 19-11-2007 00:25:02 0.2 C 4.22 g/m*3 0.2 C 0 km/h
2402 19-11-2007 00:37:02 0.2 C 4.22 g/m*3 0.2 C 0 km/h
2403 19-11-2007 00:49:01 0.3 C 4.3 g/m*3 0.3 C 0 km/h
2404 19-11-2007 01:01:02 0.2 C 4.27 g/m*3 0.2 C 0 km/h
2405 19-11-2007 01:13:02 0.3 C 4.35 g/m*3 0.3 C 0 km/h
2406 19-11-2007 01:25:01 0.7 C 4.47 g/m*3 0.7 C 0 km/h
2407 19-11-2007 01:37:01 1 C 4.57 g/m*3 1 C 0 km/h
2408 19-11-2007 01:49:03 1.3 C 4.66 g/m*3 1.3 C 0 km/h
2409 19-11-2007 02:01:02 1.5 C 4.67 g/m*3 1.5 C 0 km/h
2410 19-11-2007 02:13:03 1.8 C 4.71 g/m*3 1.8 C 0 km/h
2411 19-11-2007 02:25:02 1.8 C 4.6 g/m*3 1.8 C 0 km/h
2412 19-11-2007 02:37:03 1.9 C 4.64 g/m*3 1.9 C 0 km/h
2413 19-11-2007 02:49:02 2.3 C 4.54 g/m*3 2.3 C 0 km/h
2414 19-11-2007 03:01:02 2.3 C 4.42 g/m*3 2.3 C 0 km/h
2415 19-11-2007 03:13:02 2.5 C 4.37 g/m*3 2.5 C 0 km/h
2416 19-11-2007 03:25:02 2.7 C 4.31 g/m*3 2.7 C 0 km/h
2417 19-11-2007 03:37:02 2.7 C 4.25 g/m*3 2.7 C 0 km/h
2418 19-11-2007 03:49:02 2.8 C 4.16 g/m*3 2.8 C 0 km/h
2419 19-11-2007 04:01:02 2.9 C 4.07 g/m*3 2.9 C 0 km/h
2420 19-11-2007 04:13:02 2.9 C 4.02 g/m*3 2.9 C 0 km/h
2421 19-11-2007 04:25:01 2.9 C 4.02 g/m*3 2.9 C 0 km/h
2422 19-11-2007 04:37:02 2.7 C 3.96 g/m*3 2.7 C 0 km/h
2423 19-11-2007 04:49:02 2.5 C 3.97 g/m*3 2.5 C 0 km/h
2424 19-11-2007 05:01:01 2.5 C 3.97 g/m*3 2.5 C 0 km/h
2425 19-11-2007 05:13:01 2.3 C 3.91 g/m*3 2.3 C 0 km/h
Sensor: Nr:Datum:Temp:Abs-Feuchte:Windchill:Wind:
Aussen-T/F 2426 19-11-2007 05:25:01 2.2 C 3.89 g/m*3 2.2 C 0 km/h
2427 19-11-2007 05:37:02 2.1 C 3.86 g/m*3 2.1 C 0 km/h
2428 19-11-2007 05:49:01 2.2 C 3.89 g/m*3 2.2 C 0 km/h
2429 19-11-2007 06:01:01 2.2 C 3.89 g/m*3 2.2 C 0 km/h
2430 19-11-2007 06:13:01 2.5 C 3.91 g/m*3 2.5 C 0 km/h
2431 19-11-2007 06:25:02 2.4 C 3.94 g/m*3 2.4 C 0 km/h
2432 19-11-2007 06:37:01 2.4 C 3.94 g/m*3 2.4 C 0 km/h
2433 19-11-2007 06:49:01 2.4 C 3.94 g/m*3 2.4 C 0 km/h
2434 19-11-2007 07:01:01 2.5 C 3.91 g/m*3 2.5 C 0 km/h
2435 19-11-2007 07:13:01 2.5 C 3.91 g/m*3 2.5 C 0 km/h
2436 19-11-2007 07:25:02 2.5 C 3.91 g/m*3 2.5 C 0 km/h
2437 19-11-2007 07:37:01 2.6 C 3.88 g/m*3 2.6 C 0 km/h
2438 19-11-2007 07:49:01 2.5 C 3.85 g/m*3 2.5 C 0 km/h
2439 19-11-2007 08:01:02 2.6 C 3.88 g/m*3 2.6 C 0 km/h
2440 19-11-2007 08:13:02 2.6 C 3.88 g/m*3 2.6 C 0 km/h
2441 19-11-2007 08:25:02 2.6 C 3.88 g/m*3 2.6 C 0 km/h
2442 19-11-2007 08:37:01 2.7 C 3.85 g/m*3 2.7 C 0 km/h
2443 19-11-2007 08:49:01 2.8 C 3.87 g/m*3 2.8 C 0 km/h
2444 19-11-2007 09:01:02 2.9 C 3.9 g/m*3 2.9 C 0 km/h
2445 19-11-2007 09:13:02 3 C 3.86 g/m*3 3 C 0 km/h
2446 19-11-2007 09:25:01 2.9 C 3.9 g/m*3 2.9 C 0 km/h
2447 19-11-2007 09:37:01 2.9 C 3.9 g/m*3 2.9 C 0 km/h
2448 19-11-2007 09:49:01 3 C 3.86 g/m*3 3 C 0 km/h
2449 19-11-2007 10:01:02 3 C 3.98 g/m*3 3 C 0 km/h
2450 19-11-2007 10:13:02 2.9 C 3.96 g/m*3 2.9 C 0 km/h
Sensor: Nr:Datum:Temp:Abs-Feuchte:Windchill:Wind:
Aussen-T/F 2451 19-11-2007 10:25:01 2.9 C 3.96 g/m*3 2.9 C 0 km/h
2452 19-11-2007 10:37:01 2.8 C 4.05 g/m*3 2.8 C 0 km/h
2453 19-11-2007 10:49:02 2.7 C 4.08 g/m*3 2.7 C 0 km/h
2454 19-11-2007 11:01:01 2.6 C 3.94 g/m*3 2.6 C 0 km/h
2455 19-11-2007 11:13:02 2.8 C 4.05 g/m*3 2.8 C 0 km/h
2456 19-11-2007 11:25:01 2.9 C 4.07 g/m*3 2.9 C 0 km/h
2457 19-11-2007 11:37:02 3.1 C 4.07 g/m*3 3.1 C 0 km/h
2458 19-11-2007 11:49:02 3.3 C 4.06 g/m*3 3.3 C 0 km/h
2459 19-11-2007 12:01:02 3.3 C 4 g/m*3 3.3 C 0 km/h
2460 19-11-2007 12:13:02 3.3 C 4.06 g/m*3 3.3 C 0 km/h
2461 19-11-2007 12:25:01 3.2 C 4.1 g/m*3 3.2 C 0 km/h
2462 19-11-2007 12:37:01 3 C 4.22 g/m*3 3 C 0 km/h
2463 19-11-2007 12:49:02 3 C 4.34 g/m*3 3 C 0 km/h
2464 19-11-2007 13:01:01 2.9 C 4.43 g/m*3 2.9 C 0 km/h
2465 19-11-2007 13:13:02 2.8 C 4.46 g/m*3 2.8 C 0 km/h
2466 19-11-2007 13:25:01 2.9 C 4.55 g/m*3 2.9 C 0 km/h
2467 19-11-2007 13:37:02 2.9 C 4.67 g/m*3 2.9 C 0 km/h
2468 19-11-2007 13:49:02 3.1 C 4.73 g/m*3 3.1 C 0 km/h
2469 19-11-2007 14:01:01 3.2 C 4.76 g/m*3 3.2 C 0 km/h
2470 19-11-2007 14:13:01 3.5 C 4.8 g/m*3 3.5 C 0 km/h
2471 19-11-2007 14:25:01 3.7 C 4.8 g/m*3 3.7 C 0 km/h
2472 19-11-2007 14:37:02 3.7 C 4.67 g/m*3 3.7 C 0 km/h
2473 19-11-2007 14:49:02 3.7 C 4.67 g/m*3 3.7 C 0 km/h
2474 19-11-2007 15:01:01 3.5 C 4.55 g/m*3 3.5 C 0 km/h
2475 19-11-2007 15:13:01 3.5 C 4.55 g/m*3 3.5 C 0 km/h
Sensor: Nr:Datum:Temp:Abs-Feuchte:Windchill:Wind:
Aussen-T/F 2476 19-11-2007 15:25:01 3.5 C 4.55 g/m*3 3.5 C 0 km/h
2477 19-11-2007 15:37:01 3.4 C 4.52 g/m*3 3.4 C 0 km/h
2478 19-11-2007 15:49:01 3.3 C 4.43 g/m*3 3.3 C 0 km/h
2479 19-11-2007 16:01:01 3.1 C 4.43 g/m*3 3.1 C 0 km/h
2480 19-11-2007 16:13:01 3 C 4.46 g/m*3 3 C 0 km/h
2481 19-11-2007 16:25:01 3 C 4.46 g/m*3 3 C 0 km/h
2482 19-11-2007 16:37:02 3 C 4.46 g/m*3 3 C 0 km/h
2483 19-11-2007 16:49:01 3.1 C 4.49 g/m*3 3.1 C 0 km/h
2484 19-11-2007 17:01:01 3 C 4.46 g/m*3 3 C 0 km/h
2485 19-11-2007 17:13:01 2.7 C 4.54 g/m*3 2.7 C 0 km/h
2486 19-11-2007 17:25:02 2.5 C 4.6 g/m*3 2.5 C 0 km/h
2487 19-11-2007 17:37:01 2.5 C 4.71 g/m*3 2.5 C 0 km/h
2488 19-11-2007 17:49:02 2.4 C 4.68 g/m*3 2.4 C 0 km/h
2489 19-11-2007 18:01:03 2.5 C 4.66 g/m*3 2.5 C 0 km/h
2490 19-11-2007 18:13:03 2.5 C 4.6 g/m*3 2.5 C 0 km/h
2491 19-11-2007 18:25:02 2.5 C 4.66 g/m*3 2.5 C 0 km/h
2492 19-11-2007 18:37:01 2.5 C 4.71 g/m*3 2.5 C 0 km/h
2493 19-11-2007 18:49:02 2.5 C 4.71 g/m*3 2.5 C 0 km/h
2494 19-11-2007 19:01:01 2.6 C 4.63 g/m*3 2.6 C 0 km/h
2495 19-11-2007 19:13:01 2.8 C 4.58 g/m*3 2.8 C 0 km/h
2496 19-11-2007 19:25:01 2.8 C 4.52 g/m*3 2.8 C 0 km/h
2497 19-11-2007 19:37:02 2.9 C 4.49 g/m*3 2.9 C 0 km/h
2498 19-11-2007 19:49:01 2.8 C 4.52 g/m*3 2.8 C 0 km/h
2499 19-11-2007 20:01:02 2.6 C 4.57 g/m*3 2.6 C 0 km/h
2500 19-11-2007 20:13:02 2.5 C 4.6 g/m*3 2.5 C 0 km/h
Sensor: Nr:Datum:Temp:Abs-Feuchte:Windchill:Wind:
Aussen-T/F 2501 19-11-2007 20:25:01 2.5 C 4.66 g/m*3 2.5 C 0 km/h
2502 19-11-2007 20:37:01 2.5 C 4.77 g/m*3 2.5 C 0 km/h
2503 19-11-2007 20:49:01 2.6 C 4.8 g/m*3 2.6 C 0 km/h
2504 19-11-2007 21:01:02 2.8 C 4.69 g/m*3 2.8 C 0 km/h
2505 19-11-2007 21:13:02 2.9 C 4.49 g/m*3 2.9 C 0 km/h
2506 19-11-2007 21:25:01 3 C 4.46 g/m*3 3 C 0 km/h
2507 19-11-2007 21:37:01 3 C 4.46 g/m*3 3 C 0 km/h
2508 19-11-2007 21:49:01 2.8 C 4.58 g/m*3 2.8 C 0 km/h
2509 19-11-2007 22:01:02 2.7 C 4.49 g/m*3 2.7 C 0 km/h
2510 19-11-2007 22:13:02 2.7 C 4.54 g/m*3 2.7 C 0 km/h
2511 19-11-2007 22:25:02 2.7 C 4.6 g/m*3 2.7 C 0 km/h
2512 19-11-2007 22:37:01 2.6 C 4.69 g/m*3 2.6 C 0 km/h
2513 19-11-2007 22:49:01 2.6 C 4.75 g/m*3 2.6 C 0 km/h
2514 19-11-2007 23:01:01 2.7 C 4.78 g/m*3 2.7 C 0 km/h
2515 19-11-2007 23:13:01 2.7 C 4.72 g/m*3 2.7 C 0 km/h
2516 19-11-2007 23:25:02 2.8 C 4.75 g/m*3 2.8 C 0 km/h
2517 19-11-2007 23:37:01 2.9 C 4.84 g/m*3 2.9 C 0 km/h
2518 19-11-2007 23:49:01 3 C 4.76 g/m*3 3 C 0 km/h
2519 20-11-2007 00:01:01 3 C 4.76 g/m*3 3 C 0 km/h
2520 20-11-2007 00:13:01 3 C 4.82 g/m*3 3 C 0 km/h
2521 20-11-2007 00:25:01 2.8 C 4.87 g/m*3 2.8 C 0 km/h
2522 20-11-2007 00:37:01 2.8 C 4.93 g/m*3 2.8 C 0 km/h
2523 20-11-2007 00:49:01 2.8 C 4.99 g/m*3 2.8 C 0 km/h
2524 20-11-2007 01:01:01 2.9 C 5.02 g/m*3 2.9 C 0 km/h
2525 20-11-2007 01:13:01 2.9 C 5.02 g/m*3 2.9 C 0 km/h
Sensor: Nr:Datum:Temp:Abs-Feuchte:Windchill:Wind:
Aussen-T/F 2526 20-11-2007 01:25:02 2.9 C 5.08 g/m*3 2.9 C 0 km/h
2527 20-11-2007 01:37:01 3 C 5.11 g/m*3 3 C 0 km/h
2528 20-11-2007 01:49:01 3 C 5.11 g/m*3 3 C 0 km/h
2529 20-11-2007 02:01:01 3 C 5.17 g/m*3 3 C 0 km/h
2530 20-11-2007 02:13:01 2.9 C 5.14 g/m*3 2.9 C 0 km/h
2531 20-11-2007 02:25:01 2.9 C 5.14 g/m*3 2.9 C 0 km/h
2532 20-11-2007 02:37:02 3 C 5.11 g/m*3 3 C 0 km/h
2533 20-11-2007 02:49:02 3 C 5.11 g/m*3 3 C 0 km/h
2534 20-11-2007 03:01:02 3 C 5.11 g/m*3 3 C 0 km/h
2535 20-11-2007 03:13:02 3.1 C 5.09 g/m*3 3.1 C 0 km/h
2536 20-11-2007 03:25:02 3.2 C 5.12 g/m*3 3.2 C 0 km/h
2537 20-11-2007 03:37:01 3.3 C 5.16 g/m*3 3.3 C 0 km/h
2538 20-11-2007 03:49:01 3.3 C 5.16 g/m*3 3.3 C 0 km/h
2539 20-11-2007 04:01:02 3.4 C 5.13 g/m*3 3.4 C 0 km/h
2540 20-11-2007 04:13:02 3.5 C 5.16 g/m*3 3.5 C 0 km/h
2541 20-11-2007 04:25:02 3.7 C 5.11 g/m*3 3.7 C 0 km/h
2542 20-11-2007 04:37:01 3.8 C 5.14 g/m*3 3.8 C 0 km/h
2543 20-11-2007 04:49:01 3.8 C 5.08 g/m*3 3.8 C 0 km/h
2544 20-11-2007 05:01:02 3.8 C 5.08 g/m*3 3.8 C 0 km/h
2545 20-11-2007 05:13:02 3.8 C 5.08 g/m*3 3.8 C 0 km/h
2546 20-11-2007 05:25:01 3.8 C 5.08 g/m*3 3.8 C 0 km/h
2547 20-11-2007 05:37:01 3.8 C 5.08 g/m*3 3.8 C 0 km/h
2548 20-11-2007 05:49:01 3.8 C 5.02 g/m*3 3.8 C 0 km/h
2549 20-11-2007 06:01:02 4 C 4.96 g/m*3 4 C 0 km/h
2550 20-11-2007 06:13:02 4.8 C 4.56 g/m*3 4.8 C 0 km/h
Sensor: Nr:Datum:Temp:Abs-Feuchte:Windchill:Wind:
Aussen-T/F 2551 20-11-2007 06:25:02 4.8 C 4.56 g/m*3 4.8 C 0 km/h
2552 20-11-2007 06:37:01 5 C 4.35 g/m*3 5 C 0 km/h
2553 20-11-2007 06:49:01 4.8 C 4.49 g/m*3 4.8 C 0 km/h
2554 20-11-2007 07:01:01 4.6 C 4.57 g/m*3 4.6 C 0 km/h
2555 20-11-2007 07:13:01 4.5 C 4.6 g/m*3 4.5 C 0 km/h
2556 20-11-2007 07:25:01 4.3 C 4.67 g/m*3 4.3 C 0 km/h
2557 20-11-2007 07:37:02 4.1 C 4.67 g/m*3 4.1 C 0 km/h
2558 20-11-2007 07:49:02 4.2 C 4.7 g/m*3 4.2 C 0 km/h
2559 20-11-2007 08:01:01 4.2 C 4.77 g/m*3 4.2 C 0 km/h
2560 20-11-2007 08:13:02 4.4 C 4.64 g/m*3 4.4 C 0 km/h
2561 20-11-2007 08:25:01 4.5 C 4.54 g/m*3 4.5 C 0 km/h
2562 20-11-2007 08:37:01 4.5 C 4.67 g/m*3 4.5 C 0 km/h
2563 20-11-2007 08:49:01 4.6 C 4.7 g/m*3 4.6 C 0 km/h
2564 20-11-2007 09:01:02 4.7 C 4.73 g/m*3 4.7 C 0 km/h
2565 20-11-2007 09:13:02 4.8 C 4.76 g/m*3 4.8 C 0 km/h
2566 20-11-2007 09:25:02 4.9 C 4.86 g/m*3 4.9 C 0 km/h
2567 20-11-2007 09:37:01 5.1 C 4.72 g/m*3 5.1 C 0 km/h
2568 20-11-2007 09:49:01 5.4 C 4.81 g/m*3 5.4 C 0 km/h
2569 20-11-2007 10:01:01 5.7 C 4.63 g/m*3 5.7 C 0 km/h
2570 20-11-2007 10:13:01 5.8 C 4.66 g/m*3 5.8 C 0 km/h
2571 20-11-2007 10:25:01 5.8 C 4.51 g/m*3 5.8 C 0 km/h
2572 20-11-2007 10:37:02 5.8 C 4.66 g/m*3 5.8 C 0 km/h
2573 20-11-2007 10:49:02 6 C 4.43 g/m*3 6 C 0 km/h
2574 20-11-2007 11:01:01 6.1 C 4.24 g/m*3 6.1 C 0 km/h
2575 20-11-2007 11:13:01 6.4 C 4.1 g/m*3 6.4 C 0 km/h
Sensor: Nr:Datum:Temp:Abs-Feuchte:Windchill:Wind:
Aussen-T/F 2576 20-11-2007 11:25:02 6.7 C 4.03 g/m*3 6.7 C 0 km/h
2577 20-11-2007 11:37:02 7.2 C 4 g/m*3 7.2 C 0 km/h
2578 20-11-2007 11:49:02 7.4 C 4.06 g/m*3 7.4 C 0 km/h
2579 20-11-2007 12:01:01 7.7 C 4.14 g/m*3 7.7 C 0 km/h
2580 20-11-2007 12:13:01 7.8 C 4.08 g/m*3 7.8 C 0 km/h
2581 20-11-2007 12:25:01 8.1 C 4.08 g/m*3 8.1 C 0 km/h
2582 20-11-2007 12:37:02 8.4 C 4.07 g/m*3 8.4 C 0 km/h
2583 20-11-2007 12:49:02 8.7 C 4.24 g/m*3 8.7 C 0 km/h
2584 20-11-2007 13:01:01 8.7 C 4.15 g/m*3 8.7 C 0 km/h
2585 20-11-2007 13:13:02 8.5 C 4.1 g/m*3 8.5 C 0 km/h
2586 20-11-2007 13:25:01 8.2 C 4.1 g/m*3 8.2 C 0 km/h
2587 20-11-2007 13:37:02 8.5 C 4.01 g/m*3 8.5 C 0 km/h
2588 20-11-2007 13:49:02 8.6 C 4.04 g/m*3 8.6 C 0 km/h
2589 20-11-2007 14:01:01 8.2 C 3.94 g/m*3 8.2 C 0 km/h
2590 20-11-2007 14:13:02 7.9 C 3.78 g/m*3 7.9 C 0 km/h
2591 20-11-2007 14:25:01 8 C 3.72 g/m*3 8 C 0 km/h
2592 20-11-2007 14:37:02 8.1 C 3.74 g/m*3 8.1 C 0 km/h
2593 20-11-2007 14:49:02 8 C 3.8 g/m*3 8 C 0 km/h
2594 20-11-2007 15:01:01 7.9 C 3.78 g/m*3 7.9 C 0 km/h
2595 20-11-2007 15:13:01 7.8 C 3.75 g/m*3 7.8 C 0 km/h
2596 20-11-2007 15:25:01 7.5 C 3.84 g/m*3 7.5 C 0 km/h
2597 20-11-2007 15:37:02 7.2 C 3.92 g/m*3 7.2 C 0 km/h
2598 20-11-2007 15:49:02 7 C 3.95 g/m*3 7 C 0 km/h
2599 20-11-2007 16:01:01 6.8 C 3.9 g/m*3 6.8 C 0 km/h
2600 20-11-2007 16:13:01 6.8 C 3.9 g/m*3 6.8 C 0 km/h
Sensor: Nr:Datum:Temp:Abs-Feuchte:Windchill:Wind:
Aussen-T/F 2601 20-11-2007 16:25:01 6.8 C 3.98 g/m*3 6.8 C 0 km/h
2602 20-11-2007 16:37:02 6.7 C 3.95 g/m*3 6.7 C 0 km/h
2603 20-11-2007 16:49:02 6.8 C 3.9 g/m*3 6.8 C 0 km/h
2604 20-11-2007 17:01:01 6.7 C 3.88 g/m*3 6.7 C 0 km/h
2605 20-11-2007 17:13:01 6.4 C 4.02 g/m*3 6.4 C 0 km/h
2606 20-11-2007 17:25:01 6.3 C 4 g/m*3 6.3 C 0 km/h
2607 20-11-2007 17:37:02 6.3 C 4.07 g/m*3 6.3 C 0 km/h
2608 20-11-2007 17:49:01 6 C 4.21 g/m*3 6 C 0 km/h
2609 20-11-2007 18:01:01 6 C 4.14 g/m*3 6 C 0 km/h
2610 20-11-2007 18:13:01 6 C 4.21 g/m*3 6 C 0 km/h
2611 20-11-2007 18:25:01 6 C 4.21 g/m*3 6 C 0 km/h
2612 20-11-2007 18:37:01 6 C 4.21 g/m*3 6 C 0 km/h
2613 20-11-2007 18:49:01 5.8 C 4.37 g/m*3 5.8 C 0 km/h
2614 20-11-2007 19:01:02 5.7 C 4.34 g/m*3 5.7 C 0 km/h
2615 20-11-2007 19:13:02 5.6 C 4.38 g/m*3 5.6 C 0 km/h
2616 20-11-2007 19:25:02 5.3 C 4.44 g/m*3 5.3 C 0 km/h
2617 20-11-2007 19:37:01 5 C 4.48 g/m*3 5 C 0 km/h
2618 20-11-2007 19:49:01 5.1 C 4.58 g/m*3 5.1 C 0 km/h
2619 20-11-2007 20:01:01 5.2 C 4.54 g/m*3 5.2 C 0 km/h
2620 20-11-2007 20:13:01 5.5 C 4.49 g/m*3 5.5 C 0 km/h
2621 20-11-2007 20:25:02 5.4 C 4.54 g/m*3 5.4 C 0 km/h
2622 20-11-2007 20:37:01 5.5 C 4.49 g/m*3 5.5 C 0 km/h
2623 20-11-2007 20:49:01 5.5 C 4.49 g/m*3 5.5 C 0 km/h
2624 20-11-2007 21:01:01 5.5 C 4.49 g/m*3 5.5 C 0 km/h
2625 20-11-2007 21:13:01 5.3 C 4.51 g/m*3 5.3 C 0 km/h
Sensor: Nr:Datum:Temp:Abs-Feuchte:Windchill:Wind:
Aussen-T/F 2626 20-11-2007 21:25:01 5.2 C 4.48 g/m*3 5.2 C 0 km/h
2627 20-11-2007 21:37:02 5.2 C 4.48 g/m*3 5.2 C 0 km/h
2628 20-11-2007 21:49:02 5 C 4.48 g/m*3 5 C 0 km/h
2629 20-11-2007 22:01:01 4.8 C 4.56 g/m*3 4.8 C 0 km/h
2630 20-11-2007 22:13:01 4.8 C 4.56 g/m*3 4.8 C 0 km/h
2631 20-11-2007 22:25:01 5 C 4.55 g/m*3 5 C 0 km/h
2632 20-11-2007 22:37:02 5 C 4.48 g/m*3 5 C 0 km/h
2633 20-11-2007 22:49:02 5.1 C 4.58 g/m*3 5.1 C 0 km/h
2634 20-11-2007 23:01:01 5.2 C 4.61 g/m*3 5.2 C 0 km/h
2635 20-11-2007 23:13:01 5.3 C 4.57 g/m*3 5.3 C 0 km/h
2636 20-11-2007 23:25:01 5.3 C 4.57 g/m*3 5.3 C 0 km/h
2637 20-11-2007 23:37:02 5.4 C 4.54 g/m*3 5.4 C 0 km/h
2638 20-11-2007 23:49:01 5.4 C 4.54 g/m*3 5.4 C 0 km/h
2639 21-11-2007 00:01:02 5.4 C 4.54 g/m*3 5.4 C 0 km/h
2640 21-11-2007 00:13:02 5.4 C 4.6 g/m*3 5.4 C 0 km/h
2641 21-11-2007 00:25:01 5.4 C 4.6 g/m*3 5.4 C 0 km/h
2642 21-11-2007 00:37:01 5.4 C 4.6 g/m*3 5.4 C 0 km/h
2643 21-11-2007 00:49:01 5.3 C 4.64 g/m*3 5.3 C 0 km/h
2644 21-11-2007 01:01:02 5.2 C 4.61 g/m*3 5.2 C 0 km/h
2645 21-11-2007 01:13:02 5.2 C 4.61 g/m*3 5.2 C 0 km/h
2646 21-11-2007 01:25:02 5.1 C 4.65 g/m*3 5.1 C 0 km/h
2647 21-11-2007 01:37:01 5.1 C 4.65 g/m*3 5.1 C 0 km/h
2648 21-11-2007 01:49:01 5.1 C 4.65 g/m*3 5.1 C 0 km/h
2649 21-11-2007 02:01:01 5.1 C 4.65 g/m*3 5.1 C 0 km/h
2650 21-11-2007 02:13:01 5 C 4.62 g/m*3 5 C 0 km/h
Sensor: Nr:Datum:Temp:Abs-Feuchte:Windchill:Wind:
Aussen-T/F 2651 21-11-2007 02:25:02 5 C 4.69 g/m*3 5 C 0 km/h
2652 21-11-2007 02:37:01 4.9 C 4.73 g/m*3 4.9 C 0 km/h
2653 21-11-2007 02:50:06 5 C 4.69 g/m*3 5 C 0 km/h
2654 21-11-2007 03:02:06 5 C 4.62 g/m*3 5 C 0 km/h
2655 21-11-2007 03:14:06 4.9 C 4.73 g/m*3 4.9 C 0 km/h
2656 21-11-2007 03:26:06 4.8 C 4.69 g/m*3 4.8 C 0 km/h
2657 21-11-2007 03:38:01 4.8 C 4.69 g/m*3 4.8 C 0 km/h
2658 21-11-2007 03:50:01 4.8 C 4.69 g/m*3 4.8 C 0 km/h
2659 21-11-2007 04:02:02 4.8 C 4.69 g/m*3 4.8 C 0 km/h
2660 21-11-2007 04:14:02 4.8 C 4.69 g/m*3 4.8 C 0 km/h
2661 21-11-2007 04:26:01 4.9 C 4.73 g/m*3 4.9 C 0 km/h
2662 21-11-2007 04:38:01 4.9 C 4.73 g/m*3 4.9 C 0 km/h
2663 21-11-2007 04:50:01 4.9 C 4.73 g/m*3 4.9 C 0 km/h
2664 21-11-2007 05:02:01 4.9 C 4.73 g/m*3 4.9 C 0 km/h
2665 21-11-2007 05:14:01 5 C 4.69 g/m*3 5 C 0 km/h
2666 21-11-2007 05:26:02 5.1 C 4.72 g/m*3 5.1 C 0 km/h
2667 21-11-2007 05:38:01 4.9 C 4.86 g/m*3 4.9 C 0 km/h
2668 21-11-2007 05:50:02 4.7 C 4.86 g/m*3 4.7 C 0 km/h
2669 21-11-2007 06:02:01 4.6 C 4.96 g/m*3 4.6 C 0 km/h
2670 21-11-2007 06:14:01 4.8 C 4.96 g/m*3 4.8 C 0 km/h
2671 21-11-2007 06:26:02 5.1 C 4.79 g/m*3 5.1 C 0 km/h
2672 21-11-2007 06:38:02 5.2 C 4.82 g/m*3 5.2 C 0 km/h
2673 21-11-2007 06:50:02 5.2 C 4.82 g/m*3 5.2 C 0 km/h
2674 21-11-2007 07:02:03 5.2 C 4.82 g/m*3 5.2 C 0 km/h
2675 21-11-2007 07:14:03 5.3 C 4.78 g/m*3 5.3 C 0 km/h
Sensor: Nr:Datum:Temp:Abs-Feuchte:Windchill:Wind:
Aussen-T/F 2676 21-11-2007 07:26:02 5.4 C 4.74 g/m*3 5.4 C 0 km/h
2677 21-11-2007 07:38:03 5.2 C 4.61 g/m*3 5.2 C 0 km/h
2678 21-11-2007 07:50:02 5 C 4.69 g/m*3 5 C 0 km/h
2679 21-11-2007 08:02:02 5.1 C 4.86 g/m*3 5.1 C 0 km/h
2680 21-11-2007 08:14:02 5.2 C 4.96 g/m*3 5.2 C 0 km/h
2681 21-11-2007 08:26:02 5.1 C 4.92 g/m*3 5.1 C 0 km/h
2682 21-11-2007 08:38:02 5.2 C 4.96 g/m*3 5.2 C 0 km/h
2683 21-11-2007 08:50:02 5.3 C 4.85 g/m*3 5.3 C 0 km/h
2684 21-11-2007 09:02:02 5.5 C 4.71 g/m*3 5.5 C 0 km/h
2685 21-11-2007 09:14:02 5.7 C 4.7 g/m*3 5.7 C 0 km/h
2686 21-11-2007 09:26:03 5.6 C 4.81 g/m*3 5.6 C 0 km/h
2687 21-11-2007 09:38:02 5.4 C 4.95 g/m*3 5.4 C 0 km/h
2688 21-11-2007 09:50:02 5.3 C 5.06 g/m*3 5.3 C 0 km/h
2689 21-11-2007 10:02:02 5.3 C 5.27 g/m*3 5.3 C 0 km/h
2690 21-11-2007 10:14:02 5.3 C 5.54 g/m*3 5.3 C 0 km/h
2691 21-11-2007 10:26:02 5.3 C 5.82 g/m*3 5.3 C 0 km/h
2692 21-11-2007 10:38:02 5.2 C 5.92 g/m*3 5.2 C 0 km/h
2693 21-11-2007 10:50:01 5.4 C 6.07 g/m*3 5.4 C 0 km/h
2694 21-11-2007 11:02:02 5.5 C 6.11 g/m*3 5.5 C 0 km/h
2695 21-11-2007 11:14:02 5.6 C 6.15 g/m*3 5.6 C 0 km/h
2696 21-11-2007 11:26:02 5.7 C 6.19 g/m*3 5.7 C 0 km/h
2697 21-11-2007 11:38:01 5.9 C 6.27 g/m*3 5.9 C 0 km/h
2698 21-11-2007 11:50:03 6.5 C 6.45 g/m*3 6.5 C 0 km/h
2699 21-11-2007 12:02:02 6.5 C 6.3 g/m*3 6.5 C 0 km/h
2700 21-11-2007 12:14:03 7.1 C 6.32 g/m*3 7.1 C 0 km/h
Sensor: Nr:Datum:Temp:Abs-Feuchte:Windchill:Wind:
Aussen-T/F 2701 21-11-2007 12:26:02 7.4 C 6.2 g/m*3 7.4 C 0 km/h
2702 21-11-2007 12:38:02 7.3 C 6.08 g/m*3 7.3 C 0 km/h
2703 21-11-2007 12:50:02 7.1 C 6.08 g/m*3 7.1 C 0 km/h
2704 21-11-2007 13:02:02 7.3 C 6.24 g/m*3 7.3 C 0 km/h
2705 21-11-2007 13:14:02 7.5 C 6.48 g/m*3 7.5 C 0 km/h
2706 21-11-2007 13:26:02 8.2 C 6.95 g/m*3 8.2 C 0 km/h
2707 21-11-2007 13:38:02 9.6 C 7.6 g/m*3 9.6 C 0 km/h
2708 21-11-2007 13:50:02 11.4 C 7.8 g/m*3 11.4 C 0 km/h
2709 21-11-2007 14:02:03 11.4 C 7.08 g/m*3 11.4 C 0 km/h
2710 21-11-2007 14:14:03 11.2 C 6.99 g/m*3 11.2 C 0 km/h
2711 21-11-2007 14:26:02 10.9 C 6.96 g/m*3 10.9 C 0 km/h
2712 21-11-2007 14:38:02 10.9 C 7.06 g/m*3 10.9 C 0 km/h
2713 21-11-2007 14:50:01 10.7 C 7.17 g/m*3 10.7 C 0 km/h
2714 21-11-2007 15:02:02 10.7 C 7.07 g/m*3 10.7 C 0 km/h
2715 21-11-2007 15:14:02 10.2 C 6.76 g/m*3 10.2 C 0 km/h
2716 21-11-2007 15:26:02 10.1 C 6.62 g/m*3 10.1 C 0 km/h
2717 21-11-2007 15:38:01 10 C 6.48 g/m*3 10 C 0 km/h
2718 21-11-2007 15:50:02 9.7 C 6.45 g/m*3 9.7 C 0 km/h
2719 21-11-2007 16:02:01 9.4 C 6.33 g/m*3 9.4 C 0 km/h
2720 21-11-2007 16:14:01 9.2 C 6.34 g/m*3 9.2 C 0 km/h
2721 21-11-2007 16:26:02 9.3 C 6.47 g/m*3 9.3 C 0 km/h
2722 21-11-2007 16:38:02 9.3 C 6.47 g/m*3 9.3 C 0 km/h
2723 21-11-2007 16:50:02 9.1 C 6.39 g/m*3 9.1 C 0 km/h
2724 21-11-2007 17:02:02 8.9 C 6.48 g/m*3 8.9 C 0 km/h
2725 21-11-2007 17:14:02 8.9 C 6.57 g/m*3 8.9 C 0 km/h
Sensor: Nr:Datum:Temp:Abs-Feuchte:Windchill:Wind:
Aussen-T/F 2726 21-11-2007 17:26:02 8.8 C 6.44 g/m*3 8.8 C 0 km/h
2727 21-11-2007 17:38:02 8.6 C 6.44 g/m*3 8.6 C 0 km/h
2728 21-11-2007 17:50:02 8.5 C 6.49 g/m*3 8.5 C 0 km/h
2729 21-11-2007 18:02:02 8.4 C 6.45 g/m*3 8.4 C 0 km/h
2730 21-11-2007 18:14:02 8.3 C 6.49 g/m*3 8.3 C 0 km/h
2731 21-11-2007 18:26:01 8.2 C 6.36 g/m*3 8.2 C 0 km/h
2732 21-11-2007 18:38:02 8.2 C 6.36 g/m*3 8.2 C 0 km/h
2733 21-11-2007 18:50:01 8.2 C 6.45 g/m*3 8.2 C 0 km/h
2734 21-11-2007 19:02:02 8.1 C 6.32 g/m*3 8.1 C 0 km/h
2735 21-11-2007 19:14:02 8 C 6.37 g/m*3 8 C 0 km/h
2736 21-11-2007 19:26:01 7.9 C 6.32 g/m*3 7.9 C 0 km/h
2737 21-11-2007 19:38:02 7.8 C 6.28 g/m*3 7.8 C 0 km/h
2738 21-11-2007 19:50:01 7.8 C 6.28 g/m*3 7.8 C 0 km/h
2739 21-11-2007 20:02:02 7.7 C 6.24 g/m*3 7.7 C 0 km/h
2740 21-11-2007 20:14:02 7.7 C 6.24 g/m*3 7.7 C 0 km/h
2741 21-11-2007 20:26:02 7.7 C 6.24 g/m*3 7.7 C 0 km/h
2742 21-11-2007 20:38:02 7.8 C 6.28 g/m*3 7.8 C 0 km/h
2743 21-11-2007 20:50:02 7.8 C 6.28 g/m*3 7.8 C 0 km/h
2744 21-11-2007 21:02:02 7.8 C 6.28 g/m*3 7.8 C 0 km/h
2745 21-11-2007 21:14:02 7.7 C 6.32 g/m*3 7.7 C 0 km/h
2746 21-11-2007 21:26:02 7.6 C 6.28 g/m*3 7.6 C 0 km/h
2747 21-11-2007 21:38:02 7.3 C 6.24 g/m*3 7.3 C 0 km/h
2748 21-11-2007 21:50:02 7.2 C 6.36 g/m*3 7.2 C 0 km/h
2749 21-11-2007 22:02:02 7.3 C 6.4 g/m*3 7.3 C 0 km/h
2750 21-11-2007 22:14:02 7.4 C 6.36 g/m*3 7.4 C 0 km/h
Sensor: Nr:Datum:Temp:Abs-Feuchte:Windchill:Wind:
Aussen-T/F 2751 21-11-2007 22:26:01 7.3 C 6.32 g/m*3 7.3 C 0 km/h
2752 21-11-2007 22:38:02 6.8 C 6.19 g/m*3 6.8 C 0 km/h
2753 21-11-2007 22:50:02 6.5 C 6.07 g/m*3 6.5 C 0 km/h
2754 21-11-2007 23:02:02 6.3 C 6.07 g/m*3 6.3 C 0 km/h
2755 21-11-2007 23:14:02 6.3 C 6.14 g/m*3 6.3 C 0 km/h
2756 21-11-2007 23:26:02 6.3 C 6.22 g/m*3 6.3 C 0 km/h
2757 21-11-2007 23:38:02 6.5 C 6.3 g/m*3 6.5 C 0 km/h
2758 21-11-2007 23:50:02 6.6 C 6.34 g/m*3 6.6 C 0 km/h
2759 22-11-2007 00:02:01 7 C 6.35 g/m*3 7 C 0 km/h
2760 22-11-2007 00:14:01 7.1 C 6.24 g/m*3 7.1 C 0 km/h
2761 22-11-2007 00:26:02 7.3 C 6.4 g/m*3 7.3 C 0 km/h
2762 22-11-2007 00:38:02 7.4 C 6.44 g/m*3 7.4 C 0 km/h
2763 22-11-2007 00:50:02 7.6 C 6.53 g/m*3 7.6 C 0 km/h
2764 22-11-2007 01:02:02 7.8 C 6.61 g/m*3 7.8 C 0 km/h
2765 22-11-2007 01:14:02 7.7 C 6.49 g/m*3 7.7 C 0 km/h
2766 22-11-2007 01:26:02 7.2 C 6.44 g/m*3 7.2 C 0 km/h
2767 22-11-2007 01:38:02 6.9 C 6.54 g/m*3 6.9 C 0 km/h
2768 22-11-2007 01:50:02 6.8 C 6.5 g/m*3 6.8 C 0 km/h
2769 22-11-2007 02:02:02 6.9 C 6.54 g/m*3 6.9 C 0 km/h
2770 22-11-2007 02:14:02 6.9 C 6.54 g/m*3 6.9 C 0 km/h
2771 22-11-2007 02:26:02 6.9 C 6.54 g/m*3 6.9 C 0 km/h
2772 22-11-2007 02:38:02 6.9 C 6.54 g/m*3 6.9 C 0 km/h
2773 22-11-2007 02:50:01 7 C 6.51 g/m*3 7 C 0 km/h
2774 22-11-2007 03:02:01 7 C 6.51 g/m*3 7 C 0 km/h
2775 22-11-2007 03:14:01 7.1 C 6.55 g/m*3 7.1 C 0 km/h
Sensor: Nr:Datum:Temp:Abs-Feuchte:Windchill:Wind:
Aussen-T/F 2776 22-11-2007 03:26:01 7.2 C 6.59 g/m*3 7.2 C 0 km/h
2777 22-11-2007 03:38:02 7.3 C 6.64 g/m*3 7.3 C 0 km/h
2778 22-11-2007 03:50:02 7.4 C 6.68 g/m*3 7.4 C 0 km/h
2779 22-11-2007 04:02:01 7.6 C 6.61 g/m*3 7.6 C 0 km/h
2780 22-11-2007 04:14:02 7.6 C 6.44 g/m*3 7.6 C 0 km/h
2781 22-11-2007 04:26:01 7.5 C 6.32 g/m*3 7.5 C 0 km/h
2782 22-11-2007 04:38:02 7.5 C 6.32 g/m*3 7.5 C 0 km/h
2783 22-11-2007 04:50:01 7.5 C 6.4 g/m*3 7.5 C 0 km/h
2784 22-11-2007 05:02:01 7.4 C 6.36 g/m*3 7.4 C 0 km/h
2785 22-11-2007 05:14:01 7.5 C 6.48 g/m*3 7.5 C 0 km/h
2786 22-11-2007 05:26:02 7.5 C 6.48 g/m*3 7.5 C 0 km/h
2787 22-11-2007 05:38:01 7.4 C 6.44 g/m*3 7.4 C 0 km/h
2788 22-11-2007 05:50:01 7.4 C 6.44 g/m*3 7.4 C 0 km/h
2789 22-11-2007 06:02:03 7.4 C 6.52 g/m*3 7.4 C 0 km/h
2790 22-11-2007 06:14:03 7.4 C 6.52 g/m*3 7.4 C 0 km/h
2791 22-11-2007 06:26:01 7.4 C 6.52 g/m*3 7.4 C 0 km/h
2792 22-11-2007 06:38:01 7.4 C 6.52 g/m*3 7.4 C 0 km/h
2793 22-11-2007 06:50:01 7.4 C 6.52 g/m*3 7.4 C 0 km/h
2794 22-11-2007 07:02:01 7.3 C 6.48 g/m*3 7.3 C 0 km/h
2795 22-11-2007 07:14:01 7.3 C 6.48 g/m*3 7.3 C 0 km/h
2796 22-11-2007 07:26:01 7.2 C 6.52 g/m*3 7.2 C 0 km/h
2797 22-11-2007 07:38:01 7 C 6.43 g/m*3 7 C 0 km/h
2798 22-11-2007 07:50:01 6.9 C 6.47 g/m*3 6.9 C 0 km/h
2799 22-11-2007 08:02:01 6.9 C 6.54 g/m*3 6.9 C 0 km/h
2800 22-11-2007 08:14:01 7.1 C 6.55 g/m*3 7.1 C 0 km/h
Sensor: Nr:Datum:Temp:Abs-Feuchte:Windchill:Wind:
Aussen-T/F 2801 22-11-2007 08:26:02 7.2 C 6.59 g/m*3 7.2 C 0 km/h
2802 22-11-2007 08:38:01 7.4 C 6.68 g/m*3 7.4 C 0 km/h
2803 22-11-2007 08:50:01 7.5 C 6.72 g/m*3 7.5 C 0 km/h
2804 22-11-2007 09:02:01 7.5 C 6.64 g/m*3 7.5 C 0 km/h
2805 22-11-2007 09:14:01 7.5 C 6.56 g/m*3 7.5 C 0 km/h
2806 22-11-2007 09:26:02 7.7 C 6.65 g/m*3 7.7 C 0 km/h
2807 22-11-2007 09:38:01 7.7 C 6.65 g/m*3 7.7 C 0 km/h
2808 22-11-2007 09:50:01 7.8 C 6.69 g/m*3 7.8 C 0 km/h
2809 22-11-2007 10:02:01 7.9 C 6.65 g/m*3 7.9 C 0 km/h
2810 22-11-2007 10:14:01 8 C 6.61 g/m*3 8 C 0 km/h
2811 22-11-2007 10:26:02 8.1 C 6.57 g/m*3 8.1 C 0 km/h
2812 22-11-2007 10:38:01 8.4 C 6.45 g/m*3 8.4 C 0 km/h
2813 22-11-2007 10:50:01 8.7 C 6.57 g/m*3 8.7 C 0 km/h
2814 22-11-2007 11:02:01 8.9 C 6.66 g/m*3 8.9 C 0 km/h
2815 22-11-2007 11:14:01 9.1 C 6.57 g/m*3 9.1 C 0 km/h
2816 22-11-2007 11:26:02 9.2 C 6.61 g/m*3 9.2 C 0 km/h
2817 22-11-2007 11:38:01 9.3 C 6.56 g/m*3 9.3 C 0 km/h
2818 22-11-2007 11:50:01 9.5 C 6.74 g/m*3 9.5 C 0 km/h
2819 22-11-2007 12:02:01 9.5 C 6.64 g/m*3 9.5 C 0 km/h
2820 22-11-2007 12:14:01 9.6 C 6.6 g/m*3 9.6 C 0 km/h
2821 22-11-2007 12:26:02 9.7 C 6.64 g/m*3 9.7 C 0 km/h
2822 22-11-2007 12:38:01 9.8 C 6.68 g/m*3 9.8 C 0 km/h
2823 22-11-2007 12:50:01 10 C 6.67 g/m*3 10 C 0 km/h
2824 22-11-2007 13:02:02 10.1 C 6.71 g/m*3 10.1 C 0 km/h
2825 22-11-2007 13:14:02 10.1 C 6.71 g/m*3 10.1 C 0 km/h
Sensor: Nr:Datum:Temp:Abs-Feuchte:Windchill:Wind:
Aussen-T/F 2826 22-11-2007 13:26:02 9.9 C 6.63 g/m*3 9.9 C 0 km/h
2827 22-11-2007 13:38:01 10 C 6.58 g/m*3 10 C 0 km/h
2828 22-11-2007 13:50:01 10.1 C 6.62 g/m*3 10.1 C 0 km/h
2829 22-11-2007 14:02:02 10.1 C 6.71 g/m*3 10.1 C 0 km/h
2830 22-11-2007 14:14:02 10 C 6.67 g/m*3 10 C 0 km/h
2831 22-11-2007 14:26:02 10 C 6.67 g/m*3 10 C 0 km/h
2832 22-11-2007 14:38:01 10 C 6.67 g/m*3 10 C 0 km/h
2833 22-11-2007 14:50:01 9.9 C 6.72 g/m*3 9.9 C 0 km/h
2834 22-11-2007 15:02:02 10 C 6.67 g/m*3 10 C 0 km/h
2835 22-11-2007 15:14:02 9.9 C 6.72 g/m*3 9.9 C 0 km/h
2836 22-11-2007 15:26:02 9.8 C 6.77 g/m*3 9.8 C 0 km/h
2837 22-11-2007 15:38:02 9.8 C 6.77 g/m*3 9.8 C 0 km/h
2838 22-11-2007 15:50:02 9.7 C 6.82 g/m*3 9.7 C 0 km/h
2839 22-11-2007 16:02:01 9.7 C 6.82 g/m*3 9.7 C 0 km/h
2840 22-11-2007 16:14:01 9.6 C 6.78 g/m*3 9.6 C 0 km/h
2841 22-11-2007 16:26:01 9.4 C 6.78 g/m*3 9.4 C 0 km/h
2842 22-11-2007 16:38:02 9.3 C 6.83 g/m*3 9.3 C 0 km/h
2843 22-11-2007 16:50:02 9.2 C 6.88 g/m*3 9.2 C 0 km/h
2844 22-11-2007 17:02:01 9.3 C 6.92 g/m*3 9.3 C 0 km/h
2845 22-11-2007 17:14:01 9.2 C 6.88 g/m*3 9.2 C 0 km/h
2846 22-11-2007 17:26:01 9 C 6.79 g/m*3 9 C 0 km/h
2847 22-11-2007 17:38:02 9.1 C 6.92 g/m*3 9.1 C 0 km/h
2848 22-11-2007 17:50:02 9 C 6.88 g/m*3 9 C 0 km/h
2849 22-11-2007 18:02:02 8.9 C 6.92 g/m*3 8.9 C 0 km/h
2850 22-11-2007 18:14:02 8.7 C 6.92 g/m*3 8.7 C 0 km/h
Sensor: Nr:Datum:Temp:Abs-Feuchte:Windchill:Wind:
Aussen-T/F 2851 22-11-2007 18:26:01 8.4 C 6.79 g/m*3 8.4 C 0 km/h
2852 22-11-2007 18:38:02 8.3 C 6.83 g/m*3 8.3 C 0 km/h
2853 22-11-2007 18:50:02 8.2 C 6.87 g/m*3 8.2 C 0 km/h
2854 22-11-2007 19:02:01 8.2 C 6.95 g/m*3 8.2 C 0 km/h
2855 22-11-2007 19:14:01 8 C 6.86 g/m*3 8 C 0 km/h
2856 22-11-2007 19:26:01 7.6 C 6.77 g/m*3 7.6 C 0 km/h
2857 22-11-2007 19:38:02 7.5 C 6.8 g/m*3 7.5 C 0 km/h
2858 22-11-2007 19:50:02 7.4 C 6.76 g/m*3 7.4 C 0 km/h
2859 22-11-2007 20:02:01 7.5 C 6.88 g/m*3 7.5 C 0 km/h
2860 22-11-2007 20:14:01 7.4 C 6.92 g/m*3 7.4 C 0 km/h
2861 22-11-2007 20:26:01 7.4 C 6.92 g/m*3 7.4 C 0 km/h
2862 22-11-2007 20:38:02 7.2 C 6.75 g/m*3 7.2 C 0 km/h
2863 22-11-2007 20:50:02 6.8 C 6.65 g/m*3 6.8 C 0 km/h
2864 22-11-2007 21:02:01 6.7 C 6.69 g/m*3 6.7 C 0 km/h
2865 22-11-2007 21:14:01 6.4 C 6.56 g/m*3 6.4 C 0 km/h
2866 22-11-2007 21:26:01 6.1 C 6.43 g/m*3 6.1 C 0 km/h
2867 22-11-2007 21:38:02 6.1 C 6.43 g/m*3 6.1 C 0 km/h
2868 22-11-2007 21:50:01 6.1 C 6.5 g/m*3 6.1 C 0 km/h
2869 22-11-2007 22:02:02 6 C 6.46 g/m*3 6 C 0 km/h
2870 22-11-2007 22:14:02 6 C 6.46 g/m*3 6 C 0 km/h
2871 22-11-2007 22:26:01 5.9 C 6.56 g/m*3 5.9 C 0 km/h
2872 22-11-2007 22:38:01 6.2 C 6.69 g/m*3 6.2 C 0 km/h
2873 22-11-2007 22:50:01 6 C 6.6 g/m*3 6 C 0 km/h
2874 22-11-2007 23:02:02 5.9 C 6.63 g/m*3 5.9 C 0 km/h
2875 22-11-2007 23:14:02 5.9 C 6.63 g/m*3 5.9 C 0 km/h
Sensor: Nr:Datum:Temp:Abs-Feuchte:Windchill:Wind:
Aussen-T/F 2876 22-11-2007 23:26:01 6 C 6.6 g/m*3 6 C 0 km/h
2877 22-11-2007 23:38:02 6.3 C 6.81 g/m*3 6.3 C 0 km/h
2878 22-11-2007 23:50:02 6.4 C 6.85 g/m*3 6.4 C 0 km/h
2879 23-11-2007 00:02:01 6.7 C 6.99 g/m*3 6.7 C 0 km/h
2880 23-11-2007 00:14:01 6.6 C 6.95 g/m*3 6.6 C 0 km/h
2881 23-11-2007 00:26:02 6.7 C 6.99 g/m*3 6.7 C 0 km/h
2882 23-11-2007 00:38:02 6.7 C 6.91 g/m*3 6.7 C 0 km/h
2883 23-11-2007 00:50:02 6.7 C 6.91 g/m*3 6.7 C 0 km/h
2884 23-11-2007 01:02:01 6.7 C 6.84 g/m*3 6.7 C 0 km/h
2885 23-11-2007 01:14:01 6.8 C 6.88 g/m*3 6.8 C 0 km/h
2886 23-11-2007 01:26:01 6.8 C 6.88 g/m*3 6.8 C 0 km/h
2887 23-11-2007 01:38:02 6.8 C 6.81 g/m*3 6.8 C 0 km/h
2888 23-11-2007 01:50:01 6.9 C 6.93 g/m*3 6.9 C 0 km/h
2889 23-11-2007 02:02:01 6.9 C 6.93 g/m*3 6.9 C 0 km/h
2890 23-11-2007 02:14:01 6.9 C 6.85 g/m*3 6.9 C 0 km/h
2891 23-11-2007 02:26:02 6.8 C 6.81 g/m*3 6.8 C 0 km/h
2892 23-11-2007 02:38:01 6.7 C 6.76 g/m*3 6.7 C 0 km/h
2893 23-11-2007 02:51:05 6.6 C 6.72 g/m*3 6.6 C 0 km/h
2894 23-11-2007 03:03:05 6.6 C 6.72 g/m*3 6.6 C 0 km/h
2895 23-11-2007 03:15:05 6.6 C 6.72 g/m*3 6.6 C 0 km/h
2896 23-11-2007 03:27:05 6.5 C 6.67 g/m*3 6.5 C 0 km/h
2897 23-11-2007 03:39:02 6.4 C 6.63 g/m*3 6.4 C 0 km/h
2898 23-11-2007 03:51:02 6.3 C 6.59 g/m*3 6.3 C 0 km/h
2899 23-11-2007 04:03:02 6.3 C 6.59 g/m*3 6.3 C 0 km/h
2900 23-11-2007 04:15:02 6.3 C 6.66 g/m*3 6.3 C 0 km/h
Sensor: Nr:Datum:Temp:Abs-Feuchte:Windchill:Wind:
Aussen-T/F 2901 23-11-2007 04:27:02 6.3 C 6.66 g/m*3 6.3 C 0 km/h
2902 23-11-2007 04:39:02 6.3 C 6.66 g/m*3 6.3 C 0 km/h
2903 23-11-2007 04:51:01 6.2 C 6.62 g/m*3 6.2 C 0 km/h
2904 23-11-2007 05:03:02 6.2 C 6.62 g/m*3 6.2 C 0 km/h
2905 23-11-2007 05:15:01 6.2 C 6.62 g/m*3 6.2 C 0 km/h
2906 23-11-2007 05:27:01 6.2 C 6.62 g/m*3 6.2 C 0 km/h
2907 23-11-2007 05:39:01 6.2 C 6.62 g/m*3 6.2 C 0 km/h
2908 23-11-2007 05:51:02 6.3 C 6.74 g/m*3 6.3 C 0 km/h
2909 23-11-2007 06:03:02 6.3 C 6.74 g/m*3 6.3 C 0 km/h
2910 23-11-2007 06:15:02 6.3 C 6.74 g/m*3 6.3 C 0 km/h
2911 23-11-2007 06:27:02 6.4 C 6.78 g/m*3 6.4 C 0 km/h
2912 23-11-2007 06:39:03 6.5 C 6.82 g/m*3 6.5 C 0 km/h
2913 23-11-2007 06:51:02 6.5 C 6.82 g/m*3 6.5 C 0 km/h
2914 23-11-2007 07:03:02 6.5 C 6.82 g/m*3 6.5 C 0 km/h
2915 23-11-2007 07:15:02 6.7 C 6.91 g/m*3 6.7 C 0 km/h
2916 23-11-2007 07:27:03 6.7 C 6.91 g/m*3 6.7 C 0 km/h
2917 23-11-2007 07:39:02 6.7 C 6.91 g/m*3 6.7 C 0 km/h
2918 23-11-2007 07:51:02 6.7 C 6.91 g/m*3 6.7 C 0 km/h
2919 23-11-2007 08:03:02 6.7 C 6.91 g/m*3 6.7 C 0 km/h
2920 23-11-2007 08:15:02 6.7 C 6.91 g/m*3 6.7 C 0 km/h
2921 23-11-2007 08:27:03 6.7 C 6.91 g/m*3 6.7 C 0 km/h
2922 23-11-2007 08:39:02 6.7 C 6.91 g/m*3 6.7 C 0 km/h
2923 23-11-2007 08:51:02 6.8 C 6.96 g/m*3 6.8 C 0 km/h
2924 23-11-2007 09:03:03 6.8 C 6.96 g/m*3 6.8 C 0 km/h
2925 23-11-2007 09:15:02 7 C 6.97 g/m*3 7 C 0 km/h
Sensor: Nr:Datum:Temp:Abs-Feuchte:Windchill:Wind:
Aussen-T/F 2926 23-11-2007 09:27:02 6.9 C 7.01 g/m*3 6.9 C 0 km/h
2927 23-11-2007 09:39:02 6.8 C 6.96 g/m*3 6.8 C 0 km/h
2928 23-11-2007 09:51:01 6.9 C 7.08 g/m*3 6.9 C 0 km/h
2929 23-11-2007 10:03:01 6.9 C 7.08 g/m*3 6.9 C 0 km/h
2930 23-11-2007 10:15:02 6.9 C 7.08 g/m*3 6.9 C 0 km/h
2931 23-11-2007 10:27:02 6.9 C 7.08 g/m*3 6.9 C 0 km/h
2932 23-11-2007 10:39:01 7 C 7.13 g/m*3 7 C 0 km/h
2933 23-11-2007 10:51:02 7.2 C 7.22 g/m*3 7.2 C 0 km/h
2934 23-11-2007 11:03:01 7.3 C 7.35 g/m*3 7.3 C 0 km/h
2935 23-11-2007 11:15:02 7.3 C 7.35 g/m*3 7.3 C 0 km/h
2936 23-11-2007 11:27:02 7.5 C 7.44 g/m*3 7.5 C 0 km/h
2937 23-11-2007 11:39:02 7.5 C 7.44 g/m*3 7.5 C 0 km/h
2938 23-11-2007 11:51:03 7.9 C 7.72 g/m*3 7.9 C 0 km/h
2939 23-11-2007 12:03:03 8.1 C 7.74 g/m*3 8.1 C 0 km/h
2940 23-11-2007 12:15:02 8.1 C 7.74 g/m*3 8.1 C 0 km/h
2941 23-11-2007 12:27:02 8.1 C 7.74 g/m*3 8.1 C 0 km/h
2942 23-11-2007 12:39:02 8.1 C 7.74 g/m*3 8.1 C 0 km/h
2943 23-11-2007 12:51:02 8 C 7.69 g/m*3 8 C 0 km/h
2944 23-11-2007 13:03:02 7.9 C 7.72 g/m*3 7.9 C 0 km/h
2945 23-11-2007 13:15:02 8.1 C 7.74 g/m*3 8.1 C 0 km/h
2946 23-11-2007 13:27:02 8.1 C 7.74 g/m*3 8.1 C 0 km/h
2947 23-11-2007 13:39:02 8.3 C 7.84 g/m*3 8.3 C 0 km/h
2948 23-11-2007 13:51:02 8.2 C 7.79 g/m*3 8.2 C 0 km/h
2949 23-11-2007 14:03:02 8.2 C 7.79 g/m*3 8.2 C 0 km/h
2950 23-11-2007 14:15:02 8.2 C 7.79 g/m*3 8.2 C 0 km/h
Sensor: Nr:Datum:Temp:Abs-Feuchte:Windchill:Wind:
Aussen-T/F 2951 23-11-2007 14:27:02 8.1 C 7.74 g/m*3 8.1 C 0 km/h
2952 23-11-2007 14:39:02 8.2 C 7.79 g/m*3 8.2 C 0 km/h
2953 23-11-2007 14:51:02 8.3 C 7.84 g/m*3 8.3 C 0 km/h
2954 23-11-2007 15:03:02 8.4 C 7.89 g/m*3 8.4 C 0 km/h
2955 23-11-2007 15:15:02 8.5 C 8.03 g/m*3 8.5 C 0 km/h
2956 23-11-2007 15:27:02 8.4 C 7.89 g/m*3 8.4 C 0 km/h
2957 23-11-2007 15:39:02 8.4 C 7.89 g/m*3 8.4 C 0 km/h
2958 23-11-2007 15:51:02 8.3 C 7.84 g/m*3 8.3 C 0 km/h
2959 23-11-2007 16:03:02 8.2 C 7.7 g/m*3 8.2 C 0 km/h
2960 23-11-2007 16:15:02 8 C 7.52 g/m*3 8 C 0 km/h
2961 23-11-2007 16:27:03 7.9 C 7.31 g/m*3 7.9 C 0 km/h
2962 23-11-2007 16:39:02 7.6 C 7.09 g/m*3 7.6 C 0 km/h
2963 23-11-2007 16:51:02 7.6 C 7.17 g/m*3 7.6 C 0 km/h
2964 23-11-2007 17:03:02 7.5 C 7.12 g/m*3 7.5 C 0 km/h
2965 23-11-2007 17:15:02 7.4 C 7.16 g/m*3 7.4 C 0 km/h
2966 23-11-2007 17:27:02 7.3 C 7.19 g/m*3 7.3 C 0 km/h
2967 23-11-2007 17:39:02 7 C 6.97 g/m*3 7 C 0 km/h
2968 23-11-2007 17:51:02 6.8 C 6.88 g/m*3 6.8 C 0 km/h
2969 23-11-2007 18:03:01 6.5 C 6.6 g/m*3 6.5 C 0 km/h
2970 23-11-2007 18:15:01 6.4 C 6.48 g/m*3 6.4 C 0 km/h
2971 23-11-2007 18:27:01 6.2 C 6.25 g/m*3 6.2 C 0 km/h
2972 23-11-2007 18:39:02 6.1 C 6.21 g/m*3 6.1 C 0 km/h
2973 23-11-2007 18:51:02 5.9 C 6.27 g/m*3 5.9 C 0 km/h
2974 23-11-2007 19:03:02 5.8 C 6.23 g/m*3 5.8 C 0 km/h
2975 23-11-2007 19:15:02 5.7 C 6.12 g/m*3 5.7 C 0 km/h
Sensor: Nr:Datum:Temp:Abs-Feuchte:Windchill:Wind:
Aussen-T/F 2976 23-11-2007 19:27:02 5.6 C 6.01 g/m*3 5.6 C 0 km/h
2977 23-11-2007 19:39:02 5.7 C 6.05 g/m*3 5.7 C 0 km/h
2978 23-11-2007 19:51:02 5.7 C 6.05 g/m*3 5.7 C 0 km/h
2979 23-11-2007 20:03:02 5.7 C 6.12 g/m*3 5.7 C 0 km/h
2980 23-11-2007 20:15:02 5.7 C 6.12 g/m*3 5.7 C 0 km/h
2981 23-11-2007 20:27:02 5.8 C 6.16 g/m*3 5.8 C 0 km/h
2982 23-11-2007 20:39:02 5.8 C 6.09 g/m*3 5.8 C 0 km/h
2983 23-11-2007 20:51:02 5.8 C 5.95 g/m*3 5.8 C 0 km/h
2984 23-11-2007 21:03:02 6.3 C 6.07 g/m*3 6.3 C 0 km/h
2985 23-11-2007 21:15:02 5.7 C 5.91 g/m*3 5.7 C 0 km/h
2986 23-11-2007 21:27:02 5.6 C 5.94 g/m*3 5.6 C 0 km/h
2987 23-11-2007 21:39:02 5.5 C 5.9 g/m*3 5.5 C 0 km/h
2988 23-11-2007 21:51:02 5.4 C 5.86 g/m*3 5.4 C 0 km/h
2989 23-11-2007 22:03:02 5.4 C 5.79 g/m*3 5.4 C 0 km/h
2990 23-11-2007 22:15:02 5.3 C 5.75 g/m*3 5.3 C 0 km/h
2991 23-11-2007 22:27:02 5.2 C 5.71 g/m*3 5.2 C 0 km/h
2992 23-11-2007 22:39:02 5 C 5.71 g/m*3 5 C 0 km/h
2993 23-11-2007 22:51:02 5 C 5.71 g/m*3 5 C 0 km/h
2994 23-11-2007 23:03:02 5.1 C 5.75 g/m*3 5.1 C 0 km/h
2995 23-11-2007 23:15:02 5 C 5.57 g/m*3 5 C 0 km/h
2996 23-11-2007 23:27:02 4.7 C 5.46 g/m*3 4.7 C 0 km/h
2997 23-11-2007 23:39:02 4.4 C 5.35 g/m*3 4.4 C 0 km/h
2998 23-11-2007 23:51:02 4.1 C 5.25 g/m*3 4.1 C 0 km/h
2999 24-11-2007 00:03:02 4 C 5.28 g/m*3 4 C 0 km/h
3000 24-11-2007 00:15:02 3.8 C 5.27 g/m*3 3.8 C 0 km/h
Sensor: Nr:Datum:Temp:Abs-Feuchte:Windchill:Wind:
Aussen-T/F 3001 24-11-2007 00:27:02 3.4 C 5.13 g/m*3 3.4 C 0 km/h
3002 24-11-2007 00:39:02 3.3 C 5.1 g/m*3 3.3 C 0 km/h
3003 24-11-2007 00:51:02 3.2 C 5.12 g/m*3 3.2 C 0 km/h
3004 24-11-2007 01:03:02 3 C 5.05 g/m*3 3 C 0 km/h
3005 24-11-2007 01:15:01 2.7 C 5.01 g/m*3 2.7 C 0 km/h
3006 24-11-2007 01:27:01 2.4 C 4.97 g/m*3 2.4 C 0 km/h
3007 24-11-2007 01:39:02 2.3 C 4.93 g/m*3 2.3 C 0 km/h
3008 24-11-2007 01:51:02 2 C 4.89 g/m*3 2 C 0 km/h
3009 24-11-2007 02:03:01 1.9 C 4.91 g/m*3 1.9 C 0 km/h
3010 24-11-2007 02:15:01 1.7 C 4.85 g/m*3 1.7 C 0 km/h
3011 24-11-2007 02:27:01 1.6 C 4.81 g/m*3 1.6 C 0 km/h
3012 24-11-2007 02:39:02 1.5 C 4.83 g/m*3 1.5 C 0 km/h
3013 24-11-2007 02:52:04 1.4 C 4.8 g/m*3 1.4 C 0 km/h
3014 24-11-2007 03:04:04 1.3 C 4.77 g/m*3 1.3 C 0 km/h
3015 24-11-2007 03:16:04 1.3 C 4.77 g/m*3 1.3 C 0 km/h
3016 24-11-2007 03:28:05 1.2 C 4.79 g/m*3 1.2 C 0 km/h
3017 24-11-2007 03:40:03 1.2 C 4.79 g/m*3 1.2 C 0 km/h
3018 24-11-2007 03:52:03 1 C 4.72 g/m*3 1 C 0 km/h
3019 24-11-2007 04:04:02 1 C 4.72 g/m*3 1 C 0 km/h
3020 24-11-2007 04:16:02 1.2 C 4.79 g/m*3 1.2 C 0 km/h
3021 24-11-2007 04:28:02 1.4 C 4.91 g/m*3 1.4 C 0 km/h
3022 24-11-2007 04:40:03 1.6 C 5.03 g/m*3 1.6 C 0 km/h
3023 24-11-2007 04:52:02 1.7 C 5.06 g/m*3 1.7 C 0 km/h
3024 24-11-2007 05:04:02 1.8 C 5.1 g/m*3 1.8 C 0 km/h
3025 24-11-2007 05:16:02 2.1 C 5.15 g/m*3 2.1 C 0 km/h
Sensor: Nr:Datum:Temp:Abs-Feuchte:Windchill:Wind:
Aussen-T/F 3026 24-11-2007 05:28:02 1.9 C 5.13 g/m*3 1.9 C 0 km/h
3027 24-11-2007 05:40:02 2 C 5.06 g/m*3 2 C 0 km/h
3028 24-11-2007 05:52:02 2.1 C 5.09 g/m*3 2.1 C 0 km/h
3029 24-11-2007 06:04:02 2.1 C 5.04 g/m*3 2.1 C 0 km/h
3030 24-11-2007 06:16:02 2.1 C 5.04 g/m*3 2.1 C 0 km/h
3031 24-11-2007 06:28:02 2.2 C 5.07 g/m*3 2.2 C 0 km/h
3032 24-11-2007 06:40:01 2.3 C 5.05 g/m*3 2.3 C 0 km/h
3033 24-11-2007 06:52:01 2.3 C 5.05 g/m*3 2.3 C 0 km/h
3034 24-11-2007 07:04:02 2.4 C 5.08 g/m*3 2.4 C 0 km/h
3035 24-11-2007 07:16:02 2.5 C 5.12 g/m*3 2.5 C 0 km/h
3036 24-11-2007 07:28:02 2.6 C 5.15 g/m*3 2.6 C 0 km/h
3037 24-11-2007 07:40:01 2.6 C 5.15 g/m*3 2.6 C 0 km/h
3038 24-11-2007 07:52:01 2.6 C 5.15 g/m*3 2.6 C 0 km/h
3039 24-11-2007 08:04:01 2.7 C 5.19 g/m*3 2.7 C 0 km/h
3040 24-11-2007 08:16:02 2.8 C 5.22 g/m*3 2.8 C 0 km/h
3041 24-11-2007 08:28:02 2.8 C 5.22 g/m*3 2.8 C 0 km/h
3042 24-11-2007 08:40:02 2.6 C 5.09 g/m*3 2.6 C 0 km/h
3043 24-11-2007 08:52:02 2.7 C 5.19 g/m*3 2.7 C 0 km/h
3044 24-11-2007 09:04:02 2.9 C 5.26 g/m*3 2.9 C 0 km/h
3045 24-11-2007 09:16:03 3.2 C 5.3 g/m*3 3.2 C 0 km/h
3046 24-11-2007 09:28:03 3.3 C 5.28 g/m*3 3.3 C 0 km/h
3047 24-11-2007 09:40:02 3.4 C 5.19 g/m*3 3.4 C 0 km/h
3048 24-11-2007 09:52:01 3.6 C 5.14 g/m*3 3.6 C 0 km/h
3049 24-11-2007 10:04:01 3.8 C 5.21 g/m*3 3.8 C 0 km/h
3050 24-11-2007 10:16:01 4 C 5.09 g/m*3 4 C 0 km/h
Sensor: Nr:Datum:Temp:Abs-Feuchte:Windchill:Wind:
Aussen-T/F 3051 24-11-2007 10:28:01 4.2 C 5.03 g/m*3 4.2 C 0 km/h
3052 24-11-2007 10:40:02 4.3 C 4.8 g/m*3 4.3 C 0 km/h
3053 24-11-2007 10:52:02 4.4 C 4.77 g/m*3 4.4 C 0 km/h
3054 24-11-2007 11:04:02 4.6 C 4.7 g/m*3 4.6 C 0 km/h
3055 24-11-2007 11:16:02 4.8 C 4.63 g/m*3 4.8 C 0 km/h
3056 24-11-2007 11:28:02 4.6 C 4.57 g/m*3 4.6 C 0 km/h
3057 24-11-2007 11:40:02 4.7 C 4.6 g/m*3 4.7 C 0 km/h
3058 24-11-2007 11:52:02 5 C 4.76 g/m*3 5 C 0 km/h
3059 24-11-2007 12:04:02 5 C 4.55 g/m*3 5 C 0 km/h
3060 24-11-2007 12:16:02 5 C 4.42 g/m*3 5 C 0 km/h
3061 24-11-2007 12:28:02 4.9 C 4.46 g/m*3 4.9 C 0 km/h
3062 24-11-2007 12:40:02 5.1 C 4.51 g/m*3 5.1 C 0 km/h
3063 24-11-2007 12:52:02 5.2 C 4.54 g/m*3 5.2 C 0 km/h
3064 24-11-2007 13:04:02 5.1 C 4.51 g/m*3 5.1 C 0 km/h
3065 24-11-2007 13:16:02 4.9 C 4.46 g/m*3 4.9 C 0 km/h
3066 24-11-2007 13:28:02 4.8 C 4.56 g/m*3 4.8 C 0 km/h
3067 24-11-2007 13:40:02 4.7 C 4.53 g/m*3 4.7 C 0 km/h
3068 24-11-2007 13:52:02 5.6 C 4.81 g/m*3 5.6 C 0 km/h
3069 24-11-2007 14:04:02 6 C 4.65 g/m*3 6 C 0 km/h
3070 24-11-2007 14:16:02 5.5 C 4.49 g/m*3 5.5 C 0 km/h
3071 24-11-2007 14:28:02 5 C 4.55 g/m*3 5 C 0 km/h
3072 24-11-2007 14:40:02 4.5 C 4.6 g/m*3 4.5 C 0 km/h
3073 24-11-2007 14:52:02 4.3 C 4.61 g/m*3 4.3 C 0 km/h
3074 24-11-2007 15:04:02 4.2 C 4.7 g/m*3 4.2 C 0 km/h
3075 24-11-2007 15:16:02 4 C 4.7 g/m*3 4 C 0 km/h
Sensor: Nr:Datum:Temp:Abs-Feuchte:Windchill:Wind:
Aussen-T/F 3076 24-11-2007 15:28:02 3.8 C 4.77 g/m*3 3.8 C 0 km/h
3077 24-11-2007 15:40:02 3.8 C 4.83 g/m*3 3.8 C 0 km/h
3078 24-11-2007 15:52:01 3.8 C 4.83 g/m*3 3.8 C 0 km/h
3079 24-11-2007 16:04:02 4 C 4.9 g/m*3 4 C 0 km/h
3080 24-11-2007 16:16:02 4.1 C 4.93 g/m*3 4.1 C 0 km/h
3081 24-11-2007 16:28:02 4 C 4.9 g/m*3 4 C 0 km/h
3082 24-11-2007 16:40:01 3.7 C 4.8 g/m*3 3.7 C 0 km/h
3083 24-11-2007 16:52:01 3.3 C 4.73 g/m*3 3.3 C 0 km/h
3084 24-11-2007 17:04:02 3 C 4.64 g/m*3 3 C 0 km/h
3085 24-11-2007 17:16:02 2.6 C 4.63 g/m*3 2.6 C 0 km/h
3086 24-11-2007 17:28:02 2.3 C 4.54 g/m*3 2.3 C 0 km/h
3087 24-11-2007 17:40:02 2.1 C 4.53 g/m*3 2.1 C 0 km/h
3088 24-11-2007 17:52:02 1.8 C 4.55 g/m*3 1.8 C 0 km/h
3089 24-11-2007 18:04:02 1.6 C 4.49 g/m*3 1.6 C 0 km/h
3090 24-11-2007 18:16:02 1.5 C 4.51 g/m*3 1.5 C 0 km/h
3091 24-11-2007 18:28:02 1.4 C 4.53 g/m*3 1.4 C 0 km/h
3092 24-11-2007 18:40:02 1.7 C 4.68 g/m*3 1.7 C 0 km/h
3093 24-11-2007 18:52:02 2 C 4.72 g/m*3 2 C 0 km/h
3094 24-11-2007 19:04:02 2.3 C 4.76 g/m*3 2.3 C 0 km/h
3095 24-11-2007 19:16:01 2.2 C 4.73 g/m*3 2.2 C 0 km/h
3096 24-11-2007 19:28:01 2 C 4.67 g/m*3 2 C 0 km/h
3097 24-11-2007 19:40:02 1.8 C 4.6 g/m*3 1.8 C 0 km/h
3098 24-11-2007 19:52:02 1.5 C 4.57 g/m*3 1.5 C 0 km/h
3099 24-11-2007 20:04:01 1.4 C 4.53 g/m*3 1.4 C 0 km/h
3100 24-11-2007 20:16:02 1.1 C 4.49 g/m*3 1.1 C 0 km/h
Sensor: Nr:Datum:Temp:Abs-Feuchte:Windchill:Wind:
Aussen-T/F 3101 24-11-2007 20:28:02 0.9 C 4.48 g/m*3 0.9 C 0 km/h
3102 24-11-2007 20:40:01 0.7 C 4.42 g/m*3 0.7 C 0 km/h
3103 24-11-2007 20:52:02 0.8 C 4.51 g/m*3 0.8 C 0 km/h
3104 24-11-2007 21:04:02 1 C 4.57 g/m*3 1 C 0 km/h
3105 24-11-2007 21:16:03 1.1 C 4.65 g/m*3 1.1 C 0 km/h
3106 24-11-2007 21:28:03 1 C 4.62 g/m*3 1 C 0 km/h
3107 24-11-2007 21:40:02 1.2 C 4.63 g/m*3 1.2 C 0 km/h
3108 24-11-2007 21:52:02 1.2 C 4.63 g/m*3 1.2 C 0 km/h
3109 24-11-2007 22:04:01 1.2 C 4.58 g/m*3 1.2 C 0 km/h
3110 24-11-2007 22:16:02 1.5 C 4.67 g/m*3 1.5 C 0 km/h
3111 24-11-2007 22:28:02 1.5 C 4.62 g/m*3 1.5 C 0 km/h
3112 24-11-2007 22:40:01 1.5 C 4.57 g/m*3 1.5 C 0 km/h
3113 24-11-2007 22:52:01 1.3 C 4.5 g/m*3 1.3 C 0 km/h
3114 24-11-2007 23:04:02 1.5 C 4.51 g/m*3 1.5 C 0 km/h
3115 24-11-2007 23:16:02 2.3 C 4.48 g/m*3 2.3 C 0 km/h
3116 24-11-2007 23:28:02 2.7 C 4.25 g/m*3 2.7 C 0 km/h
3117 24-11-2007 23:40:01 2.6 C 4.28 g/m*3 2.6 C 0 km/h
3118 24-11-2007 23:52:01 2.5 C 4.31 g/m*3 2.5 C 0 km/h
3119 25-11-2007 00:04:02 2.6 C 4.28 g/m*3 2.6 C 0 km/h
3120 25-11-2007 00:16:02 2.7 C 4.31 g/m*3 2.7 C 0 km/h
3121 25-11-2007 00:28:03 3 C 4.22 g/m*3 3 C 0 km/h
3122 25-11-2007 00:40:02 3.2 C 4.22 g/m*3 3.2 C 0 km/h
3123 25-11-2007 00:52:03 3.3 C 4.25 g/m*3 3.3 C 0 km/h
3124 25-11-2007 01:04:02 3.4 C 4.28 g/m*3 3.4 C 0 km/h
3125 25-11-2007 01:16:02 3.3 C 4.31 g/m*3 3.3 C 0 km/h
Sensor: Nr:Datum:Temp:Abs-Feuchte:Windchill:Wind:
Aussen-T/F 3126 25-11-2007 01:28:02 3.4 C 4.4 g/m*3 3.4 C 0 km/h
3127 25-11-2007 01:40:03 3.8 C 4.45 g/m*3 3.8 C 0 km/h
3128 25-11-2007 01:52:02 3.7 C 4.36 g/m*3 3.7 C 0 km/h
3129 25-11-2007 02:04:02 3.7 C 4.42 g/m*3 3.7 C 0 km/h
3130 25-11-2007 02:16:02 3.5 C 4.43 g/m*3 3.5 C 0 km/h
3131 25-11-2007 02:28:02 3.5 C 4.43 g/m*3 3.5 C 0 km/h
3132 25-11-2007 02:40:02 3.3 C 4.55 g/m*3 3.3 C 0 km/h
3133 25-11-2007 02:53:03 3.1 C 4.67 g/m*3 3.1 C 0 km/h
3134 25-11-2007 03:05:03 3.1 C 4.79 g/m*3 3.1 C 0 km/h
3135 25-11-2007 03:17:03 3 C 4.82 g/m*3 3 C 0 km/h
3136 25-11-2007 03:29:04 3.1 C 4.79 g/m*3 3.1 C 0 km/h
3137 25-11-2007 03:41:02 3.1 C 4.79 g/m*3 3.1 C 0 km/h
3138 25-11-2007 03:53:02 3.2 C 4.76 g/m*3 3.2 C 0 km/h
3139 25-11-2007 04:05:02 3.2 C 4.76 g/m*3 3.2 C 0 km/h
3140 25-11-2007 04:17:01 3.2 C 4.76 g/m*3 3.2 C 0 km/h
3141 25-11-2007 04:29:01 3.3 C 4.79 g/m*3 3.3 C 0 km/h
3142 25-11-2007 04:41:02 3.3 C 4.79 g/m*3 3.3 C 0 km/h
3143 25-11-2007 04:53:01 3.3 C 4.79 g/m*3 3.3 C 0 km/h
3144 25-11-2007 05:05:01 3.2 C 4.88 g/m*3 3.2 C 0 km/h
3145 25-11-2007 05:17:02 3.2 C 4.94 g/m*3 3.2 C 0 km/h
3146 25-11-2007 05:29:02 3.2 C 4.94 g/m*3 3.2 C 0 km/h
3147 25-11-2007 05:41:01 3.3 C 4.97 g/m*3 3.3 C 0 km/h
3148 25-11-2007 05:53:01 3.4 C 4.95 g/m*3 3.4 C 0 km/h
3149 25-11-2007 06:05:02 3.4 C 5.01 g/m*3 3.4 C 0 km/h
3150 25-11-2007 06:17:01 3.4 C 5.01 g/m*3 3.4 C 0 km/h
Sensor: Nr:Datum:Temp:Abs-Feuchte:Windchill:Wind:
Aussen-T/F 3151 25-11-2007 06:29:01 3.5 C 5.04 g/m*3 3.5 C 0 km/h
3152 25-11-2007 06:41:01 3.7 C 5.05 g/m*3 3.7 C 0 km/h
3153 25-11-2007 06:53:01 3.7 C 5.05 g/m*3 3.7 C 0 km/h
3154 25-11-2007 07:05:02 3.6 C 5.01 g/m*3 3.6 C 0 km/h
3155 25-11-2007 07:17:01 3.7 C 5.05 g/m*3 3.7 C 0 km/h
3156 25-11-2007 07:29:01 3.7 C 5.11 g/m*3 3.7 C 0 km/h
3157 25-11-2007 07:41:01 3.7 C 5.11 g/m*3 3.7 C 0 km/h
3158 25-11-2007 07:53:02 3.7 C 5.11 g/m*3 3.7 C 0 km/h
3159 25-11-2007 08:05:02 3.7 C 5.17 g/m*3 3.7 C 0 km/h
3160 25-11-2007 08:17:02 3.8 C 5.21 g/m*3 3.8 C 0 km/h
3161 25-11-2007 08:29:02 3.9 C 5.24 g/m*3 3.9 C 0 km/h
3162 25-11-2007 08:41:02 3.9 C 5.24 g/m*3 3.9 C 0 km/h
3163 25-11-2007 08:53:02 3.9 C 5.24 g/m*3 3.9 C 0 km/h
3164 25-11-2007 09:05:02 4 C 5.21 g/m*3 4 C 0 km/h
3165 25-11-2007 09:17:01 4 C 5.28 g/m*3 4 C 0 km/h
3166 25-11-2007 09:29:01 4 C 5.4 g/m*3 4 C 0 km/h
3167 25-11-2007 09:41:02 4.2 C 5.48 g/m*3 4.2 C 0 km/h
3168 25-11-2007 09:53:03 4.3 C 5.51 g/m*3 4.3 C 0 km/h
3169 25-11-2007 10:05:02 4.1 C 5.5 g/m*3 4.1 C 0 km/h
3170 25-11-2007 10:17:02 4.3 C 5.64 g/m*3 4.3 C 0 km/h
3171 25-11-2007 10:29:02 4.3 C 5.64 g/m*3 4.3 C 0 km/h
3172 25-11-2007 10:41:02 4.4 C 5.75 g/m*3 4.4 C 0 km/h
3173 25-11-2007 10:53:02 4.6 C 5.82 g/m*3 4.6 C 0 km/h
3174 25-11-2007 11:05:03 4.8 C 5.83 g/m*3 4.8 C 0 km/h
3175 25-11-2007 11:17:03 4.9 C 5.74 g/m*3 4.9 C 0 km/h
Sensor: Nr:Datum:Temp:Abs-Feuchte:Windchill:Wind:
Aussen-T/F 3176 25-11-2007 11:29:03 4.7 C 5.73 g/m*3 4.7 C 0 km/h
3177 25-11-2007 11:41:03 4.6 C 5.82 g/m*3 4.6 C 0 km/h
3178 25-11-2007 11:53:02 4.9 C 6.01 g/m*3 4.9 C 0 km/h
3179 25-11-2007 12:05:02 5 C 6.05 g/m*3 5 C 0 km/h
3180 25-11-2007 12:17:02 4.8 C 5.97 g/m*3 4.8 C 0 km/h
3181 25-11-2007 12:29:02 5.1 C 6.09 g/m*3 5.1 C 0 km/h
3182 25-11-2007 12:41:02 5.3 C 6.24 g/m*3 5.3 C 0 km/h
3183 25-11-2007 12:53:02 5.4 C 6.21 g/m*3 5.4 C 0 km/h
3184 25-11-2007 13:05:02 5.4 C 6.21 g/m*3 5.4 C 0 km/h
3185 25-11-2007 13:17:02 5.6 C 6.29 g/m*3 5.6 C 0 km/h
3186 25-11-2007 13:29:02 6.1 C 6.36 g/m*3 6.1 C 0 km/h
3187 25-11-2007 13:41:03 6.2 C 6.18 g/m*3 6.2 C 0 km/h
3188 25-11-2007 13:53:02 6.4 C 6.18 g/m*3 6.4 C 0 km/h
3189 25-11-2007 14:05:02 6.8 C 6.27 g/m*3 6.8 C 0 km/h
3190 25-11-2007 14:17:02 6.8 C 6.12 g/m*3 6.8 C 0 km/h
3191 25-11-2007 14:29:02 6.9 C 6.16 g/m*3 6.9 C 0 km/h
3192 25-11-2007 14:41:02 5.3 C 5.54 g/m*3 5.3 C 0 km/h
3193 25-11-2007 14:53:02 4.7 C 5.6 g/m*3 4.7 C 0 km/h
3194 25-11-2007 15:05:02 4.5 C 5.72 g/m*3 4.5 C 0 km/h
3195 25-11-2007 15:17:01 4.6 C 5.82 g/m*3 4.6 C 0 km/h
3196 25-11-2007 15:29:01 4.7 C 5.86 g/m*3 4.7 C 0 km/h
3197 25-11-2007 15:41:02 4.8 C 5.9 g/m*3 4.8 C 0 km/h
3198 25-11-2007 15:53:02 4.8 C 5.9 g/m*3 4.8 C 0 km/h
3199 25-11-2007 16:05:02 5 C 5.91 g/m*3 5 C 0 km/h
3200 25-11-2007 16:17:03 4.9 C 5.87 g/m*3 4.9 C 0 km/h
Sensor: Nr:Datum:Temp:Abs-Feuchte:Windchill:Wind:
Aussen-T/F 3201 25-11-2007 16:29:03 4.8 C 5.83 g/m*3 4.8 C 0 km/h
3202 25-11-2007 16:41:02 4.8 C 5.83 g/m*3 4.8 C 0 km/h
3203 25-11-2007 16:53:02 4.7 C 5.8 g/m*3 4.7 C 0 km/h
3204 25-11-2007 17:05:01 4.7 C 5.86 g/m*3 4.7 C 0 km/h
3205 25-11-2007 17:17:02 4.7 C 5.86 g/m*3 4.7 C 0 km/h
3206 25-11-2007 17:29:02 4.8 C 5.9 g/m*3 4.8 C 0 km/h
3207 25-11-2007 17:41:02 4.8 C 5.77 g/m*3 4.8 C 0 km/h
3208 25-11-2007 17:53:03 4.8 C 5.63 g/m*3 4.8 C 0 km/h
3209 25-11-2007 18:05:03 4.9 C 5.67 g/m*3 4.9 C 0 km/h
3210 25-11-2007 18:17:02 4.9 C 5.6 g/m*3 4.9 C 0 km/h
3211 25-11-2007 18:29:02 4.8 C 5.63 g/m*3 4.8 C 0 km/h
3212 25-11-2007 18:41:03 4.7 C 5.66 g/m*3 4.7 C 0 km/h
3213 25-11-2007 18:53:01 4.7 C 5.66 g/m*3 4.7 C 0 km/h
3214 25-11-2007 19:05:01 4.5 C 5.59 g/m*3 4.5 C 0 km/h
3215 25-11-2007 19:17:02 4.4 C 5.55 g/m*3 4.4 C 0 km/h
3216 25-11-2007 19:29:02 4.3 C 5.51 g/m*3 4.3 C 0 km/h
3217 25-11-2007 19:41:01 4.5 C 5.52 g/m*3 4.5 C 0 km/h
3218 25-11-2007 19:53:02 4.4 C 5.35 g/m*3 4.4 C 0 km/h
3219 25-11-2007 20:05:02 4.6 C 5.43 g/m*3 4.6 C 0 km/h
3220 25-11-2007 20:17:02 5.1 C 5.27 g/m*3 5.1 C 0 km/h
3221 25-11-2007 20:29:02 5.2 C 5.23 g/m*3 5.2 C 0 km/h
3222 25-11-2007 20:41:02 4.7 C 5.26 g/m*3 4.7 C 0 km/h
3223 25-11-2007 20:53:02 4.4 C 5.35 g/m*3 4.4 C 0 km/h
3224 25-11-2007 21:05:02 4.2 C 5.41 g/m*3 4.2 C 0 km/h
3225 25-11-2007 21:17:03 4 C 5.4 g/m*3 4 C 0 km/h
Sensor: Nr:Datum:Temp:Abs-Feuchte:Windchill:Wind:
Aussen-T/F 3226 25-11-2007 21:29:03 4.1 C 5.38 g/m*3 4.1 C 0 km/h
3227 25-11-2007 21:41:02 4.2 C 5.22 g/m*3 4.2 C 0 km/h
3228 25-11-2007 21:53:02 4.2 C 5.09 g/m*3 4.2 C 0 km/h
3229 25-11-2007 22:05:01 4.1 C 5.06 g/m*3 4.1 C 0 km/h
3230 25-11-2007 22:17:02 4.3 C 5.12 g/m*3 4.3 C 0 km/h
3231 25-11-2007 22:29:02 4.5 C 5.13 g/m*3 4.5 C 0 km/h
3232 25-11-2007 22:41:02 4.6 C 5.1 g/m*3 4.6 C 0 km/h
3233 25-11-2007 22:53:02 4.7 C 5.06 g/m*3 4.7 C 0 km/h
3234 25-11-2007 23:05:01 4.6 C 4.96 g/m*3 4.6 C 0 km/h
3235 25-11-2007 23:17:02 4.5 C 4.86 g/m*3 4.5 C 0 km/h
3236 25-11-2007 23:29:02 4.4 C 4.83 g/m*3 4.4 C 0 km/h
3237 25-11-2007 23:41:02 3.9 C 4.99 g/m*3 3.9 C 0 km/h
3238 25-11-2007 23:53:02 3.6 C 5.01 g/m*3 3.6 C 0 km/h
3239 26-11-2007 00:05:03 3.7 C 5.17 g/m*3 3.7 C 0 km/h
3240 26-11-2007 00:17:03 3.5 C 5.16 g/m*3 3.5 C 0 km/h
3241 26-11-2007 00:29:03 3.2 C 5.12 g/m*3 3.2 C 0 km/h
3242 26-11-2007 00:41:02 3.6 C 5.32 g/m*3 3.6 C 0 km/h
3243 26-11-2007 00:53:02 3.7 C 5.17 g/m*3 3.7 C 0 km/h
3244 26-11-2007 01:05:02 3.8 C 5.14 g/m*3 3.8 C 0 km/h
3245 26-11-2007 01:17:02 3.7 C 4.99 g/m*3 3.7 C 0 km/h
3246 26-11-2007 01:29:02 3.7 C 4.92 g/m*3 3.7 C 0 km/h
3247 26-11-2007 01:41:02 3.7 C 4.86 g/m*3 3.7 C 0 km/h
3248 26-11-2007 01:53:02 3.9 C 4.86 g/m*3 3.9 C 0 km/h
3249 26-11-2007 02:05:02 3.8 C 4.77 g/m*3 3.8 C 0